Provisional Data: Apalachin Creek near Apalachin, NY


Please select a monitoring station.
Please select start date.
Please select start date.

Toggle Unit: C/F Toggle Unit: C/F
Sample Time Temperature (C) Temperature (F) Specific Conductivity (mS/cm) pH   Turbidity (NTU+) DO (mg/L)
4/13/2022 12:00:00 AM 9.41 48.938 0.11 7.25 6.83 10.69
4/13/2022 12:15:00 AM 9.31 48.758 0.11 7.24 6.75 10.72
4/13/2022 12:30:00 AM 9.21 48.578 0.111 7.24 7.47 10.75
4/13/2022 12:45:00 AM 9.12 48.416 0.111 7.25 7.07 10.77
4/13/2022 1:00:00 AM 9.02 48.236 0.111 7.24 6.87 10.8
4/13/2022 1:15:00 AM 8.93 48.074 0.111 7.25 6.2 10.82
4/13/2022 1:30:00 AM 8.84 47.912 0.111 7.26 6.28 10.85
4/13/2022 1:45:00 AM 8.75 47.75 0.111 7.24 6.39 10.87
4/13/2022 2:00:00 AM 8.66 47.588 0.111 7.24 6.5 10.89
4/13/2022 2:15:00 AM 8.57 47.426 0.112 7.25 6.17 10.91
4/13/2022 2:30:00 AM 8.48 47.264 0.112 7.25 6.11 10.94
4/13/2022 2:45:00 AM 8.39 47.102 0.112 7.24 6.29 10.96
4/13/2022 3:00:00 AM 8.31 46.958 0.112 7.24 6.39 10.98
4/13/2022 3:15:00 AM 8.25 46.85 0.112 7.24 6.43 11
4/13/2022 3:30:00 AM 8.19 46.742 0.112 7.25 6.02 11.03
4/13/2022 3:45:00 AM 8.12 46.616 0.112 7.25 5.75 11.05
4/13/2022 4:00:00 AM 8.05 46.49 0.112 7.25 5.84 11.07
4/13/2022 4:15:00 AM 7.99 46.382 0.112 7.25 5.96 11.08
4/13/2022 4:30:00 AM 7.95 46.31 0.113 7.25 5.28 11.1
4/13/2022 4:45:00 AM 7.91 46.238 0.113 7.24 5.21 11.12
4/13/2022 5:00:00 AM 7.87 46.166 0.113 7.25 5.94 11.13
4/13/2022 5:15:00 AM 7.84 46.112 0.113 7.25 5.79 11.15
4/13/2022 5:30:00 AM 7.81 46.058 0.113 7.24 5.89 11.17
4/13/2022 5:45:00 AM 7.77 45.986 0.113 7.26 6.05 11.17
4/13/2022 6:00:00 AM 7.74 45.932 0.113 7.24 5.39 11.19
4/13/2022 6:15:00 AM 7.71 45.878 0.113 7.25 5.53 11.19
4/13/2022 6:30:00 AM 7.69 45.842 0.107 7.26 5.87 11.19
4/13/2022 6:45:00 AM 7.67 45.806 0.113 7.25 5.62 11.21
4/13/2022 7:00:00 AM 7.65 45.77 0.113 7.25 5.83 11.22
4/13/2022 7:15:00 AM 7.63 45.734 0.114 7.26 5.03 11.23
4/13/2022 7:30:00 AM 7.62 45.716 0.114 7.25 5.34 11.25
4/13/2022 7:45:00 AM 7.61 45.698 0.114 7.26 5.75 11.27
4/13/2022 8:00:00 AM 7.6 45.68 0.114 7.27 5.55 11.28
4/13/2022 8:15:00 AM 7.6 45.68 0.114 7.27 5.15 11.32
4/13/2022 8:30:00 AM 7.62 45.716 0.114 7.27 5.6 11.35
4/13/2022 8:45:00 AM 7.7 45.86 0.114 7.29 5.14 11.39
4/13/2022 9:00:00 AM 7.81 46.058 0.114 7.3 5.26 11.42
4/13/2022 9:15:00 AM 7.92 46.256 0.114 7.31 5.51 11.43
4/13/2022 9:30:00 AM 8.06 46.508 0.114 7.31 5.25 11.43
4/13/2022 9:45:00 AM 8.25 46.85 0.114 7.33 4.87 11.42
4/13/2022 10:00:00 AM 8.5 47.3 0.114 7.33 4.88 11.39
4/13/2022 10:15:00 AM 8.77 47.786 0.114 7.33 5.1 11.36
4/13/2022 10:30:00 AM 8.99 48.182 0.113 7.34 4.93 11.34
4/13/2022 10:45:00 AM 9.26 48.668 0.114 7.34 4.72 11.3
4/13/2022 11:00:00 AM 9.55 49.19 0.114 7.34 4.51 11.25
4/13/2022 11:15:00 AM 9.76 49.568 0.114 7.35 4.86 11.19
4/13/2022 11:30:00 AM 9.85 49.73 0.114 7.35 4.78 11.13
4/13/2022 11:45:00 AM 9.9 49.82 0.114 7.36 4.91 11.09
4/13/2022 12:00:00 PM 9.98 49.964 0.114 7.35 4.47 11.04
4/13/2022 12:15:00 PM 10.08 50.144 0.114 7.36 4.67 11.01
4/13/2022 12:30:00 PM 10.18 50.324 0.114 7.36 4.62 10.97
4/13/2022 12:45:00 PM 10.42 50.756 0.114 7.36 4.24 10.95
4/13/2022 1:00:00 PM 10.71 51.278 0.114 7.37 4.54 10.91
4/13/2022 1:15:00 PM 11.01 51.818 0.114 7.37 4.85 10.87
4/13/2022 1:30:00 PM 11.37 52.466 0.114 7.36 4.3 10.82
4/13/2022 1:45:00 PM 11.68 53.024 0.114 7.37 4.68 10.75
4/13/2022 2:00:00 PM 11.83 53.294 0.114 7.38 4.25 10.69
4/13/2022 2:15:00 PM 11.86 53.348 0.109 7.37 4.62 10.62
4/13/2022 2:30:00 PM 11.87 53.366 0.114 7.36 4.46 10.55
4/13/2022 2:45:00 PM 11.95 53.51 0.079 7.38 4.16 10.54
4/13/2022 3:00:00 PM 12.12 53.816 0.114 7.37 4.39 10.5
4/13/2022 3:15:00 PM 12.19 53.942 0.114 7.36 4.89 10.42
4/13/2022 3:30:00 PM 12.26 54.068 0.114 7.36 4.33 10.39
4/13/2022 3:45:00 PM 12.35 54.23 0.114 7.36 4.24 10.37
4/13/2022 4:00:00 PM 12.46 54.428 0.111 7.37 4.42 10.36
4/13/2022 4:15:00 PM 12.53 54.554 0.114 7.36 4.31 10.34
4/13/2022 4:30:00 PM 12.56 54.608 0.114 7.37 4.35 10.33
4/13/2022 4:45:00 PM 12.6 54.68 0.114 7.36 4.69 10.32
4/13/2022 5:00:00 PM 12.63 54.734 0.114 7.37 4.5 10.3
4/13/2022 5:15:00 PM 12.6 54.68 0.114 7.36 4.45 10.29
4/13/2022 5:30:00 PM 12.56 54.608 0.114 7.36 3.06 10.28
4/13/2022 5:45:00 PM 12.52 54.536 0.114 7.36 4.74 10.27
4/13/2022 6:00:00 PM 12.47 54.446 0.115 7.35 4.46 10.24
4/13/2022 6:15:00 PM 12.39 54.302 0.115 7.35 4.54 10.23
4/13/2022 6:30:00 PM 12.33 54.194 0.115 7.34 4.8 10.2
4/13/2022 6:45:00 PM 12.26 54.068 0.115 7.34 4.33 10.18
4/13/2022 7:00:00 PM 12.2 53.96 0.115 7.32 4.71 10.15
4/13/2022 7:15:00 PM 12.13 53.834 0.115 7.31 4.61 10.12
4/13/2022 7:30:00 PM 12.06 53.708 0.115 7.31 4.78 10.09
4/13/2022 7:45:00 PM 11.99 53.582 0.115 7.29 4.93 10.06
4/13/2022 8:00:00 PM 11.93 53.474 0.116 7.28 4.46 10.04
4/13/2022 8:15:00 PM 11.86 53.348 0.116 7.25 4.94 10.03
4/13/2022 8:30:00 PM 11.8 53.24 0.116 7.25 4.85 10.03
4/13/2022 8:45:00 PM 11.73 53.114 0.116 7.25 4.93 10.02
4/13/2022 9:00:00 PM 11.66 52.988 0.116 7.24 4.77 10.03
4/13/2022 9:15:00 PM 11.59 52.862 0.116 7.25 5.45 10.03
4/13/2022 9:30:00 PM 11.52 52.736 0.116 7.23 5.01 10.04
4/13/2022 9:45:00 PM 11.45 52.61 0.116 7.22 4.78 10.05
4/13/2022 10:00:00 PM 11.39 52.502 0.117 7.23 5.32 10.05
4/13/2022 10:15:00 PM 11.32 52.376 0.117 7.24 4.71 10.07
4/13/2022 10:30:00 PM 11.26 52.268 0.117 7.22 5.26 10.07
4/13/2022 10:45:00 PM 11.21 52.178 0.117 7.23 4.76 10.08
4/13/2022 11:00:00 PM 11.18 52.124 0.117 7.23 5.38 10.09
4/13/2022 11:15:00 PM 11.15 52.07 0.117 7.23 4.89 10.09
4/13/2022 11:30:00 PM 11.12 52.016 0.117 7.22 4.89 10.1
4/13/2022 11:45:00 PM 11.1 51.98 0.117 7.22 4.69 10.1
4/14/2022 12:00:00 AM 11.08 51.944 0.117 7.24 4.91 10.1
4/14/2022 12:15:00 AM 11.04 51.872 0.117 7.24 4.53 10.11
4/14/2022 12:30:00 AM 11 51.8 0.117 7.24 4.82 10.12
4/14/2022 12:45:00 AM 10.96 51.728 0.116 7.24 4.72 10.12
4/14/2022 1:00:00 AM 10.91 51.638 0.117 7.24 5.26 10.13
4/14/2022 1:15:00 AM 10.86 51.548 0.117 7.24 4.6 10.14
4/14/2022 1:30:00 AM 10.8 51.44 0.118 7.25 4.97 10.15
4/14/2022 1:45:00 AM 10.76 51.368 0.118 7.24 4.63 10.16
4/14/2022 2:00:00 AM 10.72 51.296 0.118 7.24 4.86 10.17
4/14/2022 2:15:00 AM 10.68 51.224 0.118 7.24 4.77 10.18
4/14/2022 2:30:00 AM 10.66 51.188 0.118 7.23 4.62 10.18
4/14/2022 2:45:00 AM 10.64 51.152 0.118 7.25 4.7 10.19
4/14/2022 3:00:00 AM 10.62 51.116 0.118 7.25 5.26 10.2
4/14/2022 3:15:00 AM 10.58 51.044 0.118 7.24 4.49 10.21
4/14/2022 3:30:00 AM 10.55 50.99 0.118 7.24 4.46 10.21
4/14/2022 3:45:00 AM 10.52 50.936 0.118 7.23 4.93 10.22
4/14/2022 4:00:00 AM 10.49 50.882 0.118 7.23 5.09 10.23
4/14/2022 4:15:00 AM 10.46 50.828 0.118 7.23 4.71 10.23
4/14/2022 4:30:00 AM 10.42 50.756 0.118 7.23 4.66 10.24
4/14/2022 4:45:00 AM 10.37 50.666 0.118 7.22 4.51 10.25
4/14/2022 5:00:00 AM 10.33 50.594 0.118 7.22 4.75 10.25
4/14/2022 5:15:00 AM 10.28 50.504 0.118 7.22 4.43 10.25
4/14/2022 5:30:00 AM 10.23 50.414 0.118 7.22 4.69 10.27
4/14/2022 5:45:00 AM 10.19 50.342 0.118 7.22 4.35 10.29
4/14/2022 6:00:00 AM 10.14 50.252 0.118 7.22 4.35 10.3
4/14/2022 6:15:00 AM 10.09 50.162 0.118 7.23 4.39 10.31
4/14/2022 6:30:00 AM 10.04 50.072 0.118 7.21 4.4 10.32
4/14/2022 6:45:00 AM 9.99 49.982 0.118 7.23 4.64 10.34
4/14/2022 7:00:00 AM 9.94 49.892 0.119 7.22 4.44 10.37
4/14/2022 7:15:00 AM 9.9 49.82 0.119 7.23 4.35 10.42
4/14/2022 7:30:00 AM 9.88 49.784 0.119 7.24 4.27 10.46
4/14/2022 7:45:00 AM 9.88 49.784 0.119 7.25 4.13 10.52
4/14/2022 8:00:00 AM 9.91 49.838 0.119 7.26 4.32 10.57
4/14/2022 8:15:00 AM 9.95 49.91 0.119 7.28 4.09 10.61
4/14/2022 8:30:00 AM 10.02 50.036 0.119 7.28 4.99 10.64
4/14/2022 8:45:00 AM 10.13 50.234 0.119 7.3 4.17 10.67
4/14/2022 9:00:00 AM 10.26 50.468 0.119 7.32 4.35 10.68
4/14/2022 9:15:00 AM 10.46 50.828 0.118 7.32 4.24 10.68
4/14/2022 9:30:00 AM 10.61 51.098 0.119 7.33 4.19 10.7
4/14/2022 9:45:00 AM 10.82 51.476 0.118 7.34 4.25 10.68
4/14/2022 10:00:00 AM 11 51.8 0.118 7.34 3.79 10.67
4/14/2022 10:15:00 AM 11.23 52.214 0.118 7.35 4.07 10.65
4/14/2022 10:30:00 AM 11.45 52.61 0.118 7.36 4.02 10.64
4/14/2022 10:45:00 AM 11.66 52.988 0.118 7.37 3.8 10.61
4/14/2022 11:00:00 AM 11.88 53.384 0.118 7.36 3.91 10.58
4/14/2022 11:15:00 AM 12.15 53.87 0.118 7.37 3.87 10.54
4/14/2022 11:30:00 AM 12.33 54.194 0.118 7.37 3.62 10.51
4/14/2022 11:45:00 AM 12.42 54.356 0.118 7.37 3.71 10.45
4/14/2022 12:00:00 PM 12.4 54.32 0.118 7.37 3.69 10.39
4/14/2022 12:15:00 PM 12.38 54.284 0.118 7.36 3.58 10.35
4/14/2022 12:30:00 PM 12.4 54.32 0.118 7.37 4.04 10.32
4/14/2022 12:45:00 PM 12.41 54.338 0.118 7.38 3.62 10.3
4/14/2022 1:00:00 PM 12.4 54.32 0.118 7.38 3.59 10.27
4/14/2022 1:15:00 PM 12.36 54.248 0.118 7.35 3.71 10.24
4/14/2022 1:30:00 PM 12.33 54.194 0.118 7.35 3.79 10.22
4/14/2022 1:45:00 PM 12.33 54.194 0.118 7.35 3.65 10.24
4/14/2022 2:00:00 PM 12.32 54.176 0.118 7.36 3.75 10.22
4/14/2022 2:15:00 PM 12.29 54.122 0.118 7.36 4 10.23
4/14/2022 2:30:00 PM 12.24 54.032 0.118 7.36 3.69 10.24
4/14/2022 2:45:00 PM 12.18 53.924 0.118 7.36 3.99 10.25
4/14/2022 3:00:00 PM 12.12 53.816 0.118 7.36 4.13 10.25
4/14/2022 3:15:00 PM 12.05 53.69 0.118 7.35 3.95 10.25
4/14/2022 3:30:00 PM 11.98 53.564 0.118 7.35 3.86 10.24
4/14/2022 3:45:00 PM 11.93 53.474 0.118 7.36 4.06 10.26
4/14/2022 4:00:00 PM 11.9 53.42 0.118 7.35 3.44 10.27
4/14/2022 4:15:00 PM 11.88 53.384 0.118 7.36 3.66 10.31
4/14/2022 4:30:00 PM 11.9 53.42 0.118 7.35 3.82 10.35
4/14/2022 4:45:00 PM 11.92 53.456 0.118 7.36 4.04 10.37
4/14/2022 5:00:00 PM 11.92 53.456 0.118 7.37 4.23 10.36
4/14/2022 5:15:00 PM 11.89 53.402 0.118 7.37 3.79 10.34
4/14/2022 5:30:00 PM 11.88 53.384 0.118 7.36 4.3 10.36
4/14/2022 5:45:00 PM 11.86 53.348 0.118 7.36 4.16 10.35
4/14/2022 6:00:00 PM 11.83 53.294 0.118 7.37 3.98 10.36
4/14/2022 6:15:00 PM 11.78 53.204 0.118 7.35 4.48 10.35
4/14/2022 6:30:00 PM 11.73 53.114 0.118 7.35 4.24 10.35
4/14/2022 6:45:00 PM 11.66 52.988 0.118 7.35 4.16 10.33
4/14/2022 7:00:00 PM 11.59 52.862 0.118 7.35 4.22 10.31
4/14/2022 7:15:00 PM 11.52 52.736 0.119 7.33 4.32 10.31
4/14/2022 7:30:00 PM 11.43 52.574 0.119 7.33 4.76 10.29
4/14/2022 7:45:00 PM 11.32 52.376 0.119 7.32 4.86 10.26
4/14/2022 8:00:00 PM 11.2 52.16 0.119 7.31 5.05 10.25
4/14/2022 8:15:00 PM 11.08 51.944 0.119 7.29 5.03 10.23
4/14/2022 8:30:00 PM 10.96 51.728 0.119 7.28 5.35 10.23
4/14/2022 8:45:00 PM 10.83 51.494 0.119 7.28 5.04 10.24
4/14/2022 9:00:00 PM 10.71 51.278 0.119 7.28 5.03 10.25
4/14/2022 9:15:00 PM 10.61 51.098 0.119 7.28 5.04 10.26
4/14/2022 9:30:00 PM 10.49 50.882 0.119 7.27 5.29 10.29
4/14/2022 9:45:00 PM 10.38 50.684 0.119 7.27 4.48 10.31
4/14/2022 10:00:00 PM 10.29 50.522 0.119 7.27 4.92 10.33
4/14/2022 10:15:00 PM 10.18 50.324 0.119 7.27 4.84 10.34
4/14/2022 10:30:00 PM 10.08 50.144 0.12 7.27 5.12 10.37
4/14/2022 10:45:00 PM 9.99 49.982 0.12 7.27 4.61 10.4
4/14/2022 11:00:00 PM 9.89 49.802 0.12 7.26 4.86 10.42
4/14/2022 11:15:00 PM 9.8 49.64 0.12 7.27 4.49 10.44
4/14/2022 11:30:00 PM 9.71 49.478 0.12 7.27 4.74 10.47
4/14/2022 11:45:00 PM 9.62 49.316 0.12 7.26 4.49 10.48
4/15/2022 12:00:00 AM 9.53 49.154 0.12 7.26 4.57 10.51
4/15/2022 12:15:00 AM 9.45 49.01 0.12 7.27 4.25 10.53
4/15/2022 12:30:00 AM 9.36 48.848 0.12 7.27 5.22 10.55
4/15/2022 12:45:00 AM 9.27 48.686 0.12 7.26 4.36 10.58
4/15/2022 1:00:00 AM 9.18 48.524 0.12 7.27 4.28 10.61
4/15/2022 1:15:00 AM 9.1 48.38 0.12 7.27 4.6 10.63
4/15/2022 1:30:00 AM 9.01 48.218 0.12 7.26 4.14 10.65
4/15/2022 1:45:00 AM 8.92 48.056 0.12 7.27 4.52 10.68
4/15/2022 2:00:00 AM 8.83 47.894 0.12 7.28 4.09 10.7
4/15/2022 2:15:00 AM 8.74 47.732 0.12 7.27 4.12 10.72
4/15/2022 2:30:00 AM 8.65 47.57 0.12 7.27 4.31 10.75
4/15/2022 2:45:00 AM 8.56 47.408 0.12 7.27 4.11 10.78
4/15/2022 3:00:00 AM 8.48 47.264 0.12 7.26 4.05 10.8
4/15/2022 3:15:00 AM 8.39 47.102 0.12 7.27 4.45 10.82
4/15/2022 3:30:00 AM 8.31 46.958 0.12 7.27 3.9 10.86
4/15/2022 3:45:00 AM 8.23 46.814 0.12 7.26 4.41 10.87
4/15/2022 4:00:00 AM 8.14 46.652 0.12 7.26 3.75 10.9
4/15/2022 4:15:00 AM 8.07 46.526 0.12 7.25 4.26 10.92
4/15/2022 4:30:00 AM 8.01 46.418 0.12 7.27 3.88 10.94
4/15/2022 4:45:00 AM 7.93 46.274 0.12 7.27 4.13 10.97
4/15/2022 5:00:00 AM 7.86 46.148 0.12 7.27 3.78 10.99
4/15/2022 5:15:00 AM 7.78 46.004 0.12 7.27 3.46 11.01
4/15/2022 5:30:00 AM 7.71 45.878 0.12 7.27 3.86 11.04
4/15/2022 5:45:00 AM 7.64 45.752 0.12 7.26 3.86 11.05
4/15/2022 6:00:00 AM 7.57 45.626 0.12 7.27 3.8 11.07
4/15/2022 6:15:00 AM 7.5 45.5 0.121 7.27 3.75 11.1
4/15/2022 6:30:00 AM 7.44 45.392 0.121 7.27 3.41 11.12
4/15/2022 6:45:00 AM 7.38 45.284 0.121 7.28 3.66 11.16
4/15/2022 7:00:00 AM 7.33 45.194 0.121 7.28 3.56 11.2
4/15/2022 7:15:00 AM 7.29 45.122 0.121 7.29 3.4 11.26
4/15/2022 7:30:00 AM 7.27 45.086 0.121 7.29 3.41 11.32
4/15/2022 7:45:00 AM 7.26 45.068 0.121 7.3 3.42 11.39
4/15/2022 8:00:00 AM 7.28 45.104 0.121 7.31 3.56 11.45
4/15/2022 8:15:00 AM 7.31 45.158 0.121 7.32 3.58 11.49
4/15/2022 8:30:00 AM 7.36 45.248 0.121 7.32 3.77 11.53
4/15/2022 8:45:00 AM 7.43 45.374 0.121 7.32 3.12 11.56
4/15/2022 9:00:00 AM 7.54 45.572 0.121 7.33 3.59 11.58
4/15/2022 9:15:00 AM 7.7 45.86 0.121 7.34 3.4 11.58
4/15/2022 9:30:00 AM 7.84 46.112 0.121 7.33 3.47 11.57
4/15/2022 9:45:00 AM 8.02 46.436 0.121 7.34 3.51 11.56
4/15/2022 10:00:00 AM 8.18 46.724 0.121 7.35 3.26 11.56
4/15/2022 10:15:00 AM 8.4 47.12 0.121 7.36 3.44 11.54
4/15/2022 10:30:00 AM 8.6 47.48 0.121 7.36 3.79 11.51
4/15/2022 10:45:00 AM 8.8 47.84 0.121 7.36 3.36 11.49
4/15/2022 11:00:00 AM 9.04 48.272 0.094 7.38 3.25 11.46
4/15/2022 11:15:00 AM 9.27 48.686 0.121 7.38 3.12 11.41
4/15/2022 11:30:00 AM 9.52 49.136 0.121 7.38 3.23 11.37
4/15/2022 11:45:00 AM 9.83 49.694 0.121 7.38 2.96 11.32
4/15/2022 12:00:00 PM 10.11 50.198 0.121 7.39 3.38 11.25
4/15/2022 12:15:00 PM 10.4 50.72 0.121 7.37 2.82 11.2
4/15/2022 12:30:00 PM 10.72 51.296 0.121 7.38 0.14 11.12
4/15/2022 12:45:00 PM 11.03 51.854 0.121 7.38 3.02 11.03
4/15/2022 1:00:00 PM 11.34 52.412 0.121 7.38 2.98 10.96
4/15/2022 1:15:00 PM 11.58 52.844 0.121 7.39 3.18 10.89
4/15/2022 1:30:00 PM 11.84 53.312 0.121 7.38 3.03 10.84
4/15/2022 1:45:00 PM 12.09 53.762 0.121 7.4 3.14 10.77
4/15/2022 2:00:00 PM 12.13 53.834 0.121 7.39 3.09 10.7
4/15/2022 2:15:00 PM 12.05 53.69 0.121 7.39 8.64 10.65
4/15/2022 2:30:00 PM 12.07 53.726 0.121 7.4 2.86 10.65
4/15/2022 2:45:00 PM 12.13 53.834 0.121 7.4 2.98 10.62
4/15/2022 3:00:00 PM 12.15 53.87 0.121 7.4 2.79 10.6
4/15/2022 3:15:00 PM 12.22 53.996 0.121 7.4 2.83 10.59
4/15/2022 3:30:00 PM 12.33 54.194 0.121 7.4 3.05 10.58
4/15/2022 3:45:00 PM 12.38 54.284 0.121 7.4 2.87 10.55
4/15/2022 4:00:00 PM 12.33 54.194 0.121 7.41 3.32 10.52
4/15/2022 4:15:00 PM 12.33 54.194 0.121 7.4 3.22 10.51
4/15/2022 4:30:00 PM 12.24 54.032 0.122 7.41 3.13 10.5
4/15/2022 4:45:00 PM 12.15 53.87 0.122 7.39 3.27 10.46
4/15/2022 5:00:00 PM 12.06 53.708 0.122 7.39 2.94 10.45
4/15/2022 5:15:00 PM 11.94 53.492 0.122 7.4 3.26 10.41
4/15/2022 5:30:00 PM 11.83 53.294 0.122 7.36 2.79 10.39
4/15/2022 5:45:00 PM 11.8 53.24 0.122 7.37 2.88 10.43
4/15/2022 6:00:00 PM 11.82 53.276 0.122 7.37 3.36 10.45
4/15/2022 6:15:00 PM 11.79 53.222 0.122 7.37 10.7 10.46
4/15/2022 6:30:00 PM 11.71 53.078 0.122 7.37 3.19 10.46
4/15/2022 6:45:00 PM 11.6 52.88 0.122 7.36 2.98 10.43
4/15/2022 7:00:00 PM 11.48 52.664 0.122 7.35 3.26 10.4
4/15/2022 7:15:00 PM 11.39 52.502 0.123 7.33 3.03 10.35
4/15/2022 7:30:00 PM 11.33 52.394 0.123 7.33 3.1 10.3
4/15/2022 7:45:00 PM 11.25 52.25 0.123 7.32 3.15 10.27
4/15/2022 8:00:00 PM 11.16 52.088 0.123 7.3 3.01 10.23
4/15/2022 8:15:00 PM 11.06 51.908 0.123 7.28 3.03 10.21
4/15/2022 8:30:00 PM 10.98 51.764 0.123 7.28 2.91 10.2
4/15/2022 8:45:00 PM 10.92 51.656 0.123 7.27 3.05 10.18
4/15/2022 9:00:00 PM 10.85 51.53 0.124 7.26 3.04 10.18
4/15/2022 9:15:00 PM 10.78 51.404 0.124 7.26 2.98 10.18
4/15/2022 9:30:00 PM 10.71 51.278 0.124 7.26 2.98 10.19
4/15/2022 9:45:00 PM 10.64 51.152 0.123 7.25 2.75 10.2
4/15/2022 10:00:00 PM 10.57 51.026 0.124 7.25 2.97 10.2
4/15/2022 10:15:00 PM 10.49 50.882 0.124 7.25 21.32 10.22
4/15/2022 10:30:00 PM 10.41 50.738 0.124 7.25 3.07 10.23
4/15/2022 10:45:00 PM 10.31 50.558 0.124 7.25 3.04 10.25
4/15/2022 11:00:00 PM 10.24 50.432 0.125 7.26 2.85 10.27
4/15/2022 11:15:00 PM 10.18 50.324 0.125 7.26 3.52 10.28
4/15/2022 11:30:00 PM 10.11 50.198 0.125 7.24 3.23 10.3
4/15/2022 11:45:00 PM 10.06 50.108 0.125 7.25 6.28 10.3
4/16/2022 12:00:00 AM 10 50 0.125 7.26 3.29 10.32
4/16/2022 12:15:00 AM 9.95 49.91 0.125 7.25 3.76 10.33
4/16/2022 12:30:00 AM 9.9 49.82 0.125 7.26 3.22 10.34
4/16/2022 12:45:00 AM 9.85 49.73 0.125 7.26 3.39 10.35
4/16/2022 1:00:00 AM 9.81 49.658 0.125 7.25 3.27 10.36
4/16/2022 1:15:00 AM 9.75 49.55 0.126 7.26 3.09 10.37
4/16/2022 1:30:00 AM 9.7 49.46 0.126 7.25 3.06 10.38
4/16/2022 1:45:00 AM 9.64 49.352 0.126 7.26 3.34 10.39
4/16/2022 2:00:00 AM 9.59 49.262 0.101 7.25 3.24 10.4
4/16/2022 2:15:00 AM 9.55 49.19 0.126 7.26 2.95 10.41
4/16/2022 2:30:00 AM 9.52 49.136 0.109 7.25 3.12 10.42
4/16/2022 2:45:00 AM 9.49 49.082 0.126 7.25 3.07 10.43
4/16/2022 3:00:00 AM 9.45 49.01 0.126 7.26 -0.38 10.44
4/16/2022 3:15:00 AM 9.42 48.956 0.126 7.25 3.22 10.45
4/16/2022 3:30:00 AM 9.39 48.902 0.126 7.24 3.11 10.45
4/16/2022 3:45:00 AM 9.36 48.848 0.126 7.25 2.95 10.46
4/16/2022 4:00:00 AM 9.33 48.794 0.126 7.25 2.94 10.47
4/16/2022 4:15:00 AM 9.31 48.758 0.127 7.25 2.79 10.48
4/16/2022 4:30:00 AM 9.29 48.722 0.127 7.25 2.72 10.48
4/16/2022 4:45:00 AM 9.27 48.686 0.127 7.25 2.99 10.5
4/16/2022 5:00:00 AM 9.26 48.668 0.127 7.24 2.92 10.5
4/16/2022 5:15:00 AM 9.23 48.614 0.127 7.25 2.88 10.51
4/16/2022 5:30:00 AM 9.21 48.578 0.127 7.24 3.05 10.52
4/16/2022 5:45:00 AM 9.19 48.542 0.127 7.23 29.33 10.52
4/16/2022 6:00:00 AM 9.16 48.488 0.127 7.23 2.77 10.53
4/16/2022 6:15:00 AM 9.14 48.452 0.127 7.23 3.24 10.54
4/16/2022 6:30:00 AM 9.11 48.398 0.127 7.24 5.94 10.54
4/16/2022 6:45:00 AM 9.09 48.362 0.127 7.23 2.93 10.56
4/16/2022 7:00:00 AM 9.07 48.326 0.127 7.23 2.81 10.57
4/16/2022 7:15:00 AM 9.06 48.308 0.127 7.23 4.83 10.59
4/16/2022 7:30:00 AM 9.05 48.29 0.127 7.24 3.32 10.63
4/16/2022 7:45:00 AM 9.04 48.272 0.127 7.25 3.37 10.66
4/16/2022 8:00:00 AM 9.03 48.254 0.127 7.25 3.94 10.69
4/16/2022 8:15:00 AM 9.02 48.236 0.127 7.27 2.82 10.72
4/16/2022 8:30:00 AM 9.03 48.254 0.127 7.26 2.93 10.78
4/16/2022 8:45:00 AM 9.05 48.29 0.127 7.28 2.92 10.85
4/16/2022 9:00:00 AM 9.08 48.344 0.127 7.3 2.63 10.91
4/16/2022 9:15:00 AM 9.11 48.398 0.127 7.3 2.74 10.97
4/16/2022 9:30:00 AM 9.13 48.434 0.127 7.31 2.51 10.99
4/16/2022 9:45:00 AM 9.15 48.47 0.127 7.32 2.48 11.03
4/16/2022 10:00:00 AM 9.19 48.542 0.127 7.33 2.49 11.07
4/16/2022 10:15:00 AM 9.3 48.74 0.109 7.34 2.52 11.11
4/16/2022 10:30:00 AM 9.4 48.92 0.127 7.35 2.58 11.13
4/16/2022 10:45:00 AM 9.51 49.118 0.127 7.35 2.52 11.13
4/16/2022 11:00:00 AM 9.62 49.316 0.127 7.37 3.66 11.14
4/16/2022 11:15:00 AM 9.68 49.424 0.127 7.38 2.59 11.13
4/16/2022 11:30:00 AM 9.7 49.46 0.127 7.37 4.7 11.1
4/16/2022 11:45:00 AM 9.68 49.424 0.127 7.37 2.69 11.07
4/16/2022 12:00:00 PM 9.64 49.352 0.127 7.37 10.18 11.04
4/16/2022 12:15:00 PM 9.61 49.298 0.12 7.37 2.87 11.03
4/16/2022 12:30:00 PM 9.55 49.19 0.127 7.38 2.56 10.99
4/16/2022 12:45:00 PM 9.5 49.1 0.127 7.36 2.59 10.97
4/16/2022 1:00:00 PM 9.43 48.974 0.126 7.36 2.68 10.98
4/16/2022 1:15:00 PM 9.38 48.884 0.126 7.36 2.53 10.98
4/16/2022 1:30:00 PM 9.33 48.794 0.126 7.36 3.92 10.98
4/16/2022 1:45:00 PM 9.28 48.704 0.126 7.36 2.44 10.97
4/16/2022 2:00:00 PM 9.22 48.596 0.125 7.36 2.75 10.97
4/16/2022 2:15:00 PM 9.15 48.47 0.125 7.36 3.05 10.98
4/16/2022 2:30:00 PM 9.09 48.362 0.124 7.35 2.86 11.01
4/16/2022 2:45:00 PM 9.03 48.254 0.124 7.35 5.35 11.02
4/16/2022 3:00:00 PM 8.98 48.164 0.124 7.36 2.84 11.05
4/16/2022 3:15:00 PM 8.92 48.056 0.124 7.36 3.07 11.07
4/16/2022 3:30:00 PM 8.86 47.948 0.124 7.36 3.28 11.1
4/16/2022 3:45:00 PM 8.82 47.876 0.124 7.37 4.13 11.12
4/16/2022 4:00:00 PM 8.79 47.822 0.125 7.36 4.31 11.14
4/16/2022 4:15:00 PM 8.76 47.768 0.128 7.38 3.22 11.16
4/16/2022 4:30:00 PM 8.72 47.696 0.13 7.38 6.71 11.18
4/16/2022 4:45:00 PM 8.68 47.624 0.13 7.39 7.82 11.16
4/16/2022 5:00:00 PM 8.63 47.534 0.129 7.39 9.15 11.15
4/16/2022 5:15:00 PM 8.63 47.534 0.126 7.4 -0.35 11.19
4/16/2022 5:30:00 PM 8.62 47.516 0.125 7.43 16.39 11.23
4/16/2022 5:45:00 PM 8.59 47.462 0.124 7.45 9.76 11.26
4/16/2022 6:00:00 PM 8.55 47.39 0.124 7.45 24.9 11.28
4/16/2022 6:15:00 PM 8.47 47.246 0.123 7.47 33.91 11.26
4/16/2022 6:30:00 PM 8.41 47.138 0.121 7.46 69.87 11.25
4/16/2022 6:45:00 PM 8.35 47.03 0.119 7.45 49.73 11.26
4/16/2022 7:00:00 PM 8.29 46.922 0.117 7.45 58.02 11.26
4/16/2022 7:15:00 PM 8.25 46.85 0.115 7.45 52.51 11.28
4/16/2022 7:30:00 PM 8.22 46.796 0.113 7.43 42.38 11.27
4/16/2022 7:45:00 PM 8.19 46.742 0.112 7.42 44.15 11.26
4/16/2022 8:00:00 PM 8.16 46.688 0.111 7.41 -0.16 11.25
4/16/2022 8:15:00 PM 8.14 46.652 0.111 7.4 41.09 11.23
4/16/2022 8:30:00 PM 8.11 46.598 0.11 7.39 56.04 11.23
4/16/2022 8:45:00 PM 8.09 46.562 0.11 7.38 42.66 11.22
4/16/2022 9:00:00 PM 8.06 46.508 0.109 7.38 43.44 11.23
4/16/2022 9:15:00 PM 8.03 46.454 0.109 7.38 39.41 11.23
4/16/2022 9:30:00 PM 8 46.4 0.108 7.36 40.01 11.24
4/16/2022 9:45:00 PM 7.96 46.328 0.107 7.36 36.31 11.24
4/16/2022 10:00:00 PM 7.93 46.274 0.107 7.35 32.3 11.25
4/16/2022 10:15:00 PM 7.89 46.202 0.107 7.34 32.14 11.25
4/16/2022 10:30:00 PM 7.85 46.13 0.106 7.34 31.05 11.25
4/16/2022 10:45:00 PM 7.81 46.058 0.106 7.34 27.18 11.26
4/16/2022 11:00:00 PM 7.75 45.95 0.106 7.34 26.91 11.28
4/16/2022 11:15:00 PM 7.67 45.806 0.106 7.33 24.03 11.29
4/16/2022 11:30:00 PM 7.61 45.698 0.106 7.34 22.62 11.32
4/16/2022 11:45:00 PM 7.54 45.572 0.106 7.32 19.29 11.32
4/17/2022 12:00:00 AM 7.49 45.482 0.106 7.33 20.89 11.33
4/17/2022 12:15:00 AM 7.43 45.374 0.107 7.32 21.63 11.34
4/17/2022 12:30:00 AM 7.34 45.212 0.107 7.32 19.64 11.36
4/17/2022 12:45:00 AM 7.27 45.086 0.107 7.33 20.19 11.38
4/17/2022 1:00:00 AM 7.19 44.942 0.107 7.33 17.97 11.39
4/17/2022 1:15:00 AM 7.12 44.816 0.107 7.32 19.66 11.41
4/17/2022 1:30:00 AM 7.06 44.708 0.107 7.33 18.66 11.42
4/17/2022 1:45:00 AM 6.99 44.582 0.107 7.32 16.47 11.44
4/17/2022 2:00:00 AM 6.93 44.474 0.107 7.31 15.73 11.45
4/17/2022 2:15:00 AM 6.88 44.384 0.107 7.31 14.04 11.47
4/17/2022 2:30:00 AM 6.84 44.312 0.107 7.31 2.58 11.49
4/17/2022 2:45:00 AM 6.76 44.168 0.108 7.32 14.13 11.5
4/17/2022 3:00:00 AM 6.71 44.078 0.108 7.31 15.75 11.52
4/17/2022 3:15:00 AM 6.67 44.006 0.108 7.31 13.65 11.53
4/17/2022 3:30:00 AM 6.62 43.916 0.108 7.31 13.52 11.55
4/17/2022 3:45:00 AM 6.57 43.826 0.108 7.31 12.68 11.56
4/17/2022 4:00:00 AM 6.51 43.718 0.108 7.31 12.23 11.58
4/17/2022 4:15:00 AM 6.46 43.628 0.108 7.31 13.2 11.59
4/17/2022 4:30:00 AM 6.4 43.52 0.109 7.31 11.96 11.61
4/17/2022 4:45:00 AM 6.36 43.448 0.109 6.96 11.73 11.63
4/17/2022 5:00:00 AM 6.32 43.376 0.109 7 10.59 11.64
4/17/2022 5:15:00 AM 6.28 43.304 0.109 7.04 10.49 11.65
4/17/2022 5:30:00 AM 6.25 43.25 0.109 7.08 9.92 11.66
4/17/2022 5:45:00 AM 6.22 43.196 0.109 7.12 10.56 11.67
4/17/2022 6:00:00 AM 6.19 43.142 0.11 7.16 9.6 11.68
4/17/2022 6:15:00 AM 6.16 43.088 0.11 7.18 9.72 11.69
4/17/2022 6:30:00 AM 6.13 43.034 0.11 7.2 9.14 11.7
4/17/2022 6:45:00 AM 6.1 42.98 0.11 7.21 10.71 11.73
4/17/2022 7:00:00 AM 6.07 42.926 0.106 7.2 9.51 11.76
4/17/2022 7:15:00 AM 6.06 42.908 0.111 7.23 8.02 11.8
4/17/2022 7:30:00 AM 6.05 42.89 0.111 7.25 8.7 11.85
4/17/2022 7:45:00 AM 6.06 42.908 0.106 7.28 8.77 11.91
4/17/2022 8:00:00 AM 6.08 42.944 0.111 7.31 8.61 11.95
4/17/2022 8:15:00 AM 6.08 42.944 0.111 7.31 8.92 11.99
4/17/2022 8:30:00 AM 6.14 43.052 0.111 7.33 7.97 12.03
4/17/2022 8:45:00 AM 6.23 43.214 0.111 7.34 8.75 12.06
4/17/2022 9:00:00 AM 6.35 43.43 0.111 7.34 39.39 12.08
4/17/2022 9:15:00 AM 6.47 43.646 0.111 7.36 6.73 12.08
4/17/2022 9:30:00 AM 6.43 43.574 0.112 7.36 7.49 12.09
4/17/2022 9:45:00 AM 6.36 43.448 0.112 7.38 7.12 12.12
4/17/2022 10:00:00 AM 6.4 43.52 0.112 7.37 6.36 12.13
4/17/2022 10:15:00 AM 6.47 43.646 0.112 7.4 5.94 12.14
4/17/2022 10:30:00 AM 6.53 43.754 0.112 7.38 12.31 12.13
4/17/2022 10:45:00 AM 6.62 43.916 0.112 7.4 6.32 12.13
4/17/2022 11:00:00 AM 6.77 44.186 0.112 7.4 18.24 12.11
4/17/2022 11:15:00 AM 6.94 44.492 0.112 7.4 8.2 12.08
4/17/2022 11:30:00 AM 7.12 44.816 0.112 7.4 4.54 12.05
4/17/2022 11:45:00 AM 7.2 44.96 0.112 7.4 10.27 12.03
4/17/2022 12:00:00 PM 7.48 45.464 0.112 7.4 5.17 12.01
4/17/2022 12:15:00 PM 7.71 45.878 0.112 7.4 7.87 11.96
4/17/2022 12:30:00 PM 7.93 46.274 0.113 7.4 7.81 11.92
4/17/2022 12:45:00 PM 8.21 46.778 0.113 7.4 6.2 11.86
4/17/2022 1:00:00 PM 8.27 46.886 0.113 7.4 5.84 11.79
4/17/2022 1:15:00 PM 8.46 47.228 0.113 7.41 5.41 11.77
4/17/2022 1:30:00 PM 8.66 47.588 0.113 7.4 5.64 11.74
4/17/2022 1:45:00 PM 8.85 47.93 0.113 7.4 5.56 11.68
4/17/2022 2:00:00 PM 9.11 48.398 0.113 7.42 6.81 11.64
4/17/2022 2:15:00 PM 9.24 48.632 0.113 7.41 5.68 11.58
4/17/2022 2:30:00 PM 9.43 48.974 0.113 7.42 4.23 11.55
4/17/2022 2:45:00 PM 9.65 49.37 0.114 7.43 11.81 11.52
4/17/2022 3:00:00 PM 9.66 49.388 0.114 7.42 6.16 11.47
4/17/2022 3:15:00 PM 9.87 49.766 0.114 7.42 5.2 11.45
4/17/2022 3:30:00 PM 9.97 49.946 0.114 7.44 4.8 11.41
4/17/2022 3:45:00 PM 10.05 50.09 0.114 7.44 4.99 11.38
4/17/2022 4:00:00 PM 10.14 50.252 0.114 7.43 14.93 11.34
4/17/2022 4:15:00 PM 10.17 50.306 0.114 7.45 4.41 11.32
4/17/2022 4:30:00 PM 10.2 50.36 0.114 7.44 4.71 11.3
4/17/2022 4:45:00 PM 10.07 50.126 0.114 7.43 5.52 11.29
4/17/2022 5:00:00 PM 9.98 49.964 0.115 7.44 4.42 11.27
4/17/2022 5:15:00 PM 9.9 49.82 0.115 7.44 5.13 11.29
4/17/2022 5:30:00 PM 9.82 49.676 0.115 7.43 7.32 11.3
4/17/2022 5:45:00 PM 9.64 49.352 0.115 7.43 6.48 11.29
4/17/2022 6:00:00 PM 9.46 49.028 0.115 7.42 5.08 11.29
4/17/2022 6:15:00 PM 9.27 48.686 0.115 7.42 12.06 11.28
4/17/2022 6:30:00 PM 9.09 48.362 0.115 7.4 42.58 11.28
4/17/2022 6:45:00 PM 8.97 48.146 0.116 7.38 5 11.29
4/17/2022 7:00:00 PM 8.87 47.966 0.116 7.41 5.3 11.28
4/17/2022 7:15:00 PM 8.74 47.732 0.116 7.39 5.33 11.28
4/17/2022 7:30:00 PM 8.6 47.48 0.116 7.38 5.39 11.26
4/17/2022 7:45:00 PM 8.44 47.192 0.116 7.37 36.11 11.25
4/17/2022 8:00:00 PM 8.31 46.958 0.116 7.35 4.87 11.23
4/17/2022 8:15:00 PM 8.18 46.724 0.117 7.32 4.28 11.22
4/17/2022 8:30:00 PM 8.07 46.526 0.117 7.34 4.87 11.21
4/17/2022 8:45:00 PM 7.95 46.31 0.117 7.32 6.52 11.21
4/17/2022 9:00:00 PM 7.84 46.112 0.117 7.31 17.23 11.21
4/17/2022 9:15:00 PM 7.73 45.914 0.117 7.29 4.25 11.23
4/17/2022 9:30:00 PM 7.63 45.734 0.117 7.29 7.18 11.25
4/17/2022 9:45:00 PM 7.52 45.536 0.117 7.29 7.05 11.26
4/17/2022 10:00:00 PM 7.42 45.356 0.117 7.27 5.59 11.29
4/17/2022 10:15:00 PM 7.31 45.158 0.118 7.28 5.98 11.32
4/17/2022 10:30:00 PM 7.2 44.96 0.106 7.28 5.05 11.35
4/17/2022 10:45:00 PM 7.1 44.78 0.118 7.28 4.73 11.37
4/17/2022 11:00:00 PM 7 44.6 0.118 7.29 4.24 11.4
4/17/2022 11:15:00 PM 6.9 44.42 0.118 7.28 4.2 11.42
4/17/2022 11:30:00 PM 6.8 44.24 0.118 7.28 7.68 11.46
4/17/2022 11:45:00 PM 6.7 44.06 0.118 7.28 4.13 11.48
4/18/2022 12:00:00 AM 6.62 43.916 0.118 7.28 4.38 11.5
4/18/2022 12:15:00 AM 6.53 43.754 0.119 7.27 4.69 11.54
4/18/2022 12:30:00 AM 6.45 43.61 0.119 7.27 3.93 11.55
4/18/2022 12:45:00 AM 6.37 43.466 0.119 7.28 9.09 11.58
4/18/2022 1:00:00 AM 6.29 43.322 0.119 7.27 5.43 11.6
4/18/2022 1:15:00 AM 6.23 43.214 0.119 7.27 13.41 11.63
4/18/2022 1:30:00 AM 6.15 43.07 0.119 7.28 4.08 11.65
4/18/2022 1:45:00 AM 6.08 42.944 0.119 7.27 3.95 11.67
4/18/2022 2:00:00 AM 6.02 42.836 0.119 7.26 3.52 11.7
4/18/2022 2:15:00 AM 5.95 42.71 0.119 7.27 18.63 11.71
4/18/2022 2:30:00 AM 5.89 42.602 0.115 7.27 4.04 11.73
4/18/2022 2:45:00 AM 5.82 42.476 0.119 7.27 17.81 11.75
4/18/2022 3:00:00 AM 5.76 42.368 0.12 7.27 50.79 11.77
4/18/2022 3:15:00 AM 5.7 42.26 0.12 7.26 -0.06 11.79
4/18/2022 3:30:00 AM 5.64 42.152 0.12 7.28 3.73 11.81
4/18/2022 3:45:00 AM 5.58 42.044 0.12 7.28 4.22 11.83
4/18/2022 4:00:00 AM 5.51 41.918 0.12 7.27 57.56 11.85
4/18/2022 4:15:00 AM 5.46 41.828 0.12 7.27 3.55 11.87
4/18/2022 4:30:00 AM 5.39 41.702 0.12 7.28 42.49 11.89
4/18/2022 4:45:00 AM 5.33 41.594 0.12 7.26 1.03 11.92
4/18/2022 5:00:00 AM 5.27 41.486 0.12 7.27 3.74 11.93
4/18/2022 5:15:00 AM 5.21 41.378 0.12 7.26 3.57 11.96
4/18/2022 5:30:00 AM 5.14 41.252 0.12 7.26 3.9 11.98
4/18/2022 5:45:00 AM 5.08 41.144 0.12 7.26 5.11 12
4/18/2022 6:00:00 AM 5.02 41.036 0.12 7.27 5.89 12.02
4/18/2022 6:15:00 AM 4.95 40.91 0.121 6.98 5.14 12.04
4/18/2022 6:30:00 AM 4.9 40.82 0.121 6.98 4.4 12.07
4/18/2022 6:45:00 AM 4.84 40.712 0.121 7.03 3.71 12.11
4/18/2022 7:00:00 AM 4.8 40.64 0.121 7.1 3.64 12.17
4/18/2022 7:15:00 AM 4.77 40.586 0.121 7.17 4.12 12.23
4/18/2022 7:30:00 AM 4.75 40.55 0.121 7.23 2.92 12.3
4/18/2022 7:45:00 AM 4.76 40.568 0.121 7.26 4 12.37
4/18/2022 8:00:00 AM 4.78 40.604 0.121 7.28 5.97 12.42
4/18/2022 8:15:00 AM 4.83 40.694 0.121 7.3 6.38 12.46
4/18/2022 8:30:00 AM 4.91 40.838 0.121 7.32 3.02 12.5
4/18/2022 8:45:00 AM 4.98 40.964 0.121 7.31 5.25 12.52
4/18/2022 9:00:00 AM 5.09 41.162 0.121 7.34 58.62 12.54
4/18/2022 9:15:00 AM 5.23 41.414 0.121 7.34 5.12 12.54
4/18/2022 9:30:00 AM 5.37 41.666 0.121 7.35 5.66 12.55
4/18/2022 9:45:00 AM 5.61 42.098 0.12 7.35 3.28 12.51
4/18/2022 10:00:00 AM 5.75 42.35 0.121 7.37 4.54 12.5
4/18/2022 10:15:00 AM 5.96 42.728 0.12 7.36 4.45 12.47
4/18/2022 10:30:00 AM 6.18 43.124 0.12 7.36 6.35 12.42
4/18/2022 10:45:00 AM 6.41 43.538 0.12 7.37 5.89 12.38
4/18/2022 11:00:00 AM 6.63 43.934 0.12 7.37 10.79 12.35
4/18/2022 11:15:00 AM 6.83 44.294 0.12 7.37 2.82 12.31
4/18/2022 11:30:00 AM 7.06 44.708 0.12 7.38 7.26 12.25
4/18/2022 11:45:00 AM 7.24 45.032 0.12 7.4 4.28 12.2
4/18/2022 12:00:00 PM 7.38 45.284 0.12 7.4 1.67 12.15
4/18/2022 12:15:00 PM 7.49 45.482 0.12 7.4 9.26 12.09
4/18/2022 12:30:00 PM 7.59 45.662 0.12 7.41 2.75 12.06
4/18/2022 12:45:00 PM 7.69 45.842 0.12 7.41 6.9 11.99
4/18/2022 1:00:00 PM 7.77 45.986 0.12 7.43 2.82 11.97
4/18/2022 1:15:00 PM 7.85 46.13 0.12 7.41 4.7 11.94
4/18/2022 1:30:00 PM 7.95 46.31 0.12 7.42 2.73 11.92
4/18/2022 1:45:00 PM 8.01 46.418 0.12 7.42 48.19 11.9
4/18/2022 2:00:00 PM 8.04 46.472 0.12 7.42 2.47 11.88
4/18/2022 2:15:00 PM 8.05 46.49 0.12 7.42 6.62 11.86
4/18/2022 2:30:00 PM 8.03 46.454 0.12 7.42 3.18 11.84
4/18/2022 2:45:00 PM 8 46.4 0.12 7.42 19.46 11.83
4/18/2022 3:00:00 PM 7.96 46.328 0.12 7.42 3.38 11.83
4/18/2022 3:15:00 PM 7.9 46.22 0.12 7.43 2.66 11.81
4/18/2022 3:30:00 PM 7.85 46.13 0.12 7.41 2.99 11.8
4/18/2022 3:45:00 PM 7.81 46.058 0.12 7.43 6.01 11.8
4/18/2022 4:00:00 PM 7.79 46.022 0.12 7.41 11.05 11.81
4/18/2022 4:15:00 PM 7.79 46.022 0.12 7.43 3.54 11.8
4/18/2022 4:30:00 PM 7.78 46.004 0.12 7.43 3.27 11.81
4/18/2022 4:45:00 PM 7.75 45.95 0.12 7.42 2.91 11.78
4/18/2022 5:00:00 PM 7.7 45.86 0.12 7.42 6.84 11.77
4/18/2022 5:15:00 PM 7.64 45.752 0.12 7.4 3.72 11.74
4/18/2022 5:30:00 PM 7.56 45.608 0.12 7.4 5.74 11.7
4/18/2022 5:45:00 PM 7.48 45.464 0.12 7.38 -0.51 11.66
4/18/2022 6:00:00 PM 7.41 45.338 0.12 7.37 4.28 11.64
4/18/2022 6:15:00 PM 7.33 45.194 0.12 7.36 9.77 11.61
4/18/2022 6:30:00 PM 7.25 45.05 0.12 7.36 4.85 11.58
4/18/2022 6:45:00 PM 7.17 44.906 0.12 7.34 4.28 11.55
4/18/2022 7:00:00 PM 7.1 44.78 0.12 7.33 2.45 11.54
4/18/2022 7:15:00 PM 7.03 44.654 0.12 7.32 3.39 11.53
4/18/2022 7:30:00 PM 6.95 44.51 0.119 7.33 2.72 11.52
4/18/2022 7:45:00 PM 6.87 44.366 0.119 7.31 2.88 11.51
4/18/2022 8:00:00 PM 6.8 44.24 0.119 7.31 5.57 11.51
4/18/2022 8:15:00 PM 6.74 44.132 0.119 7.3 4.25 11.51
4/18/2022 8:30:00 PM 6.68 44.024 0.119 7.31 3.4 11.5
4/18/2022 8:45:00 PM 6.62 43.916 0.12 7.29 3.14 11.51
4/18/2022 9:00:00 PM 6.56 43.808 0.12 7.29 3.27 11.52
4/18/2022 9:15:00 PM 6.51 43.718 0.12 7.29 3.33 11.53
4/18/2022 9:30:00 PM 6.46 43.628 0.12 7.29 5.28 11.54
4/18/2022 9:45:00 PM 6.4 43.52 0.119 7.3 2.9 11.55
4/18/2022 10:00:00 PM 6.29 43.322 0.119 7.29 0.7 11.56
4/18/2022 10:15:00 PM 6.19 43.142 0.119 7.29 6.62 11.58
4/18/2022 10:30:00 PM 6.04 42.872 0.119 7.29 24.65 11.61
4/18/2022 10:45:00 PM 5.92 42.656 0.118 7.3 4.29 11.63
4/18/2022 11:00:00 PM 5.82 42.476 0.118 7.29 3.32 11.67
4/18/2022 11:15:00 PM 5.75 42.35 0.118 7.3 10 11.7
4/18/2022 11:30:00 PM 5.67 42.206 0.118 7.31 4.03 11.72
4/18/2022 11:45:00 PM 5.53 41.954 0.118 7.3 4.17 11.75
4/19/2022 12:00:00 AM 5.32 41.576 0.118 7.31 5.07 11.79
4/19/2022 12:15:00 AM 5.2 41.36 0.118 7.31 5.47 11.82
4/19/2022 12:30:00 AM 5.03 41.054 0.117 7.31 5.8 11.87
4/19/2022 12:45:00 AM 4.78 40.604 0.117 7.32 40.14 11.91
4/19/2022 1:00:00 AM 4.5 40.1 0.116 7.32 6.4 11.96
4/19/2022 1:15:00 AM 4.27 39.686 0.116 7.31 6.42 12.02
4/19/2022 1:30:00 AM 4.16 39.488 0.115 7.32 6.86 12.09
4/19/2022 1:45:00 AM 4.11 39.398 0.115 7.31 9.37 12.14
4/19/2022 2:00:00 AM 3.82 38.876 0.115 7.32 7.06 12.18
4/19/2022 2:15:00 AM 3.71 38.678 0.114 7.33 7.35 12.23
4/19/2022 2:30:00 AM 3.46 38.228 0.114 7.32 7.06 12.3
4/19/2022 2:45:00 AM 3.26 37.868 0.113 7.32 7.42 12.39
4/19/2022 3:00:00 AM 3.08 37.544 0.113 7.32 7.81 12.46
4/19/2022 3:15:00 AM 2.83 37.094 0.113 7.32 8.03 12.56
4/19/2022 3:30:00 AM 2.6 36.68 0.112 7.33 8.45 12.64
4/19/2022 3:45:00 AM 2.46 36.428 0.112 7.31 9.56 12.68
4/19/2022 4:00:00 AM 2.4 36.32 0.112 7.04 8.18 12.74
4/19/2022 4:15:00 AM 2.35 36.23 0.112 7.08 8.9 12.76
4/19/2022 4:30:00 AM 2.25 36.05 0.112 7.12 8.62 12.81
4/19/2022 4:45:00 AM 2.22 35.996 0.111 7.15 9.73 12.85
4/19/2022 5:00:00 AM 2.18 35.924 0.111 7.18 9.54 12.89
4/19/2022 5:15:00 AM 2.1 35.78 0.111 7.18 9.64 12.92
4/19/2022 5:30:00 AM 2.03 35.654 0.111 7.17 3.46 12.96
4/19/2022 5:45:00 AM 2.03 35.654 0.111 7.19 8.9 12.99
4/19/2022 6:00:00 AM 2.02 35.636 0.111 7.21 10.34 13.01
4/19/2022 6:15:00 AM 2 35.6 0.111 7.22 9.86 13.03
4/19/2022 6:30:00 AM 2.01 35.618 0.111 7.24 0.89 13.05
4/19/2022 6:45:00 AM 1.99 35.582 0.111 7.23 10.32 13.07
4/19/2022 7:00:00 AM 1.96 35.528 0.11 7.23 10.25 13.09
4/19/2022 7:15:00 AM 1.96 35.528 0.11 7.25 10.49 13.13
4/19/2022 7:30:00 AM 2 35.6 0.11 7.28 10.87 13.17
4/19/2022 7:45:00 AM 2.05 35.69 0.11 7.31 -0.38 13.21
4/19/2022 8:00:00 AM 2.12 35.816 0.111 7.33 11.23 13.25
4/19/2022 8:15:00 AM 2.19 35.942 0.111 7.35 14.39 13.28
4/19/2022 8:30:00 AM 2.26 36.068 0.111 7.36 12.66 13.29
4/19/2022 8:45:00 AM 2.32 36.176 0.111 7.36 12.41 13.31
4/19/2022 9:00:00 AM 2.38 36.284 0.111 7.38 12.35 13.32
4/19/2022 9:15:00 AM 2.45 36.41 0.111 7.38 14.55 13.31
4/19/2022 9:30:00 AM 2.59 36.662 0.111 7.39 12.42 13.31
4/19/2022 9:45:00 AM 2.73 36.914 0.111 7.4 12.37 13.3
4/19/2022 10:00:00 AM 2.86 37.148 0.111 7.4 15.86 13.28
4/19/2022 10:15:00 AM 3.04 37.472 0.111 7.41 11.81 13.27
4/19/2022 10:30:00 AM 3.32 37.976 0.111 7.42 11.3 13.23
4/19/2022 10:45:00 AM 3.5 38.3 0.112 7.43 10.63 13.19
4/19/2022 11:00:00 AM 3.56 38.408 0.112 7.43 11.81 13.14
4/19/2022 11:15:00 AM 3.57 38.426 0.113 7.44 12.25 13.09
4/19/2022 11:30:00 AM 3.61 38.498 0.113 7.44 11.49 13.05
4/19/2022 11:45:00 AM 3.68 38.624 0.114 7.44 11.53 13.03
4/19/2022 12:00:00 PM 3.79 38.822 0.114 7.44 12.28 13.01
4/19/2022 12:15:00 PM 3.91 39.038 0.114 7.45 0.79 12.98
4/19/2022 12:30:00 PM 4.01 39.218 0.115 7.45 14.03 12.96
4/19/2022 12:45:00 PM 4.08 39.344 0.115 7.46 15.98 12.95
4/19/2022 1:00:00 PM 4.1 39.38 0.115 7.46 14.83 12.92
4/19/2022 1:15:00 PM 4.22 39.596 0.115 7.46 11.6 12.9
4/19/2022 1:30:00 PM 4.32 39.776 0.115 7.46 17.86 12.88
4/19/2022 1:45:00 PM 4.42 39.956 0.115 7.47 17 12.85
4/19/2022 2:00:00 PM 4.53 40.154 0.116 7.46 18.33 12.82
4/19/2022 2:15:00 PM 4.62 40.316 0.116 7.47 18.32 12.79
4/19/2022 2:30:00 PM 4.72 40.496 0.116 7.47 20.39 12.76
4/19/2022 2:45:00 PM 4.77 40.586 0.116 7.48 19.85 12.74
4/19/2022 3:00:00 PM 4.82 40.676 0.116 7.48 24.45 12.7
4/19/2022 3:15:00 PM 4.91 40.838 0.116 7.47 21.11 12.68
4/19/2022 3:30:00 PM 5.01 41.018 0.116 7.48 58.39 12.66
4/19/2022 3:45:00 PM 5.06 41.108 0.116 7.48 23.6 12.64
4/19/2022 4:00:00 PM 5.09 41.162 0.116 7.47 11.01 12.62
4/19/2022 4:15:00 PM 5.05 41.09 0.116 7.47 24.22 12.59
4/19/2022 4:30:00 PM 5.11 41.198 0.116 7.47 26.16 12.58
4/19/2022 4:45:00 PM 5.13 41.234 0.116 7.47 22.46 12.56
4/19/2022 5:00:00 PM 5.1 41.18 0.116 7.48 0.64 12.55
4/19/2022 5:15:00 PM 5.07 41.126 0.116 7.47 8.45 12.51
4/19/2022 5:30:00 PM 5.04 41.072 0.115 7.46 25.43 12.51
4/19/2022 5:45:00 PM 5.01 41.018 0.115 7.45 28.68 12.5
4/19/2022 6:00:00 PM 4.98 40.964 0.115 7.46 30.22 12.49
4/19/2022 6:15:00 PM 4.93 40.874 0.115 7.44 28.01 12.48
4/19/2022 6:30:00 PM 4.87 40.766 0.115 7.43 27.79 12.46
4/19/2022 6:45:00 PM 4.8 40.64 0.114 7.43 29.58 12.44
4/19/2022 7:00:00 PM 4.74 40.532 0.114 7.42 27.04 12.43
4/19/2022 7:15:00 PM 4.67 40.406 0.114 7.41 27.73 12.42
4/19/2022 7:30:00 PM 4.61 40.298 0.114 7.39 -0.39 12.42
4/19/2022 7:45:00 PM 4.55 40.19 0.113 7.39 24.9 12.42
4/19/2022 8:00:00 PM 4.48 40.064 0.113 7.37 26.58 12.42
4/19/2022 8:15:00 PM 4.42 39.956 0.113 7.37 26.94 12.42
4/19/2022 8:30:00 PM 4.37 39.866 0.113 7.36 6.08 12.43
4/19/2022 8:45:00 PM 4.31 39.758 0.113 7.36 8.74 12.44
4/19/2022 9:00:00 PM 4.26 39.668 0.113 7.35 23.46 12.45
4/19/2022 9:15:00 PM 4.22 39.596 0.112 7.35 25.05 12.47
4/19/2022 9:30:00 PM 4.18 39.524 0.112 7.04 24.42 12.48
4/19/2022 9:45:00 PM 4.14 39.452 0.112 7.08 26.27 12.49
4/19/2022 10:00:00 PM 4.11 39.398 0.11 7.13 29.44 12.51
4/19/2022 10:15:00 PM 4.08 39.344 0.112 7.19 19.35 12.52
4/19/2022 10:30:00 PM 4.06 39.308 0.112 7.21 14.5 12.53
4/19/2022 10:45:00 PM 4.03 39.254 0.112 7.24 20.28 12.53
4/19/2022 11:00:00 PM 4.01 39.218 0.112 7.23 19.51 12.54
4/19/2022 11:15:00 PM 3.99 39.182 0.112 7.25 19.8 12.55
4/19/2022 11:30:00 PM 3.97 39.146 0.112 7.25 19.16 12.56
4/19/2022 11:45:00 PM 3.96 39.128 0.112 7.25 19.65 12.57
4/20/2022 12:00:00 AM 3.94 39.092 0.112 7.25 17.82 12.57
4/20/2022 12:15:00 AM 3.93 39.074 0.112 7.26 8.6 12.58
4/20/2022 12:30:00 AM 3.91 39.038 0.112 7.25 18.32 12.59
4/20/2022 12:45:00 AM 3.9 39.02 0.099 7.26 14.37 12.6
4/20/2022 1:00:00 AM 3.88 38.984 0.112 7.26 14.51 12.6
4/20/2022 1:15:00 AM 3.87 38.966 0.112 7.27 -0.43 12.61
4/20/2022 1:30:00 AM 3.86 38.948 0.112 7.26 6.78 12.62
4/20/2022 1:45:00 AM 3.85 38.93 0.112 7.27 14.86 12.62
4/20/2022 2:00:00 AM 3.83 38.894 0.112 7.26 17.01 12.62
4/20/2022 2:15:00 AM 3.82 38.876 0.112 7.26 14.91 12.63
4/20/2022 2:30:00 AM 3.81 38.858 0.112 7.26 13.9 12.63
4/20/2022 2:45:00 AM 3.8 38.84 0.112 7.26 13.93 12.64
4/20/2022 3:00:00 AM 3.78 38.804 0.107 7.27 13.03 12.65
4/20/2022 3:15:00 AM 3.77 38.786 0.112 7.26 13.48 12.66
4/20/2022 3:30:00 AM 3.77 38.786 0.113 7.26 14.33 12.66
4/20/2022 3:45:00 AM 3.76 38.768 0.113 7.27 12.76 12.66
4/20/2022 4:00:00 AM 3.75 38.75 0.113 7.27 13.97 12.66
4/20/2022 4:15:00 AM 3.72 38.696 0.113 7.26 13.52 12.67
4/20/2022 4:30:00 AM 3.69 38.642 0.113 7.25 12.24 12.68
4/20/2022 4:45:00 AM 3.67 38.606 0.113 7.26 12.05 12.69
4/20/2022 5:00:00 AM 3.65 38.57 0.113 7.26 12.35 12.69
4/20/2022 5:15:00 AM 3.63 38.534 0.113 7.25 12.03 12.7
4/20/2022 5:30:00 AM 3.64 38.552 0.113 7.25 12.27 12.71
4/20/2022 5:45:00 AM 3.64 38.552 0.113 7.25 9.32 12.71
4/20/2022 6:00:00 AM 3.65 38.57 0.113 7.25 11.75 12.71
4/20/2022 6:15:00 AM 3.65 38.57 0.113 7.25 10.33 12.72
4/20/2022 6:30:00 AM 3.64 38.552 0.113 7.26 10.8 12.73
4/20/2022 6:45:00 AM 3.62 38.516 0.113 7.24 11.23 12.74
4/20/2022 7:00:00 AM 3.6 38.48 0.113 7.25 10.6 12.78
4/20/2022 7:15:00 AM 3.61 38.498 0.113 7.26 5.01 12.83
4/20/2022 7:30:00 AM 3.63 38.534 0.113 7.28 9.66 12.86
4/20/2022 7:45:00 AM 3.66 38.588 0.113 7.29 10.36 12.9
4/20/2022 8:00:00 AM 3.68 38.624 0.113 7.3 9.88 12.93
4/20/2022 8:15:00 AM 3.7 38.66 0.113 7.32 9.75 12.96
4/20/2022 8:30:00 AM 3.76 38.768 0.113 7.33 -0.32 12.99
4/20/2022 8:45:00 AM 3.91 39.038 0.113 7.34 9.6 13.02
4/20/2022 9:00:00 AM 4 39.2 0.113 7.36 9.83 13.02
4/20/2022 9:15:00 AM 4.07 39.326 0.113 7.36 9.77 13.03
4/20/2022 9:30:00 AM 4.23 39.614 0.113 7.37 9.37 13.02
4/20/2022 9:45:00 AM 4.45 40.01 0.113 7.37 9.65 12.98
4/20/2022 10:00:00 AM 4.65 40.37 0.113 7.38 9.75 12.96
4/20/2022 10:15:00 AM 4.81 40.658 0.084 7.38 9.48 12.93
4/20/2022 10:30:00 AM 4.96 40.928 0.113 7.39 8.83 12.9
4/20/2022 10:45:00 AM 5.22 41.396 0.113 7.39 9.29 12.86
4/20/2022 11:00:00 AM 5.52 41.936 0.113 7.39 8.35 12.82
4/20/2022 11:15:00 AM 5.67 42.206 0.114 7.4 8.47 12.75
4/20/2022 11:30:00 AM 5.99 42.782 0.114 7.4 8.59 12.7
4/20/2022 11:45:00 AM 6.36 43.448 0.114 7.4 8.34 12.63
4/20/2022 12:00:00 PM 6.65 43.97 0.114 7.41 11.19 12.55
4/20/2022 12:15:00 PM 7 44.6 0.115 7.41 7.82 12.47
4/20/2022 12:30:00 PM 7.34 45.212 0.115 7.43 9.32 12.4
4/20/2022 12:45:00 PM 7.65 45.77 0.116 7.43 8.87 12.32
4/20/2022 1:00:00 PM 7.97 46.346 0.116 7.44 10.41 12.24
4/20/2022 1:15:00 PM 8.27 46.886 0.116 7.45 10.94 12.15
4/20/2022 1:30:00 PM 8.54 47.372 0.116 7.46 12.08 12.08
4/20/2022 1:45:00 PM 8.77 47.786 0.115 7.47 12.99 12.02
4/20/2022 2:00:00 PM 8.93 48.074 0.115 7.49 16.93 11.96
4/20/2022 2:15:00 PM 9.06 48.308 0.114 7.5 24.48 11.91
4/20/2022 2:30:00 PM 9.18 48.524 0.112 7.48 8.61 11.83
4/20/2022 2:45:00 PM 9.28 48.704 0.11 7.46 77.09 11.69
4/20/2022 3:00:00 PM 9.37 48.866 0.108 7.43 96.01 11.58
4/20/2022 3:15:00 PM 9.4 48.92 0.105 7.42 131.17 11.47
4/20/2022 3:30:00 PM 9.39 48.902 0.101 7.4 141.78 11.46
4/20/2022 3:45:00 PM 9.36 48.848 0.098 7.41 151.93 11.45
4/20/2022 4:00:00 PM 9.3 48.74 0.096 7.37 18.79 11.43
4/20/2022 4:15:00 PM 9.23 48.614 0.093 7.35 173.55 11.44
4/20/2022 4:30:00 PM 9.15 48.47 0.091 7.36 174.28 11.44
4/20/2022 4:45:00 PM 9.06 48.308 0.089 7.3 183.93 11.45
4/20/2022 5:00:00 PM 8.95 48.11 0.087 7.28 186.29 11.47
4/20/2022 5:15:00 PM 8.82 47.876 0.086 6.98 165.78 11.49
4/20/2022 5:30:00 PM 8.68 47.624 0.085 6.97 197.06 11.51
4/20/2022 5:45:00 PM 8.55 47.39 0.084 6.98 198.6 11.54
4/20/2022 6:00:00 PM 8.42 47.156 0.084 7 183.11 11.57
4/20/2022 6:15:00 PM 8.27 46.886 0.083 7.01 167.67 11.6
4/20/2022 6:30:00 PM 8.13 46.634 0.083 7.03 156.81 11.63
4/20/2022 6:45:00 PM 7.98 46.364 0.082 7.02 143.71 11.66
4/20/2022 7:00:00 PM 7.82 46.076 0.081 7.05 143.8 11.69
4/20/2022 7:15:00 PM 7.66 45.788 0.081 7.04 127.06 11.72
4/20/2022 7:30:00 PM 7.5 45.5 0.08 7.06 3.95 11.75
4/20/2022 7:45:00 PM 7.35 45.23 0.08 7.08 57.51 11.8
4/20/2022 8:00:00 PM 7.19 44.942 0.08 7.09 12.69 11.83
4/20/2022 8:15:00 PM 7.04 44.672 0.08 7.09 101.07 11.87
4/20/2022 8:30:00 PM 6.88 44.384 0.08 7.1 94.1 11.91
4/20/2022 8:45:00 PM 6.73 44.114 0.08 7.11 89.47 11.95
4/20/2022 9:00:00 PM 6.59 43.862 0.08 7.14 77.98 11.98
4/20/2022 9:15:00 PM 6.45 43.61 0.08 7.15 39.99 12.03
4/20/2022 9:30:00 PM 6.31 43.358 0.08 7.17 63.87 12.06
4/20/2022 9:45:00 PM 6.19 43.142 0.08 7.17 76.35 12.09
4/20/2022 10:00:00 PM 6.07 42.926 0.08 7.16 67.62 12.13
4/20/2022 10:15:00 PM 5.96 42.728 0.08 7.16 61.91 12.16
4/20/2022 10:30:00 PM 5.85 42.53 0.065 7.17 60.69 12.19
4/20/2022 10:45:00 PM 5.74 42.332 0.078 7.17 59.6 12.22
4/20/2022 11:00:00 PM 5.65 42.17 0.082 7.17 55.4 12.25
4/20/2022 11:15:00 PM 5.55 41.99 0.082 7.17 57.46 12.26
4/20/2022 11:30:00 PM 5.46 41.828 0.083 7.16 53.14 12.29
4/20/2022 11:45:00 PM 5.36 41.648 0.083 7.17 50.21 12.32
4/21/2022 12:00:00 AM 5.28 41.504 0.083 7.16 45.79 12.34
4/21/2022 12:15:00 AM 5.2 41.36 0.084 7.17 45.62 12.36
4/21/2022 12:30:00 AM 5.12 41.216 0.084 7.17 42.39 12.38
4/21/2022 12:45:00 AM 5.05 41.09 0.085 7.17 41.1 12.4
4/21/2022 1:00:00 AM 4.98 40.964 0.085 7.17 47.76 12.42
4/21/2022 1:15:00 AM 4.93 40.874 0.086 7.17 39.09 12.44
4/21/2022 1:30:00 AM 4.88 40.784 0.086 7.17 35.68 12.45
4/21/2022 1:45:00 AM 4.85 40.73 0.086 7.17 34.46 12.47
4/21/2022 2:00:00 AM 4.81 40.658 0.086 7.17 31.53 12.48
4/21/2022 2:15:00 AM 4.78 40.604 0.087 7.17 34.06 12.49
4/21/2022 2:30:00 AM 4.75 40.55 0.086 7.18 30.17 12.49
4/21/2022 2:45:00 AM 4.72 40.496 0.088 7.18 29.09 12.5
4/21/2022 3:00:00 AM 4.69 40.442 0.089 7.18 28.53 12.5
4/21/2022 3:15:00 AM 4.66 40.388 0.089 7.18 28.72 12.51
4/21/2022 3:30:00 AM 4.62 40.316 0.09 7.18 22.26 12.52
4/21/2022 3:45:00 AM 4.59 40.262 0.09 7.17 26.56 12.52
4/21/2022 4:00:00 AM 4.56 40.208 0.09 7.18 25.66 12.53
4/21/2022 4:15:00 AM 4.54 40.172 0.091 7.18 26.57 12.54
4/21/2022 4:30:00 AM 4.51 40.118 0.091 7.18 23.59 12.54
4/21/2022 4:45:00 AM 4.49 40.082 0.091 7.18 24.1 12.55
4/21/2022 5:00:00 AM 4.49 40.082 0.092 7.17 23.78 12.54
4/21/2022 5:15:00 AM 4.48 40.064 0.092 7.17 22.26 12.55
4/21/2022 5:30:00 AM 4.48 40.064 0.093 7.18 21.31 12.55
4/21/2022 5:45:00 AM 4.48 40.064 0.093 7.18 25.38 12.55
4/21/2022 6:00:00 AM 4.47 40.046 0.093 7.18 25.63 12.55
4/21/2022 6:15:00 AM 4.46 40.028 0.093 7.18 20.38 12.55
4/21/2022 6:30:00 AM 4.46 40.028 0.094 7.17 28.64 12.55
4/21/2022 6:45:00 AM 4.47 40.046 0.094 7.19 21.76 12.55
4/21/2022 7:00:00 AM 4.49 40.082 0.094 7.19 19.19 12.56
4/21/2022 7:15:00 AM 4.52 40.136 0.094 7.19 18.91 12.58
4/21/2022 7:30:00 AM 4.58 40.244 0.095 7.2 17.25 12.59
4/21/2022 7:45:00 AM 4.65 40.37 0.095 7.21 16.84 12.6
4/21/2022 8:00:00 AM 4.74 40.532 0.095 7.22 16.29 12.6
4/21/2022 8:15:00 AM 4.82 40.676 0.095 7.22 16.51 12.6
4/21/2022 8:30:00 AM 4.9 40.82 0.095 7.23 16.27 12.6
4/21/2022 8:45:00 AM 5 41 0.096 7.23 14.94 12.59
4/21/2022 9:00:00 AM 5.09 41.162 0.096 7.23 14.73 12.57
4/21/2022 9:15:00 AM 5.19 41.342 0.096 7.24 14.18 12.56
4/21/2022 9:30:00 AM 5.27 41.486 0.096 7.25 13 12.55
4/21/2022 9:45:00 AM 5.35 41.63 0.096 7.26 14.34 12.53
4/21/2022 10:00:00 AM 5.45 41.81 0.096 7.26 13.34 12.5
4/21/2022 10:15:00 AM 5.5 41.9 0.096 7.25 14.26 12.48
4/21/2022 10:30:00 AM 5.54 41.972 0.096 7.26 13.84 12.45
4/21/2022 10:45:00 AM 5.64 42.152 0.097 7.27 12.73 12.43
4/21/2022 11:00:00 AM 5.77 42.386 0.097 7.27 8.95 12.42
4/21/2022 11:15:00 AM 5.94 42.692 0.097 7.27 10.23 12.39
4/21/2022 11:30:00 AM 6.11 42.998 0.097 7.28 12.17 12.36
4/21/2022 11:45:00 AM 6.3 43.34 0.097 7.28 13.39 12.32
4/21/2022 12:00:00 PM 6.45 43.61 0.096 7.28 12.46 12.28
4/21/2022 12:15:00 PM 6.51 43.718 0.096 7.28 12.38 12.24
4/21/2022 12:30:00 PM 6.59 43.862 0.096 7.27 25.39 12.2
4/21/2022 12:45:00 PM 6.63 43.934 0.096 7.29 15.33 12.17
4/21/2022 1:00:00 PM 6.66 43.988 0.096 7.28 14.73 12.13
4/21/2022 1:15:00 PM 6.71 44.078 0.095 7.28 13.59 12.1
4/21/2022 1:30:00 PM 6.72 44.096 0.095 7.27 43.1 12.08
4/21/2022 1:45:00 PM 6.74 44.132 0.095 7.26 14.56 12.05
4/21/2022 2:00:00 PM 6.76 44.168 0.094 7.28 15.7 12.01
4/21/2022 2:15:00 PM 6.81 44.258 0.094 7.26 17.51 11.99
4/21/2022 2:30:00 PM 6.86 44.348 0.093 7.26 15.46 11.97
4/21/2022 2:45:00 PM 6.89 44.402 0.093 7.26 16 11.95
4/21/2022 3:00:00 PM 6.92 44.456 0.092 7.26 18.94 11.94
4/21/2022 3:15:00 PM 6.91 44.438 0.091 7.24 17.48 11.94
4/21/2022 3:30:00 PM 6.9 44.42 0.09 7.24 23.92 11.94
4/21/2022 3:45:00 PM 6.9 44.42 0.089 7.25 21.09 11.93
4/21/2022 4:00:00 PM 6.95 44.51 0.088 7.25 20.18 11.95
4/21/2022 4:15:00 PM 7 44.6 0.087 7.24 21.17 11.96
4/21/2022 4:30:00 PM 7.02 44.636 0.087 7.24 21.89 11.94
4/21/2022 4:45:00 PM 7.05 44.69 0.086 7.23 24.01 11.92
4/21/2022 5:00:00 PM 7.07 44.726 0.086 7.22 24.69 11.9
4/21/2022 5:15:00 PM 7.09 44.762 0.085 7.23 26.12 11.9
4/21/2022 5:30:00 PM 7.12 44.816 0.084 7.23 24.71 11.9
4/21/2022 5:45:00 PM 7.14 44.852 0.084 7.21 26.51 11.9
4/21/2022 6:00:00 PM 7.13 44.834 0.083 7.21 27.33 11.9
4/21/2022 6:15:00 PM 7.12 44.816 0.083 7.2 26.85 11.9
4/21/2022 6:30:00 PM 7.11 44.798 0.082 7.21 25.3 11.91
4/21/2022 6:45:00 PM 7.09 44.762 0.081 7.19 26.9 11.91
4/21/2022 7:00:00 PM 7.04 44.672 0.081 7.19 25.71 11.91
4/21/2022 7:15:00 PM 6.96 44.528 0.08 7.19 27.12 11.91
4/21/2022 7:30:00 PM 6.89 44.402 0.08 7.17 23.36 11.9
4/21/2022 7:45:00 PM 6.86 44.348 0.079 7.17 27.01 11.89
4/21/2022 8:00:00 PM 6.83 44.294 0.078 7.17 27.28 11.89
4/21/2022 8:15:00 PM 6.81 44.258 0.079 7.16 29.3 11.88
4/21/2022 8:30:00 PM 6.78 44.204 0.079 7.14 45.19 11.88
4/21/2022 8:45:00 PM 6.74 44.132 0.078 7.16 26.72 11.88
4/21/2022 9:00:00 PM 6.69 44.042 0.078 7.14 25.17 11.88
4/21/2022 9:15:00 PM 6.64 43.952 0.078 7.15 26.64 11.89
4/21/2022 9:30:00 PM 6.59 43.862 0.078 7.15 24.58 11.9
4/21/2022 9:45:00 PM 6.54 43.772 0.078 7.14 23.22 11.91
4/21/2022 10:00:00 PM 6.5 43.7 0.078 7.13 24.4 11.92
4/21/2022 10:15:00 PM 6.47 43.646 0.079 7.14 22.88 11.92
4/21/2022 10:30:00 PM 6.44 43.592 0.079 7.13 35.84 11.93
4/21/2022 10:45:00 PM 6.41 43.538 0.079 7.14 24.11 11.94
4/21/2022 11:00:00 PM 6.39 43.502 0.079 7.12 19.19 11.95
4/21/2022 11:15:00 PM 6.36 43.448 0.079 7.13 23.07 11.95
4/21/2022 11:30:00 PM 6.32 43.376 0.079 7.12 20.92 11.96
4/21/2022 11:45:00 PM 6.28 43.304 0.079 7.12 22.1 11.97
4/22/2022 12:00:00 AM 6.24 43.232 0.079 7.12 19.88 11.98
4/22/2022 12:15:00 AM 6.18 43.124 0.08 7.12 21.1 11.99
4/22/2022 12:30:00 AM 6.13 43.034 0.08 7.12 21.95 12.01
4/22/2022 12:45:00 AM 6.08 42.944 0.08 7.11 18.46 12.02
4/22/2022 1:00:00 AM 6.04 42.872 0.08 7.1 25.36 12.03
4/22/2022 1:15:00 AM 5.99 42.782 0.081 7.11 16.76 12.04
4/22/2022 1:30:00 AM 5.95 42.71 0.081 7.11 30.66 12.05
4/22/2022 1:45:00 AM 5.92 42.656 0.081 7.13 18.81 12.07
4/22/2022 2:00:00 AM 5.88 42.584 0.081 7.13 18.45 12.07
4/22/2022 2:15:00 AM 5.85 42.53 0.081 7.13 17.77 12.08
4/22/2022 2:30:00 AM 5.81 42.458 0.082 7.12 16.4 12.09
4/22/2022 2:45:00 AM 5.77 42.386 0.082 7.12 17.33 12.1
4/22/2022 3:00:00 AM 5.74 42.332 0.082 7.13 16.16 12.11
4/22/2022 3:15:00 AM 5.71 42.278 0.082 7.13 15.91 12.12
4/22/2022 3:30:00 AM 5.69 42.242 0.083 7.12 16.28 12.13
4/22/2022 3:45:00 AM 5.66 42.188 0.083 7.11 14.48 12.14
4/22/2022 4:00:00 AM 5.67 42.206 0.083 7.11 15.2 12.14
4/22/2022 4:15:00 AM 5.68 42.224 0.083 7.12 15.1 12.15
4/22/2022 4:30:00 AM 5.68 42.224 0.084 7.12 15.17 12.15
4/22/2022 4:45:00 AM 5.68 42.224 0.084 7.14 15.71 12.16
4/22/2022 5:00:00 AM 5.68 42.224 0.084 7.14 14.68 12.16
4/22/2022 5:15:00 AM 5.66 42.188 0.084 7.13 14.43 12.17
4/22/2022 5:30:00 AM 5.65 42.17 0.084 7.13 13.96 12.17
4/22/2022 5:45:00 AM 5.62 42.116 0.085 7.13 12.23 12.18
4/22/2022 6:00:00 AM 5.59 42.062 0.085 7.15 17.97 12.18
4/22/2022 6:15:00 AM 5.57 42.026 0.085 7.15 13.5 12.19
4/22/2022 6:30:00 AM 5.54 41.972 0.085 7.14 14.58 12.21
4/22/2022 6:45:00 AM 5.52 41.936 0.085 7.14 13.63 12.22
4/22/2022 7:00:00 AM 5.51 41.918 0.085 7.15 13.17 12.24
4/22/2022 7:15:00 AM 5.51 41.918 0.086 7.15 12.73 12.27
4/22/2022 7:30:00 AM 5.53 41.954 0.086 7.15 3.08 12.29
4/22/2022 7:45:00 AM 5.55 41.99 0.086 7.17 13.67 12.31
4/22/2022 8:00:00 AM 5.59 42.062 0.086 7.18 12.34 12.33
4/22/2022 8:15:00 AM 5.63 42.134 0.086 7.18 12.5 12.35
4/22/2022 8:30:00 AM 5.68 42.224 0.086 7.18 12.05 12.37
4/22/2022 8:45:00 AM 5.75 42.35 0.086 7.19 12.28 12.38
4/22/2022 9:00:00 AM 5.83 42.494 0.086 7.19 12.76 12.39
4/22/2022 9:15:00 AM 5.94 42.692 0.087 7.2 11.65 12.39
4/22/2022 9:30:00 AM 6.07 42.926 0.087 7.2 11.57 12.38
4/22/2022 9:45:00 AM 6.22 43.196 0.087 7.21 12.17 12.37
4/22/2022 10:00:00 AM 6.39 43.502 0.087 7.21 10.96 12.36
4/22/2022 10:15:00 AM 6.59 43.862 0.087 7.2 11.36 12.32
4/22/2022 10:30:00 AM 6.82 44.276 0.087 7.23 11.31 12.29
4/22/2022 10:45:00 AM 7.07 44.726 0.087 7.23 11.36 12.23
4/22/2022 11:00:00 AM 7.33 45.194 0.059 7.23 10.45 12.18
4/22/2022 11:15:00 AM 7.61 45.698 0.087 7.24 10.52 12.12
4/22/2022 11:30:00 AM 7.89 46.202 0.087 7.24 10.51 12.07
4/22/2022 11:45:00 AM 8.17 46.706 0.087 7.24 10.5 12
4/22/2022 12:00:00 PM 8.45 47.21 0.087 7.24 10.44 11.94
4/22/2022 12:15:00 PM 8.73 47.714 0.087 7.24 10.26 11.87
4/22/2022 12:30:00 PM 9 48.2 0.087 7.24 10.11 11.8
4/22/2022 12:45:00 PM 9.28 48.704 0.087 7.24 10.13 11.74
4/22/2022 1:00:00 PM 9.55 49.19 0.087 7.25 12.36 11.68
4/22/2022 1:15:00 PM 9.81 49.658 0.088 7.26 9.83 11.61
4/22/2022 1:30:00 PM 10.06 50.108 0.088 7.26 10.49 11.54
4/22/2022 1:45:00 PM 10.29 50.522 0.088 7.28 9.88 11.5
4/22/2022 2:00:00 PM 10.51 50.918 0.088 7.27 9.83 11.42
4/22/2022 2:15:00 PM 10.72 51.296 0.087 7.27 9.63 11.38
4/22/2022 2:30:00 PM 10.9 51.62 0.088 7.27 8.35 11.32
4/22/2022 2:45:00 PM 11.08 51.944 0.088 7.28 21.09 11.26
4/22/2022 3:00:00 PM 11.23 52.214 0.088 7.29 9.6 11.22
4/22/2022 3:15:00 PM 11.36 52.448 0.088 7.29 17.08 11.17
4/22/2022 3:30:00 PM 11.46 52.628 0.088 7.29 9.79 11.13
4/22/2022 3:45:00 PM 11.53 52.754 0.088 7.28 29.47 11.11
4/22/2022 4:00:00 PM 11.59 52.862 0.088 7.29 9.37 11.07
4/22/2022 4:15:00 PM 11.62 52.916 0.088 7.29 12.13 11.04
4/22/2022 4:30:00 PM 11.61 52.898 0.088 7.28 19.81 11.01
4/22/2022 4:45:00 PM 11.57 52.826 0.089 7.27 26.32 10.96
4/22/2022 5:00:00 PM 11.53 52.754 0.089 7.27 25.46 10.96
4/22/2022 5:15:00 PM 11.47 52.646 0.089 7.26 19.93 10.95
4/22/2022 5:30:00 PM 11.37 52.466 0.089 7.26 24.77 10.95
4/22/2022 5:45:00 PM 11.27 52.286 0.089 7.27 13.79 10.95
4/22/2022 6:00:00 PM 11.16 52.088 0.089 7.26 11.93 10.95
4/22/2022 6:15:00 PM 11.03 51.854 0.089 7.26 11.42 10.95
4/22/2022 6:30:00 PM 10.89 51.602 0.089 7.26 63.13 10.95
4/22/2022 6:45:00 PM 10.74 51.332 0.09 7.25 11.21 10.95
4/22/2022 7:00:00 PM 10.6 51.08 0.09 7.23 10.72 10.95
4/22/2022 7:15:00 PM 10.46 50.828 0.09 7.23 10.63 10.94
4/22/2022 7:30:00 PM 10.32 50.576 0.09 7.22 10.42 10.94
4/22/2022 7:45:00 PM 10.17 50.306 0.09 7.21 10.34 10.95
4/22/2022 8:00:00 PM 10.02 50.036 0.09 7.2 10.5 10.95
4/22/2022 8:15:00 PM 9.88 49.784 0.09 7.18 9.92 10.95
4/22/2022 8:30:00 PM 9.74 49.532 0.09 7.18 9.69 10.96
4/22/2022 8:45:00 PM 9.6 49.28 0.091 7.17 10 10.97
4/22/2022 9:00:00 PM 9.46 49.028 0.091 7.15 9.91 11
4/22/2022 9:15:00 PM 9.32 48.776 0.091 7.15 10.1 11.02
4/22/2022 9:30:00 PM 9.18 48.524 0.091 7.15 9.34 11.05
4/22/2022 9:45:00 PM 9.05 48.29 0.091 7.14 23.06 11.09
4/22/2022 10:00:00 PM 8.92 48.056 0.091 7.15 28.78 11.11
4/22/2022 10:15:00 PM 8.79 47.822 0.091 7.15 9.58 11.14
4/22/2022 10:30:00 PM 8.67 47.606 0.091 7.14 9.6 11.18
4/22/2022 10:45:00 PM 8.55 47.39 0.092 7.14 12.46 11.21
4/22/2022 11:00:00 PM 8.42 47.156 0.092 7.14 10.28 11.24
4/22/2022 11:15:00 PM 8.3 46.94 0.092 7.14 9.95 11.27
4/22/2022 11:30:00 PM 8.18 46.724 0.092 7.13 10.02 11.3
4/22/2022 11:45:00 PM 8.06 46.508 0.092 7.14 9.93 11.34
4/23/2022 12:00:00 AM 7.94 46.292 0.092 7.13 10.69 11.37
4/23/2022 12:15:00 AM 7.82 46.076 0.092 7.14 10.95 11.4
4/23/2022 12:30:00 AM 7.71 45.878 0.092 7.14 10.83 11.44
4/23/2022 12:45:00 AM 7.6 45.68 0.092 7.13 10.24 11.48
4/23/2022 1:00:00 AM 7.49 45.482 0.093 7.15 10.37 11.5
4/23/2022 1:15:00 AM 7.38 45.284 0.093 7.15 20.53 11.53
4/23/2022 1:30:00 AM 7.29 45.122 0.093 7.15 11.11 11.56
4/23/2022 1:45:00 AM 7.21 44.978 0.093 7.15 10.19 11.58
4/23/2022 2:00:00 AM 7.13 44.834 0.093 7.14 9.23 11.61
4/23/2022 2:15:00 AM 7.06 44.708 0.093 7.14 9.7 11.63
4/23/2022 2:30:00 AM 6.98 44.564 0.093 7.14 40.07 11.65
4/23/2022 2:45:00 AM 6.91 44.438 0.093 7.15 46.56 11.67
4/23/2022 3:00:00 AM 6.86 44.348 0.093 7.15 8.94 11.69
4/23/2022 3:15:00 AM 6.82 44.276 0.093 7.15 9.38 11.7
4/23/2022 3:30:00 AM 6.78 44.204 0.093 7.14 8.46 11.72
4/23/2022 3:45:00 AM 6.74 44.132 0.093 7.14 9.17 11.73
4/23/2022 4:00:00 AM 6.7 44.06 0.093 7.14 8.36 11.75
4/23/2022 4:15:00 AM 6.66 43.988 0.094 7.15 8.62 11.76
4/23/2022 4:30:00 AM 6.63 43.934 0.094 7.14 8.47 11.77
4/23/2022 4:45:00 AM 6.6 43.88 0.094 7.14 9.21 11.78
4/23/2022 5:00:00 AM 6.58 43.844 0.094 7.15 23.48 11.78
4/23/2022 5:15:00 AM 6.55 43.79 0.094 7.15 8.12 11.79
4/23/2022 5:30:00 AM 6.52 43.736 0.094 7.14 7.87 11.8
4/23/2022 5:45:00 AM 6.5 43.7 0.094 7.15 7.58 11.82
4/23/2022 6:00:00 AM 6.48 43.664 0.094 7.15 7.74 11.81
4/23/2022 6:15:00 AM 6.46 43.628 0.094 7.16 8.36 11.83
4/23/2022 6:30:00 AM 6.44 43.592 0.094 7.16 8.25 11.84
4/23/2022 6:45:00 AM 6.43 43.574 0.094 7.16 7.71 11.86
4/23/2022 7:00:00 AM 6.43 43.574 0.094 7.16 7.47 11.88
4/23/2022 7:15:00 AM 6.43 43.574 0.094 7.17 8.25 11.91
4/23/2022 7:30:00 AM 6.44 43.592 0.094 7.18 7.39 11.96
4/23/2022 7:45:00 AM 6.47 43.646 0.094 7.19 7.46 11.99
4/23/2022 8:00:00 AM 6.49 43.682 0.094 7.2 7.55 12.02
4/23/2022 8:15:00 AM 6.51 43.718 0.094 7.21 7.29 12.04
4/23/2022 8:30:00 AM 6.53 43.754 0.094 7.21 6.97 12.05
4/23/2022 8:45:00 AM 6.54 43.772 0.094 7.22 7.4 12.05
4/23/2022 9:00:00 AM 6.56 43.808 0.094 7.22 7.12 12.07
4/23/2022 9:15:00 AM 6.61 43.898 0.094 7.22 6.85 12.09
4/23/2022 9:30:00 AM 6.71 44.078 0.093 7.23 6.58 12.11
4/23/2022 9:45:00 AM 6.86 44.348 0.094 7.24 6.83 12.12
4/23/2022 10:00:00 AM 7.04 44.672 0.094 7.25 25.52 12.11
4/23/2022 10:15:00 AM 7.27 45.086 0.094 7.26 6.92 12.09
4/23/2022 10:30:00 AM 7.56 45.608 0.087 7.27 6.57 12.05
4/23/2022 10:45:00 AM 7.84 46.112 0.094 7.26 6.47 12.01
4/23/2022 11:00:00 AM 8.05 46.49 0.094 7.28 6.64 11.97
4/23/2022 11:15:00 AM 8.3 46.94 0.094 7.28 6.23 11.92
4/23/2022 11:30:00 AM 8.41 47.138 0.094 7.29 6.59 11.85
4/23/2022 11:45:00 AM 8.58 47.444 0.094 7.3 88.21 11.82
4/23/2022 12:00:00 PM 8.88 47.984 0.094 7.31 6.03 11.77
4/23/2022 12:15:00 PM 9.18 48.524 0.094 7.31 6.4 11.7
4/23/2022 12:30:00 PM 9.49 49.082 0.094 7.31 39.91 11.63
4/23/2022 12:45:00 PM 9.85 49.73 0.094 7.33 6.81 11.56
4/23/2022 1:00:00 PM 10.21 50.378 0.094 7.33 6.28 11.47
4/23/2022 1:15:00 PM 10.58 51.044 0.095 7.34 6.07 11.41
4/23/2022 1:30:00 PM 10.79 51.422 0.095 7.33 6.72 11.32
4/23/2022 1:45:00 PM 10.91 51.638 0.095 7.32 6.26 11.26
4/23/2022 2:00:00 PM 10.99 51.782 0.095 7.32 6.19 11.22
4/23/2022 2:15:00 PM 11 51.8 0.095 7.33 6.21 11.18
4/23/2022 2:30:00 PM 11.01 51.818 0.095 7.33 5.87 11.16
4/23/2022 2:45:00 PM 11.04 51.872 0.095 7.34 5.72 11.14
4/23/2022 3:00:00 PM 11.03 51.854 0.095 7.33 49.86 11.12
4/23/2022 3:15:00 PM 10.96 51.728 0.095 7.33 5.87 11.09
4/23/2022 3:30:00 PM 10.86 51.548 0.095 7.32 5.68 11.07
4/23/2022 3:45:00 PM 10.8 51.44 0.095 7.31 38.29 11.06
4/23/2022 4:00:00 PM 10.77 51.386 0.095 7.32 6.15 11.06
4/23/2022 4:15:00 PM 10.72 51.296 0.095 7.31 5.99 11.05
4/23/2022 4:30:00 PM 10.7 51.26 0.095 7.31 5.57 11.05
4/23/2022 4:45:00 PM 10.7 51.26 0.095 7.31 5.84 11.05
4/23/2022 5:00:00 PM 10.71 51.278 0.095 7.32 6.41 11.05
4/23/2022 5:15:00 PM 10.73 51.314 0.095 7.31 6.15 11.05
4/23/2022 5:30:00 PM 10.78 51.404 0.095 7.31 5.87 11.05
4/23/2022 5:45:00 PM 10.82 51.476 0.067 7.31 5.71 11.04
4/23/2022 6:00:00 PM 10.83 51.494 0.096 7.31 5.92 11.03
4/23/2022 6:15:00 PM 10.84 51.512 0.096 7.31 6.55 11
4/23/2022 6:30:00 PM 10.79 51.422 0.096 7.3 5.39 10.97
4/23/2022 6:45:00 PM 10.75 51.35 0.096 7.29 5.66 10.93
4/23/2022 7:00:00 PM 10.7 51.26 0.096 7.27 6.07 10.89
4/23/2022 7:15:00 PM 10.64 51.152 0.096 7.26 6.68 10.86
4/23/2022 7:30:00 PM 10.57 51.026 0.096 7.25 7.45 10.82
4/23/2022 7:45:00 PM 10.5 50.9 0.096 7.24 6.45 10.79
4/23/2022 8:00:00 PM 10.42 50.756 0.097 7.23 6.77 10.76
4/23/2022 8:15:00 PM 10.34 50.612 0.097 7.21 6.66 10.74
4/23/2022 8:30:00 PM 10.25 50.45 0.097 7.2 6.86 10.71
4/23/2022 8:45:00 PM 10.17 50.306 0.097 7.18 6.45 10.72
4/23/2022 9:00:00 PM 10.09 50.162 0.097 7.18 6.35 10.71
4/23/2022 9:15:00 PM 10.01 50.018 0.097 7.16 6.67 10.71
4/23/2022 9:30:00 PM 9.92 49.856 0.097 7.16 6.39 10.72
4/23/2022 9:45:00 PM 9.83 49.694 0.098 7.16 7.15 10.73
4/23/2022 10:00:00 PM 9.74 49.532 0.098 7.15 6.44 10.75
4/23/2022 10:15:00 PM 9.65 49.37 0.098 7.15 6.37 10.77
4/23/2022 10:30:00 PM 9.55 49.19 0.098 7.15 6.47 10.79
4/23/2022 10:45:00 PM 9.45 49.01 0.098 7.15 6.28 10.81
4/23/2022 11:00:00 PM 9.36 48.848 0.075 7.14 6.51 10.84
4/23/2022 11:15:00 PM 9.27 48.686 0.098 7.15 6.33 10.86
4/23/2022 11:30:00 PM 9.17 48.506 0.098 7.14 6.4 10.89
4/23/2022 11:45:00 PM 9.08 48.344 0.098 7.15 6.56 10.9
4/24/2022 12:00:00 AM 8.99 48.182 0.098 7.14 6.26 10.92
4/24/2022 12:15:00 AM 8.91 48.038 0.098 7.14 6.16 10.94
4/24/2022 12:30:00 AM 8.82 47.876 0.098 7.14 6.56 10.96
4/24/2022 12:45:00 AM -99999.99 -179968 -99999.99 -99999.99 -99999.99 -99999.99
4/24/2022 1:00:00 AM -99999.99 -179968 -99999.99 -99999.99 -99999.99 -99999.99
4/24/2022 1:15:00 AM -99999.99 -179968 -99999.99 -99999.99 -99999.99 -99999.99
4/24/2022 1:30:00 AM -99999.99 -179968 -99999.99 -99999.99 -99999.99 -99999.99
4/24/2022 1:45:00 AM -99999.99 -179968 -99999.99 -99999.99 -99999.99 -99999.99
4/24/2022 2:00:00 AM -99999.99 -179968 -99999.99 -99999.99 -99999.99 -99999.99
4/24/2022 2:15:00 AM -99999.99 -179968 -99999.99 -99999.99 -99999.99 -99999.99
4/24/2022 2:30:00 AM -99999.99 -179968 -99999.99 -99999.99 -99999.99 -99999.99
4/24/2022 2:45:00 AM -99999.99 -179968 -99999.99 -99999.99 -99999.99 -99999.99
4/24/2022 3:00:00 AM -99999.99 -179968 -99999.99 -99999.99 -99999.99 -99999.99
4/24/2022 3:15:00 AM -99999.99 -179968 -99999.99 -99999.99 -99999.99 -99999.99
4/24/2022 3:30:00 AM -99999.99 -179968 -99999.99 -99999.99 -99999.99 -99999.99
4/24/2022 3:45:00 AM -99999.99 -179968 -99999.99 -99999.99 -99999.99 -99999.99
4/24/2022 4:00:00 AM -99999.99 -179968 -99999.99 -99999.99 -99999.99 -99999.99
4/24/2022 4:15:00 AM -99999.99 -179968 -99999.99 -99999.99 -99999.99 -99999.99
4/24/2022 4:30:00 AM -99999.99 -179968 -99999.99 -99999.99 -99999.99 -99999.99
4/24/2022 4:45:00 AM -99999.99 -179968 -99999.99 -99999.99 -99999.99 -99999.99
4/24/2022 5:00:00 AM -99999.99 -179968 -99999.99 -99999.99 -99999.99 -99999.99
4/24/2022 5:15:00 AM -99999.99 -179968 -99999.99 -99999.99 -99999.99 -99999.99
4/24/2022 5:30:00 AM -99999.99 -179968 -99999.99 -99999.99 -99999.99 -99999.99
4/24/2022 5:45:00 AM -99999.99 -179968 -99999.99 -99999.99 -99999.99 -99999.99
4/24/2022 6:00:00 AM -99999.99 -179968 -99999.99 -99999.99 -99999.99 -99999.99
4/24/2022 6:15:00 AM -99999.99 -179968 -99999.99 -99999.99 -99999.99 -99999.99
4/24/2022 6:30:00 AM -99999.99 -179968 -99999.99 -99999.99 -99999.99 -99999.99
4/24/2022 6:45:00 AM -99999.99 -179968 -99999.99 -99999.99 -99999.99 -99999.99
4/24/2022 7:00:00 AM -99999.99 -179968 -99999.99 -99999.99 -99999.99 -99999.99
4/24/2022 7:15:00 AM -99999.99 -179968 -99999.99 -99999.99 -99999.99 -99999.99
4/24/2022 7:30:00 AM -99999.99 -179968 -99999.99 -99999.99 -99999.99 -99999.99
4/24/2022 7:45:00 AM -99999.99 -179968 -99999.99 -99999.99 -99999.99 -99999.99
4/24/2022 8:00:00 AM -99999.99 -179968 -99999.99 -99999.99 -99999.99 -99999.99
4/24/2022 8:15:00 AM -99999.99 -179968 -99999.99 -99999.99 -99999.99 -99999.99
4/24/2022 8:30:00 AM -99999.99 -179968 -99999.99 -99999.99 -99999.99 -99999.99
4/24/2022 8:45:00 AM -99999.99 -179968 -99999.99 -99999.99 -99999.99 -99999.99
4/24/2022 9:00:00 AM -99999.99 -179968 -99999.99 -99999.99 -99999.99 -99999.99
4/24/2022 9:15:00 AM -99999.99 -179968 -99999.99 -99999.99 -99999.99 -99999.99
4/24/2022 9:30:00 AM -99999.99 -179968 -99999.99 -99999.99 -99999.99 -99999.99
4/24/2022 9:45:00 AM -99999.99 -179968 -99999.99 -99999.99 -99999.99 -99999.99
4/24/2022 10:00:00 AM -99999.99 -179968 -99999.99 -99999.99 -99999.99 -99999.99
4/24/2022 10:15:00 AM -99999.99 -179968 -99999.99 -99999.99 -99999.99 -99999.99
4/24/2022 10:30:00 AM -99999.99 -179968 -99999.99 -99999.99 -99999.99 -99999.99
4/24/2022 10:45:00 AM -99999.99 -179968 -99999.99 -99999.99 -99999.99 -99999.99
4/24/2022 11:00:00 AM -99999.99 -179968 -99999.99 -99999.99 -99999.99 -99999.99
4/24/2022 11:15:00 AM -99999.99 -179968 -99999.99 -99999.99 -99999.99 -99999.99
4/24/2022 11:30:00 AM -99999.99 -179968 -99999.99 -99999.99 -99999.99 -99999.99
4/24/2022 11:45:00 AM -99999.99 -179968 -99999.99 -99999.99 -99999.99 -99999.99
4/24/2022 12:00:00 PM -99999.99 -179968 -99999.99 -99999.99 -99999.99 -99999.99
4/24/2022 12:15:00 PM -99999.99 -179968 -99999.99 -99999.99 -99999.99 -99999.99
4/24/2022 12:30:00 PM -99999.99 -179968 -99999.99 -99999.99 -99999.99 -99999.99
4/24/2022 12:45:00 PM -99999.99 -179968 -99999.99 -99999.99 -99999.99 -99999.99
4/24/2022 1:00:00 PM -99999.99 -179968 -99999.99 -99999.99 -99999.99 -99999.99
4/24/2022 1:15:00 PM -99999.99 -179968 -99999.99 -99999.99 -99999.99 -99999.99
4/24/2022 1:30:00 PM -99999.99 -179968 -99999.99 -99999.99 -99999.99 -99999.99
4/24/2022 1:45:00 PM -99999.99 -179968 -99999.99 -99999.99 -99999.99 -99999.99
4/24/2022 2:00:00 PM -99999.99 -179968 -99999.99 -99999.99 -99999.99 -99999.99
4/24/2022 2:15:00 PM -99999.99 -179968 -99999.99 -99999.99 -99999.99 -99999.99
4/24/2022 2:30:00 PM -99999.99 -179968 -99999.99 -99999.99 -99999.99 -99999.99
4/24/2022 2:45:00 PM -99999.99 -179968 -99999.99 -99999.99 -99999.99 -99999.99
4/24/2022 3:00:00 PM -99999.99 -179968 -99999.99 -99999.99 -99999.99 -99999.99
4/24/2022 3:15:00 PM -99999.99 -179968 -99999.99 -99999.99 -99999.99 -99999.99
4/24/2022 3:30:00 PM -99999.99 -179968 -99999.99 -99999.99 -99999.99 -99999.99
4/24/2022 3:45:00 PM -99999.99 -179968 -99999.99 -99999.99 -99999.99 -99999.99
4/24/2022 4:00:00 PM -99999.99 -179968 -99999.99 -99999.99 -99999.99 -99999.99
4/24/2022 4:15:00 PM -99999.99 -179968 -99999.99 -99999.99 -99999.99 -99999.99
4/24/2022 4:30:00 PM -99999.99 -179968 -99999.99 -99999.99 -99999.99 -99999.99
4/24/2022 4:45:00 PM -99999.99 -179968 -99999.99 -99999.99 -99999.99 -99999.99
4/24/2022 5:00:00 PM -99999.99 -179968 -99999.99 -99999.99 -99999.99 -99999.99
4/24/2022 5:15:00 PM -99999.99 -179968 -99999.99 -99999.99 -99999.99 -99999.99
4/24/2022 5:30:00 PM -99999.99 -179968 -99999.99 -99999.99 -99999.99 -99999.99
4/24/2022 5:45:00 PM -99999.99 -179968 -99999.99 -99999.99 -99999.99 -99999.99
4/24/2022 6:00:00 PM -99999.99 -179968 -99999.99 -99999.99 -99999.99 -99999.99
4/24/2022 6:15:00 PM -99999.99 -179968 -99999.99 -99999.99 -99999.99 -99999.99
4/24/2022 6:30:00 PM -99999.99 -179968 -99999.99 -99999.99 -99999.99 -99999.99
4/24/2022 6:45:00 PM -99999.99 -179968 -99999.99 -99999.99 -99999.99 -99999.99
4/24/2022 7:00:00 PM -99999.99 -179968 -99999.99 -99999.99 -99999.99 -99999.99
4/24/2022 7:15:00 PM -99999.99 -179968 -99999.99 -99999.99 -99999.99 -99999.99
4/24/2022 7:30:00 PM -99999.99 -179968 -99999.99 -99999.99 -99999.99 -99999.99
4/24/2022 7:45:00 PM -99999.99 -179968 -99999.99 -99999.99 -99999.99 -99999.99
4/24/2022 8:00:00 PM -99999.99 -179968 -99999.99 -99999.99 -99999.99 -99999.99
4/24/2022 8:15:00 PM -99999.99 -179968 -99999.99 -99999.99 -99999.99 -99999.99
4/24/2022 8:30:00 PM -99999.99 -179968 -99999.99 -99999.99 -99999.99 -99999.99
4/24/2022 8:45:00 PM -99999.99 -179968 -99999.99 -99999.99 -99999.99 -99999.99
4/24/2022 9:00:00 PM -99999.99 -179968 -99999.99 -99999.99 -99999.99 -99999.99
4/24/2022 9:15:00 PM -99999.99 -179968 -99999.99 -99999.99 -99999.99 -99999.99
4/24/2022 9:30:00 PM -99999.99 -179968 -99999.99 -99999.99 -99999.99 -99999.99
4/24/2022 9:45:00 PM -99999.99 -179968 -99999.99 -99999.99 -99999.99 -99999.99
4/24/2022 10:00:00 PM -99999.99 -179968 -99999.99 -99999.99 -99999.99 -99999.99
4/24/2022 10:15:00 PM -99999.99 -179968 -99999.99 -99999.99 -99999.99 -99999.99
4/24/2022 10:30:00 PM -99999.99 -179968 -99999.99 -99999.99 -99999.99 -99999.99
4/24/2022 10:45:00 PM -99999.99 -179968 -99999.99 -99999.99 -99999.99 -99999.99
4/24/2022 11:00:00 PM -99999.99 -179968 -99999.99 -99999.99 -99999.99 -99999.99
4/24/2022 11:15:00 PM -99999.99 -179968 -99999.99 -99999.99 -99999.99 -99999.99
4/24/2022 11:30:00 PM -99999.99 -179968 -99999.99 -99999.99 -99999.99 -99999.99
4/24/2022 11:45:00 PM -99999.99 -179968 -99999.99 -99999.99 -99999.99 -99999.99
4/25/2022 12:00:00 AM -99999.99 -179968 -99999.99 -99999.99 -99999.99 -99999.99
4/25/2022 12:15:00 AM -99999.99 -179968 -99999.99 -99999.99 -99999.99 -99999.99
4/25/2022 12:30:00 AM -99999.99 -179968 -99999.99 -99999.99 -99999.99 -99999.99
4/25/2022 12:45:00 AM -99999.99 -179968 -99999.99 -99999.99 -99999.99 -99999.99
4/25/2022 1:00:00 AM -99999.99 -179968 -99999.99 -99999.99 -99999.99 -99999.99
4/25/2022 1:15:00 AM -99999.99 -179968 -99999.99 -99999.99 -99999.99 -99999.99
4/25/2022 1:30:00 AM -99999.99 -179968 -99999.99 -99999.99 -99999.99 -99999.99
4/25/2022 1:45:00 AM -99999.99 -179968 -99999.99 -99999.99 -99999.99 -99999.99
4/25/2022 2:00:00 AM -99999.99 -179968 -99999.99 -99999.99 -99999.99 -99999.99
4/25/2022 2:15:00 AM -99999.99 -179968 -99999.99 -99999.99 -99999.99 -99999.99
4/25/2022 2:30:00 AM -99999.99 -179968 -99999.99 -99999.99 -99999.99 -99999.99
4/25/2022 2:45:00 AM -99999.99 -179968 -99999.99 -99999.99 -99999.99 -99999.99
4/25/2022 3:00:00 AM -99999.99 -179968 -99999.99 -99999.99 -99999.99 -99999.99
4/25/2022 3:15:00 AM -99999.99 -179968 -99999.99 -99999.99 -99999.99 -99999.99
4/25/2022 3:30:00 AM -99999.99 -179968 -99999.99 -99999.99 -99999.99 -99999.99
4/25/2022 3:45:00 AM -99999.99 -179968 -99999.99 -99999.99 -99999.99 -99999.99
4/25/2022 4:00:00 AM -99999.99 -179968 -99999.99 -99999.99 -99999.99 -99999.99
4/25/2022 4:15:00 AM -99999.99 -179968 -99999.99 -99999.99 -99999.99 -99999.99
4/25/2022 4:30:00 AM -99999.99 -179968 -99999.99 -99999.99 -99999.99 -99999.99
4/25/2022 4:45:00 AM -99999.99 -179968 -99999.99 -99999.99 -99999.99 -99999.99
4/25/2022 5:00:00 AM -99999.99 -179968 -99999.99 -99999.99 -99999.99 -99999.99
4/25/2022 5:15:00 AM -99999.99 -179968 -99999.99 -99999.99 -99999.99 -99999.99
4/25/2022 5:30:00 AM -99999.99 -179968 -99999.99 -99999.99 -99999.99 -99999.99
4/25/2022 5:45:00 AM -99999.99 -179968 -99999.99 -99999.99 -99999.99 -99999.99
4/25/2022 6:00:00 AM -99999.99 -179968 -99999.99 -99999.99 -99999.99 -99999.99
4/25/2022 6:15:00 AM -99999.99 -179968 -99999.99 -99999.99 -99999.99 -99999.99
4/25/2022 6:30:00 AM -99999.99 -179968 -99999.99 -99999.99 -99999.99 -99999.99
4/25/2022 6:45:00 AM -99999.99 -179968 -99999.99 -99999.99 -99999.99 -99999.99
4/25/2022 7:00:00 AM -99999.99 -179968 -99999.99 -99999.99 -99999.99 -99999.99
4/25/2022 7:15:00 AM -99999.99 -179968 -99999.99 -99999.99 -99999.99 -99999.99
4/25/2022 7:30:00 AM -99999.99 -179968 -99999.99 -99999.99 -99999.99 -99999.99
4/25/2022 7:45:00 AM -99999.99 -179968 -99999.99 -99999.99 -99999.99 -99999.99
4/25/2022 8:00:00 AM -99999.99 -179968 -99999.99 -99999.99 -99999.99 -99999.99
4/25/2022 8:15:00 AM -99999.99 -179968 -99999.99 -99999.99 -99999.99 -99999.99
4/25/2022 8:30:00 AM -99999.99 -179968 -99999.99 -99999.99 -99999.99 -99999.99
4/25/2022 8:45:00 AM -99999.99 -179968 -99999.99 -99999.99 -99999.99 -99999.99
4/25/2022 9:00:00 AM -99999.99 -179968 -99999.99 -99999.99 -99999.99 -99999.99
4/25/2022 9:15:00 AM -99999.99 -179968 -99999.99 -99999.99 -99999.99 -99999.99
4/25/2022 9:30:00 AM -99999.99 -179968 -99999.99 -99999.99 -99999.99 -99999.99
4/25/2022 9:45:00 AM -99999.99 -179968 -99999.99 -99999.99 -99999.99 -99999.99
4/25/2022 10:00:00 AM -99999.99 -179968 -99999.99 -99999.99 -99999.99 -99999.99
4/25/2022 10:15:00 AM -99999.99 -179968 -99999.99 -99999.99 -99999.99 -99999.99
4/25/2022 10:30:00 AM -99999.99 -179968 -99999.99 -99999.99 -99999.99 -99999.99
4/25/2022 10:45:00 AM -99999.99 -179968 -99999.99 -99999.99 -99999.99 -99999.99
4/25/2022 11:00:00 AM -99999.99 -179968 -99999.99 -99999.99 -99999.99 -99999.99
4/25/2022 11:15:00 AM -99999.99 -179968 -99999.99 -99999.99 -99999.99 -99999.99
4/25/2022 11:30:00 AM -99999.99 -179968 -99999.99 -99999.99 -99999.99 -99999.99
4/25/2022 11:45:00 AM -99999.99 -179968 -99999.99 -99999.99 -99999.99 -99999.99
4/25/2022 12:00:00 PM -99999.99 -179968 -99999.99 -99999.99 -99999.99 -99999.99
4/25/2022 12:15:00 PM -99999.99 -179968 -99999.99 -99999.99 -99999.99 -99999.99
4/25/2022 12:30:00 PM -99999.99 -179968 -99999.99 -99999.99 -99999.99 -99999.99
4/25/2022 12:45:00 PM -99999.99 -179968 -99999.99 -99999.99 -99999.99 -99999.99
4/25/2022 1:00:00 PM -99999.99 -179968 -99999.99 -99999.99 -99999.99 -99999.99
4/25/2022 1:15:00 PM -99999.99 -179968 -99999.99 -99999.99 -99999.99 -99999.99
4/25/2022 1:30:00 PM -99999.99 -179968 -99999.99 -99999.99 -99999.99 -99999.99
4/25/2022 1:45:00 PM -99999.99 -179968 -99999.99 -99999.99 -99999.99 -99999.99
4/25/2022 2:00:00 PM -99999.99 -179968 -99999.99 -99999.99 -99999.99 -99999.99
4/25/2022 2:15:00 PM -99999.99 -179968 -99999.99 -99999.99 -99999.99 -99999.99
4/25/2022 2:30:00 PM -99999.99 -179968 -99999.99 -99999.99 -99999.99 -99999.99
4/25/2022 2:45:00 PM -99999.99 -179968 -99999.99 -99999.99 -99999.99 -99999.99
4/25/2022 3:00:00 PM -99999.99 -179968 -99999.99 -99999.99 -99999.99 -99999.99
4/25/2022 3:15:00 PM -99999.99 -179968 -99999.99 -99999.99 -99999.99 -99999.99
4/25/2022 3:30:00 PM -99999.99 -179968 -99999.99 -99999.99 -99999.99 -99999.99
4/25/2022 3:45:00 PM -99999.99 -179968 -99999.99 -99999.99 -99999.99 -99999.99
4/25/2022 4:00:00 PM -99999.99 -179968 -99999.99 -99999.99 -99999.99 -99999.99
4/25/2022 4:15:00 PM -99999.99 -179968 -99999.99 -99999.99 -99999.99 -99999.99
4/25/2022 4:30:00 PM -99999.99 -179968 -99999.99 -99999.99 -99999.99 -99999.99
4/25/2022 4:45:00 PM -99999.99 -179968 -99999.99 -99999.99 -99999.99 -99999.99
4/25/2022 5:00:00 PM -99999.99 -179968 -99999.99 -99999.99 -99999.99 -99999.99
4/25/2022 5:15:00 PM -99999.99 -179968 -99999.99 -99999.99 -99999.99 -99999.99
4/25/2022 5:30:00 PM -99999.99 -179968 -99999.99 -99999.99 -99999.99 -99999.99
4/25/2022 5:45:00 PM -99999.99 -179968 -99999.99 -99999.99 -99999.99 -99999.99
4/25/2022 6:00:00 PM -99999.99 -179968 -99999.99 -99999.99 -99999.99 -99999.99
4/25/2022 6:15:00 PM -99999.99 -179968 -99999.99 -99999.99 -99999.99 -99999.99
4/25/2022 6:30:00 PM -99999.99 -179968 -99999.99 -99999.99 -99999.99 -99999.99
4/25/2022 6:45:00 PM -99999.99 -179968 -99999.99 -99999.99 -99999.99 -99999.99
4/25/2022 7:00:00 PM -99999.99 -179968 -99999.99 -99999.99 -99999.99 -99999.99
4/25/2022 7:15:00 PM -99999.99 -179968 -99999.99 -99999.99 -99999.99 -99999.99
4/25/2022 7:30:00 PM -99999.99 -179968 -99999.99 -99999.99 -99999.99 -99999.99
4/25/2022 7:45:00 PM -99999.99 -179968 -99999.99 -99999.99 -99999.99 -99999.99
4/25/2022 8:00:00 PM -99999.99 -179968 -99999.99 -99999.99 -99999.99 -99999.99
4/25/2022 8:15:00 PM -99999.99 -179968 -99999.99 -99999.99 -99999.99 -99999.99
4/25/2022 8:30:00 PM -99999.99 -179968 -99999.99 -99999.99 -99999.99 -99999.99
4/25/2022 8:45:00 PM -99999.99 -179968 -99999.99 -99999.99 -99999.99 -99999.99
4/25/2022 9:00:00 PM -99999.99 -179968 -99999.99 -99999.99 -99999.99 -99999.99
4/25/2022 9:15:00 PM -99999.99 -179968 -99999.99 -99999.99 -99999.99 -99999.99
4/25/2022 9:30:00 PM -99999.99 -179968 -99999.99 -99999.99 -99999.99 -99999.99
4/25/2022 9:45:00 PM -99999.99 -179968 -99999.99 -99999.99 -99999.99 -99999.99
4/25/2022 10:00:00 PM -99999.99 -179968 -99999.99 -99999.99 -99999.99 -99999.99
4/25/2022 10:15:00 PM -99999.99 -179968 -99999.99 -99999.99 -99999.99 -99999.99
4/25/2022 10:30:00 PM -99999.99 -179968 -99999.99 -99999.99 -99999.99 -99999.99
4/25/2022 10:45:00 PM -99999.99 -179968 -99999.99 -99999.99 -99999.99 -99999.99
4/25/2022 11:00:00 PM -99999.99 -179968 -99999.99 -99999.99 -99999.99 -99999.99
4/25/2022 11:15:00 PM -99999.99 -179968 -99999.99 -99999.99 -99999.99 -99999.99
4/25/2022 11:30:00 PM -99999.99 -179968 -99999.99 -99999.99 -99999.99 -99999.99
4/25/2022 11:45:00 PM -99999.99 -179968 -99999.99 -99999.99 -99999.99 -99999.99
4/26/2022 12:00:00 AM -99999.99 -179968 -99999.99 -99999.99 -99999.99 -99999.99
4/26/2022 12:15:00 AM -99999.99 -179968 -99999.99 -99999.99 -99999.99 -99999.99
4/26/2022 12:30:00 AM -99999.99 -179968 -99999.99 -99999.99 -99999.99 -99999.99
4/26/2022 12:45:00 AM -99999.99 -179968 -99999.99 -99999.99 -99999.99 -99999.99
4/26/2022 1:00:00 AM -99999.99 -179968 -99999.99 -99999.99 -99999.99 -99999.99
4/26/2022 1:15:00 AM -99999.99 -179968 -99999.99 -99999.99 -99999.99 -99999.99
4/26/2022 1:30:00 AM -99999.99 -179968 -99999.99 -99999.99 -99999.99 -99999.99
4/26/2022 1:45:00 AM -99999.99 -179968 -99999.99 -99999.99 -99999.99 -99999.99
4/26/2022 2:00:00 AM -99999.99 -179968 -99999.99 -99999.99 -99999.99 -99999.99
4/26/2022 2:15:00 AM -99999.99 -179968 -99999.99 -99999.99 -99999.99 -99999.99
4/26/2022 2:30:00 AM -99999.99 -179968 -99999.99 -99999.99 -99999.99 -99999.99
4/26/2022 2:45:00 AM -99999.99 -179968 -99999.99 -99999.99 -99999.99 -99999.99
4/26/2022 3:00:00 AM -99999.99 -179968 -99999.99 -99999.99 -99999.99 -99999.99
4/26/2022 3:15:00 AM -99999.99 -179968 -99999.99 -99999.99 -99999.99 -99999.99
4/26/2022 3:30:00 AM -99999.99 -179968 -99999.99 -99999.99 -99999.99 -99999.99
4/26/2022 3:45:00 AM -99999.99 -179968 -99999.99 -99999.99 -99999.99 -99999.99
4/26/2022 4:00:00 AM -99999.99 -179968 -99999.99 -99999.99 -99999.99 -99999.99
4/26/2022 4:15:00 AM -99999.99 -179968 -99999.99 -99999.99 -99999.99 -99999.99
4/26/2022 4:30:00 AM -99999.99 -179968 -99999.99 -99999.99 -99999.99 -99999.99
4/26/2022 4:45:00 AM -99999.99 -179968 -99999.99 -99999.99 -99999.99 -99999.99
4/26/2022 5:00:00 AM -99999.99 -179968 -99999.99 -99999.99 -99999.99 -99999.99
4/26/2022 5:15:00 AM -99999.99 -179968 -99999.99 -99999.99 -99999.99 -99999.99
4/26/2022 5:30:00 AM -99999.99 -179968 -99999.99 -99999.99 -99999.99 -99999.99
4/26/2022 5:45:00 AM -99999.99 -179968 -99999.99 -99999.99 -99999.99 -99999.99
4/26/2022 6:00:00 AM -99999.99 -179968 -99999.99 -99999.99 -99999.99 -99999.99
4/26/2022 6:15:00 AM -99999.99 -179968 -99999.99 -99999.99 -99999.99 -99999.99
4/26/2022 6:30:00 AM -99999.99 -179968 -99999.99 -99999.99 -99999.99 -99999.99
4/26/2022 6:45:00 AM -99999.99 -179968 -99999.99 -99999.99 -99999.99 -99999.99
4/26/2022 7:00:00 AM -99999.99 -179968 -99999.99 -99999.99 -99999.99 -99999.99
4/26/2022 7:15:00 AM -99999.99 -179968 -99999.99 -99999.99 -99999.99 -99999.99
4/26/2022 7:30:00 AM -99999.99 -179968 -99999.99 -99999.99 -99999.99 -99999.99
4/26/2022 7:45:00 AM -99999.99 -179968 -99999.99 -99999.99 -99999.99 -99999.99
4/26/2022 8:00:00 AM -99999.99 -179968 -99999.99 -99999.99 -99999.99 -99999.99
4/26/2022 8:15:00 AM -99999.99 -179968 -99999.99 -99999.99 -99999.99 -99999.99
4/26/2022 8:30:00 AM -99999.99 -179968 -99999.99 -99999.99 -99999.99 -99999.99
4/26/2022 8:45:00 AM -99999.99 -179968 -99999.99 -99999.99 -99999.99 -99999.99
4/26/2022 9:00:00 AM -99999.99 -179968 -99999.99 -99999.99 -99999.99 -99999.99
4/26/2022 9:15:00 AM -99999.99 -179968 -99999.99 -99999.99 -99999.99 -99999.99
4/26/2022 9:30:00 AM -99999.99 -179968 -99999.99 -99999.99 -99999.99 -99999.99
4/26/2022 9:45:00 AM -99999.99 -179968 -99999.99 -99999.99 -99999.99 -99999.99
4/26/2022 10:00:00 AM -99999.99 -179968 -99999.99 -99999.99 -99999.99 -99999.99
4/26/2022 10:15:00 AM -99999.99 -179968 -99999.99 -99999.99 -99999.99 -99999.99
4/26/2022 10:30:00 AM -99999.99 -179968 -99999.99 -99999.99 -99999.99 -99999.99
4/26/2022 10:45:00 AM -99999.99 -179968 -99999.99 -99999.99 -99999.99 -99999.99
4/26/2022 11:00:00 AM -99999.99 -179968 -99999.99 -99999.99 -99999.99 -99999.99
4/26/2022 11:15:00 AM -99999.99 -179968 -99999.99 -99999.99 -99999.99 -99999.99
4/26/2022 11:30:00 AM -99999.99 -179968 -99999.99 -99999.99 -99999.99 -99999.99
4/26/2022 11:45:00 AM -99999.99 -179968 -99999.99 -99999.99 -99999.99 -99999.99
4/26/2022 12:00:00 PM 11.43 52.574 0.114 7.39 7.79 10.73
4/26/2022 12:15:00 PM 11.44 52.592 0.114 7.4 2.64 10.74
4/26/2022 12:30:00 PM 11.47 52.646 0.114 7.42 19.12 10.78
4/26/2022 12:45:00 PM 11.53 52.754 0.114 7.43 2.81 10.82
4/26/2022 1:00:00 PM 11.57 52.826 0.114 7.41 2.9 10.82
4/26/2022 1:15:00 PM 11.57 52.826 0.114 7.42 2.76 10.8
4/26/2022 1:30:00 PM 11.59 52.862 0.114 7.42 2.94 10.79
4/26/2022 1:45:00 PM 11.62 52.916 0.114 7.44 2.65 10.81
4/26/2022 2:00:00 PM 11.64 52.952 0.114 7.44 2.71 10.81
4/26/2022 2:15:00 PM 11.65 52.97 0.114 7.44 2.73 10.81
4/26/2022 2:30:00 PM 11.65 52.97 0.114 7.44 2.81 10.77
4/26/2022 2:45:00 PM 11.63 52.934 0.114 7.42 2.67 10.71
4/26/2022 3:00:00 PM 11.62 52.916 0.106 7.41 2.79 10.66
4/26/2022 3:15:00 PM 11.6 52.88 0.114 7.4 2.75 10.63
4/26/2022 3:30:00 PM 11.6 52.88 0.114 7.41 2.72 10.65
4/26/2022 3:45:00 PM 11.61 52.898 0.114 7.42 2.51 10.69
4/26/2022 4:00:00 PM 11.62 52.916 0.114 7.42 2.94 10.71
4/26/2022 4:15:00 PM 11.61 52.898 0.114 7.41 2.87 10.67
4/26/2022 4:30:00 PM 11.58 52.844 0.114 7.4 2.72 10.62
4/26/2022 4:45:00 PM 11.56 52.808 0.114 7.4 2.81 10.6
4/26/2022 5:00:00 PM 11.54 52.772 0.114 7.39 2.7 10.59
4/26/2022 5:15:00 PM 11.52 52.736 0.114 7.38 2.7 10.56
4/26/2022 5:30:00 PM 11.49 52.682 0.114 7.37 2.88 10.53
4/26/2022 5:45:00 PM 11.46 52.628 0.114 7.36 2.79 10.47
4/26/2022 6:00:00 PM 11.43 52.574 0.114 7.35 2.91 10.44
4/26/2022 6:15:00 PM 11.39 52.502 0.114 7.34 2.87 10.39
4/26/2022 6:30:00 PM 11.35 52.43 0.114 7.32 2.81 10.36
4/26/2022 6:45:00 PM 11.3 52.34 0.114 7.31 2.81 10.32
4/26/2022 7:00:00 PM 11.26 52.268 0.114 7.3 2.72 10.3
4/26/2022 7:15:00 PM 11.22 52.196 0.114 7.3 2.85 10.28
4/26/2022 7:30:00 PM 11.17 52.106 0.114 7.29 2.9 10.26
4/26/2022 7:45:00 PM 11.12 52.016 0.114 7.28 3.23 10.23
4/26/2022 8:00:00 PM 11.07 51.926 0.114 7.27 4.13 10.22
4/26/2022 8:15:00 PM 11.02 51.836 0.114 7.27 4.39 10.21
4/26/2022 8:30:00 PM 10.95 51.71 0.114 7.26 4.85 10.21
4/26/2022 8:45:00 PM 10.89 51.602 0.114 7.26 3.43 10.2
4/26/2022 9:00:00 PM 10.84 51.512 0.115 7.26 3.43 10.21
4/26/2022 9:15:00 PM 10.79 51.422 0.114 7.26 3.1 10.22
4/26/2022 9:30:00 PM 10.73 51.314 0.114 7.26 3.43 10.23
4/26/2022 9:45:00 PM 10.68 51.224 0.114 7.26 4.37 10.25
4/26/2022 10:00:00 PM 10.62 51.116 0.114 7.25 3.13 10.25
4/26/2022 10:15:00 PM 10.57 51.026 0.114 7.26 3.21 10.27
4/26/2022 10:30:00 PM 10.53 50.954 0.114 7.25 3.82 10.29
4/26/2022 10:45:00 PM 10.48 50.864 0.114 7.25 3.36 10.29
4/26/2022 11:00:00 PM 10.43 50.774 0.114 7.25 3.22 10.31
4/26/2022 11:15:00 PM 10.38 50.684 0.114 7.26 3.38 10.32
4/26/2022 11:30:00 PM 10.32 50.576 0.114 7.26 3.49 10.33
4/26/2022 11:45:00 PM 10.26 50.468 0.114 7.26 4.61 10.36
4/27/2022 12:00:00 AM 10.2 50.36 0.113 7.26 3.72 10.38
4/27/2022 12:15:00 AM 10.15 50.27 0.113 7.26 3.66 10.39
4/27/2022 12:30:00 AM 10.09 50.162 0.113 7.26 3.38 10.41
4/27/2022 12:45:00 AM 10.01 50.018 0.113 7.26 3.79 10.42
4/27/2022 1:00:00 AM 9.93 49.874 0.113 7.26 3.24 10.44
4/27/2022 1:15:00 AM 9.85 49.73 0.112 7.26 3.58 10.46
4/27/2022 1:30:00 AM 9.77 49.586 0.112 7.26 3.66 10.48
4/27/2022 1:45:00 AM 9.67 49.406 0.112 7.26 4.51 10.5
4/27/2022 2:00:00 AM 9.58 49.244 0.112 7.26 5.86 10.52
4/27/2022 2:15:00 AM 9.5 49.1 0.112 7.26 64.26 10.54
4/27/2022 2:30:00 AM 9.42 48.956 0.112 7.26 3.5 10.56
4/27/2022 2:45:00 AM 9.34 48.812 0.111 7.26 3.71 10.58
4/27/2022 3:00:00 AM 9.26 48.668 0.111 7.25 3.38 10.6
4/27/2022 3:15:00 AM 9.18 48.524 0.111 7.25 3.77 10.62
4/27/2022 3:30:00 AM 9.1 48.38 0.111 7.25 3.61 10.64
4/27/2022 3:45:00 AM 9.02 48.236 0.111 7.25 3.3 10.65
4/27/2022 4:00:00 AM 8.94 48.092 0.111 7.25 3.6 10.67
4/27/2022 4:15:00 AM 8.87 47.966 0.111 7.24 3.61 10.69
4/27/2022 4:30:00 AM 8.81 47.858 0.111 7.24 4.22 10.71
4/27/2022 4:45:00 AM 8.75 47.75 0.111 7.24 3.7 10.73
4/27/2022 5:00:00 AM 8.69 47.642 0.111 7.24 3.41 10.74
4/27/2022 5:15:00 AM 8.62 47.516 0.111 7.25 3.74 10.76
4/27/2022 5:30:00 AM 8.55 47.39 0.111 7.24 3.88 10.77
4/27/2022 5:45:00 AM 8.47 47.246 0.111 7.24 3.73 10.8
4/27/2022 6:00:00 AM 8.4 47.12 0.111 7.25 3.73 10.81
4/27/2022 6:15:00 AM 8.33 46.994 0.111 7.25 3.45 10.85
4/27/2022 6:30:00 AM 8.26 46.868 0.111 7.25 4.08 10.89
4/27/2022 6:45:00 AM 8.21 46.778 0.111 7.26 3.27 10.97
4/27/2022 7:00:00 AM 8.16 46.688 0.111 7.28 3.35 11.04
4/27/2022 7:15:00 AM 8.13 46.634 0.111 7.3 3.18 11.15
4/27/2022 7:30:00 AM 8.11 46.598 0.111 7.32 3.1 11.23
4/27/2022 7:45:00 AM 8.1 46.58 0.111 7.33 3.54 11.31
4/27/2022 8:00:00 AM 8.08 46.544 0.111 7.35 3.21 11.37
4/27/2022 8:15:00 AM 8.14 46.652 0.111 7.36 3.09 11.44
4/27/2022 8:30:00 AM 8.19 46.742 0.111 7.38 24.81 11.5
4/27/2022 8:45:00 AM 8.27 46.886 0.111 7.4 3.1 11.56
4/27/2022 9:00:00 AM 8.38 47.084 0.111 7.42 3.1 11.6
4/27/2022 9:15:00 AM 8.43 47.174 0.111 7.44 3.01 11.63
4/27/2022 9:30:00 AM 8.49 47.282 0.111 7.47 3.15 11.67
4/27/2022 9:45:00 AM 8.61 47.498 0.111 7.48 2.84 11.7
4/27/2022 10:00:00 AM 8.74 47.732 0.111 7.49 2.82 11.7
4/27/2022 10:15:00 AM 8.84 47.912 0.111 7.51 2.74 11.7
4/27/2022 10:30:00 AM 8.94 48.092 0.111 7.51 2.74 11.68
4/27/2022 10:45:00 AM 9.09 48.362 0.111 7.53 2.94 11.68
4/27/2022 11:00:00 AM 9.14 48.452 0.111 7.54 4.09 11.66
4/27/2022 11:15:00 AM 9.18 48.524 0.111 7.51 2.88 11.65
4/27/2022 11:30:00 AM 9.16 48.488 0.111 7.5 2.59 11.6
4/27/2022 11:45:00 AM 9.16 48.488 0.111 7.52 2.66 11.58
4/27/2022 12:00:00 PM 9.26 48.668 0.111 7.51 2.62 11.55
4/27/2022 12:15:00 PM 9.32 48.776 0.111 7.52 2.51 11.56
4/27/2022 12:30:00 PM 9.34 48.812 0.111 7.51 2.58 11.54
4/27/2022 12:45:00 PM 9.34 48.812 0.111 7.53 2.65 11.56
4/27/2022 1:00:00 PM 9.28 48.704 0.112 7.52 2.57 11.54
4/27/2022 1:15:00 PM 9.22 48.596 0.112 7.51 2.64 11.54
4/27/2022 1:30:00 PM 9.24 48.632 0.112 7.58 2.45 11.58
4/27/2022 1:45:00 PM 9.53 49.154 0.112 7.58 2.57 11.59
4/27/2022 2:00:00 PM 9.93 49.874 0.112 7.61 2.32 11.58
4/27/2022 2:15:00 PM 10.08 50.144 0.112 7.55 2.69 11.52
4/27/2022 2:30:00 PM 10.05 50.09 0.112 7.52 2.5 11.43
4/27/2022 2:45:00 PM 10 50 0.112 7.55 2.38 11.44
4/27/2022 3:00:00 PM 9.97 49.946 0.112 7.56 2.39 11.45
4/27/2022 3:15:00 PM 9.88 49.784 0.112 7.53 2.68 11.41
4/27/2022 3:30:00 PM 9.76 49.568 0.112 7.52 2.7 11.4
4/27/2022 3:45:00 PM 9.7 49.46 0.112 7.52 17.59 11.4
4/27/2022 4:00:00 PM 9.63 49.334 0.112 7.51 2.32 11.4
4/27/2022 4:15:00 PM 9.56 49.208 0.113 7.52 2.47 11.39
4/27/2022 4:30:00 PM 9.52 49.136 0.113 7.51 2.46 11.4
4/27/2022 4:45:00 PM 9.45 49.01 0.113 7.52 2.72 11.42
4/27/2022 5:00:00 PM 9.4 48.92 0.113 7.51 2.52 11.43
4/27/2022 5:15:00 PM 9.3 48.74 0.113 7.49 2.62 11.4
4/27/2022 5:30:00 PM 9.21 48.578 0.113 7.49 2.44 11.39
4/27/2022 5:45:00 PM 9.13 48.434 0.113 7.48 2.82 11.37
4/27/2022 6:00:00 PM 9.05 48.29 0.113 7.46 2.53 11.37
4/27/2022 6:15:00 PM 8.96 48.128 0.114 7.45 34.27 11.33
4/27/2022 6:30:00 PM 8.85 47.93 0.114 7.43 2.59 11.28
4/27/2022 6:45:00 PM 8.77 47.786 0.114 7.42 2.43 11.25
4/27/2022 7:00:00 PM 8.69 47.642 0.114 7.39 2.34 11.2
4/27/2022 7:15:00 PM 8.58 47.444 0.114 7.38 2.31 11.17
4/27/2022 7:30:00 PM 8.47 47.246 0.114 7.36 28.1 11.13
4/27/2022 7:45:00 PM 8.39 47.102 0.115 7.35 2.37 11.08
4/27/2022 8:00:00 PM 8.32 46.976 0.115 7.33 2.36 11.05
4/27/2022 8:15:00 PM 8.24 46.832 0.115 7.32 2.46 11.04
4/27/2022 8:30:00 PM 8.17 46.706 0.115 7.31 2.4 11.02
4/27/2022 8:45:00 PM 8.1 46.58 0.115 7.3 2.27 11.02
4/27/2022 9:00:00 PM 8.03 46.454 0.115 7.3 2.57 11.02
4/27/2022 9:15:00 PM 7.96 46.328 0.116 7.29 2.42 11.02
4/27/2022 9:30:00 PM 7.9 46.22 0.116 7.29 2.44 11.03
4/27/2022 9:45:00 PM 7.84 46.112 0.116 7.28 2.51 11.03
4/27/2022 10:00:00 PM 7.79 46.022 0.116 7.28 2.42 11.04
4/27/2022 10:15:00 PM 7.74 45.932 0.116 7.28 2.58 11.05
4/27/2022 10:30:00 PM 7.68 45.824 0.116 7.28 2.42 11.07
4/27/2022 10:45:00 PM 7.63 45.734 0.116 7.27 2.48 11.08
4/27/2022 11:00:00 PM 7.58 45.644 0.117 7.27 2.34 11.09
4/27/2022 11:15:00 PM 7.53 45.554 0.117 7.27 2.35 11.1
4/27/2022 11:30:00 PM 7.45 45.41 0.117 7.27 2.58 11.12
4/27/2022 11:45:00 PM 7.4 45.32 0.117 7.27 2.44 11.13
4/28/2022 12:00:00 AM 7.35 45.23 0.117 7.27 2.32 11.15
4/28/2022 12:15:00 AM 7.28 45.104 0.117 7.27 2.6 11.16
4/28/2022 12:30:00 AM 7.24 45.032 0.117 7.27 2.27 11.17
4/28/2022 12:45:00 AM 7.19 44.942 0.117 7.27 2.5 11.19
4/28/2022 1:00:00 AM 7.13 44.834 0.117 7.26 2.75 11.2
4/28/2022 1:15:00 AM 7.08 44.744 0.117 7.27 2.39 11.22
4/28/2022 1:30:00 AM 7.03 44.654 0.117 7.27 2.34 11.24
4/28/2022 1:45:00 AM 6.98 44.564 0.117 7.27 2.21 11.25
4/28/2022 2:00:00 AM 6.94 44.492 0.117 7.27 2.48 11.26
4/28/2022 2:15:00 AM 6.9 44.42 0.117 7.26 2.62 11.28
4/28/2022 2:30:00 AM 6.86 44.348 0.118 7.27 2.26 11.29
4/28/2022 2:45:00 AM 6.82 44.276 0.118 7.27 2.38 11.3
4/28/2022 3:00:00 AM 6.78 44.204 0.118 7.27 2.2 11.31
4/28/2022 3:15:00 AM 6.74 44.132 0.089 7.27 2.16 11.32
4/28/2022 3:30:00 AM 6.7 44.06 0.118 7.27 2.34 11.34
4/28/2022 3:45:00 AM 6.66 43.988 0.118 7.26 2.18 11.35
4/28/2022 4:00:00 AM 6.62 43.916 0.118 7.26 2.03 11.36
4/28/2022 4:15:00 AM 6.57 43.826 0.118 7.27 2.27 11.38
4/28/2022 4:30:00 AM 6.53 43.754 0.118 7.26 2.14 11.38
4/28/2022 4:45:00 AM 6.49 43.682 0.118 7.27 2.07 11.4
4/28/2022 5:00:00 AM 6.46 43.628 0.118 7.26 2.13 11.41
4/28/2022 5:15:00 AM 6.43 43.574 0.118 7.26 2.27 11.42
4/28/2022 5:30:00 AM 6.4 43.52 0.118 7.26 1.98 11.43
4/28/2022 5:45:00 AM 6.37 43.466 0.119 7.26 2.17 11.44
4/28/2022 6:00:00 AM 6.34 43.412 0.119 7.26 2.14 11.46
4/28/2022 6:15:00 AM 6.3 43.34 0.119 7.27 2.23 11.47
4/28/2022 6:30:00 AM 6.24 43.232 0.119 7.27 2.63 11.51
4/28/2022 6:45:00 AM 6.21 43.178 0.119 7.28 2.25 11.57
4/28/2022 7:00:00 AM 6.18 43.124 0.119 7.29 2.42 11.64
4/28/2022 7:15:00 AM 6.14 43.052 0.119 7.31 2.32 11.75
4/28/2022 7:30:00 AM 6.13 43.034 0.119 7.33 2.39 11.86
4/28/2022 7:45:00 AM 6.15 43.07 0.119 7.35 2.19 11.97
4/28/2022 8:00:00 AM 6.14 43.052 0.118 7.36 2.06 12.04
4/28/2022 8:15:00 AM 6.17 43.106 0.118 7.38 2.01 12.12
4/28/2022 8:30:00 AM 6.26 43.268 0.118 7.39 2.08 12.17
4/28/2022 8:45:00 AM 6.35 43.43 0.118 7.41 2.27 12.22
4/28/2022 9:00:00 AM 6.45 43.61 0.115 7.42 1.97 12.24
4/28/2022 9:15:00 AM 6.58 43.844 0.092 7.43 2.01 12.27
4/28/2022 9:30:00 AM 6.74 44.132 0.118 7.44 1.97 12.27
4/28/2022 9:45:00 AM 6.91 44.438 0.118 7.45 2.07 12.26
4/28/2022 10:00:00 AM 7.08 44.744 0.118 7.47 2.11 12.26
4/28/2022 10:15:00 AM 7.26 45.068 0.118 7.46 1.99 12.23
4/28/2022 10:30:00 AM 7.47 45.446 0.118 7.48 1.98 12.21
4/28/2022 10:45:00 AM 7.66 45.788 0.118 7.5 2.15 12.19
4/28/2022 11:00:00 AM 7.88 46.184 0.118 7.51 2.04 12.15
4/28/2022 11:15:00 AM 8.12 46.616 0.118 7.52 1.83 12.1
4/28/2022 11:30:00 AM 8.39 47.102 0.118 7.52 6.13 12.07
4/28/2022 11:45:00 AM 8.66 47.588 0.118 7.56 2.05 12.02
4/28/2022 12:00:00 PM 8.95 48.11 0.118 7.58 1.92 11.96
4/28/2022 12:15:00 PM 9.23 48.614 0.118 7.59 1.89 11.9
4/28/2022 12:30:00 PM 9.52 49.136 0.118 7.59 1.9 11.83
4/28/2022 12:45:00 PM 9.81 49.658 0.118 7.6 1.73 11.78
4/28/2022 1:00:00 PM 10.1 50.18 0.118 7.6 1.83 11.71
4/28/2022 1:15:00 PM 10.38 50.684 0.116 7.62 1.92 11.64
4/28/2022 1:30:00 PM 10.66 51.188 0.118 7.61 1.7 11.57
4/28/2022 1:45:00 PM 10.91 51.638 0.118 7.6 1.77 11.51
4/28/2022 2:00:00 PM 11.13 52.034 0.118 7.58 1.97 11.46
4/28/2022 2:15:00 PM 11.35 52.43 0.118 7.57 1.75 11.4
4/28/2022 2:30:00 PM 11.54 52.772 0.118 7.57 3.09 11.36
4/28/2022 2:45:00 PM 11.71 53.078 0.118 7.56 1.9 11.29
4/28/2022 3:00:00 PM 11.85 53.33 0.118 7.56 2.06 11.27
4/28/2022 3:15:00 PM 11.98 53.564 0.118 7.56 1.87 11.23
4/28/2022 3:30:00 PM 12.07 53.726 0.118 7.56 1.78 11.19
4/28/2022 3:45:00 PM 12.11 53.798 0.118 7.55 1.79 11.16
4/28/2022 4:00:00 PM 12.14 53.852 0.118 7.55 1.86 11.13
4/28/2022 4:15:00 PM 12.14 53.852 0.118 7.54 1.79 11.11
4/28/2022 4:30:00 PM 12.12 53.816 0.117 7.54 1.8 11.08
4/28/2022 4:45:00 PM 12.09 53.762 0.119 7.53 1.82 11.06
4/28/2022 5:00:00 PM 12 53.6 0.119 7.52 1.79 11.04
4/28/2022 5:15:00 PM 11.9 53.42 0.119 7.52 1.69 11.03
4/28/2022 5:30:00 PM 11.76 53.168 0.119 7.51 1.85 11.02
4/28/2022 5:45:00 PM 11.58 52.844 0.119 7.5 1.8 11.01
4/28/2022 6:00:00 PM 11.41 52.538 0.119 7.5 1.99 11.03
4/28/2022 6:15:00 PM 11.21 52.178 0.119 7.49 1.93 11.02
4/28/2022 6:30:00 PM 10.99 51.782 0.119 7.47 1.84 11
4/28/2022 6:45:00 PM 10.78 51.404 0.12 7.46 1.91 10.99
4/28/2022 7:00:00 PM 10.55 50.99 0.12 7.44 1.85 10.98
4/28/2022 7:15:00 PM 10.33 50.594 0.12 7.42 1.89 10.94
4/28/2022 7:30:00 PM 10.12 50.216 0.12 7.4 1.82 10.92
4/28/2022 7:45:00 PM 9.91 49.838 0.12 7.38 1.89 10.88
4/28/2022 8:00:00 PM 9.73 49.514 0.121 7.36 1.97 10.83
4/28/2022 8:15:00 PM 9.55 49.19 0.121 7.34 1.89 10.79
4/28/2022 8:30:00 PM 9.39 48.902 0.121 7.32 1.88 10.75
4/28/2022 8:45:00 PM 9.24 48.632 0.121 7.3 1.95 10.73
4/28/2022 9:00:00 PM 9.09 48.362 0.121 7.29 1.8 10.72
4/28/2022 9:15:00 PM 8.95 48.11 0.122 7.28 2 10.72
4/28/2022 9:30:00 PM 8.82 47.876 0.122 7.27 2 10.73
4/28/2022 9:45:00 PM 8.69 47.642 0.122 7.26 1.95 10.74
4/28/2022 10:00:00 PM 8.57 47.426 0.122 7.26 1.95 10.76
4/28/2022 10:15:00 PM 8.45 47.21 0.122 7.25 2.06 10.78
4/28/2022 10:30:00 PM 8.34 47.012 0.122 7.25 1.91 10.8
4/28/2022 10:45:00 PM 8.23 46.814 0.123 7.25 1.89 10.82
4/28/2022 11:00:00 PM 8.13 46.634 0.121 7.25 1.86 10.84
4/28/2022 11:15:00 PM 8.03 46.454 0.123 7.24 1.95 10.86
4/28/2022 11:30:00 PM 7.94 46.292 0.123 7.24 1.87 10.89
4/28/2022 11:45:00 PM 7.84 46.112 0.123 7.24 1.93 10.91
4/29/2022 12:00:00 AM 7.75 45.95 0.123 7.24 1.89 10.93
4/29/2022 12:15:00 AM 7.66 45.788 0.123 7.24 1.91 10.96
4/29/2022 12:30:00 AM 7.57 45.626 0.123 7.24 1.86 10.98
4/29/2022 12:45:00 AM 7.49 45.482 0.124 7.24 1.89 11.01
4/29/2022 1:00:00 AM 7.4 45.32 0.124 7.24 1.76 11.04
4/29/2022 1:15:00 AM 7.31 45.158 0.124 7.24 1.82 11.06
4/29/2022 1:30:00 AM 7.22 44.996 0.124 7.24 1.78 11.08
4/29/2022 1:45:00 AM 7.14 44.852 0.111 7.24 1.78 11.11
4/29/2022 2:00:00 AM 7.05 44.69 0.111 7.24 1.85 11.13
4/29/2022 2:15:00 AM 6.97 44.546 0.124 7.24 1.8 11.16
4/29/2022 2:30:00 AM 6.89 44.402 0.124 7.24 1.8 11.18
4/29/2022 2:45:00 AM 6.81 44.258 0.124 7.24 1.84 11.21
4/29/2022 3:00:00 AM 6.74 44.132 0.108 7.24 1.75 11.23
4/29/2022 3:15:00 AM 6.67 44.006 0.124 7.24 1.65 11.25
4/29/2022 3:30:00 AM 6.6 43.88 0.124 7.24 1.77 11.28
4/29/2022 3:45:00 AM 6.53 43.754 0.124 7.24 1.78 11.3
4/29/2022 4:00:00 AM 6.47 43.646 0.093 7.24 1.87 11.32
4/29/2022 4:15:00 AM 6.4 43.52 0.124 7.24 1.88 11.33
4/29/2022 4:30:00 AM 6.35 43.43 0.124 7.24 1.91 11.35
4/29/2022 4:45:00 AM 6.29 43.322 0.124 7.24 1.82 11.37
4/29/2022 5:00:00 AM 6.24 43.232 0.086 7.24 1.72 11.39
4/29/2022 5:15:00 AM 6.18 43.124 0.125 7.24 1.83 11.41
4/29/2022 5:30:00 AM 6.13 43.034 0.125 7.24 1.95 11.43
4/29/2022 5:45:00 AM 6.08 42.944 0.125 7.24 1.71 11.44
4/29/2022 6:00:00 AM 6.03 42.854 0.125 7.24 1.83 11.46
4/29/2022 6:15:00 AM 5.98 42.764 0.125 7.24 1.69 11.49
4/29/2022 6:30:00 AM 5.94 42.692 0.125 7.25 1.76 11.54
4/29/2022 6:45:00 AM 5.9 42.62 0.125 7.26 1.65 11.61
4/29/2022 7:00:00 AM 5.88 42.584 0.125 7.27 1.6 11.7
4/29/2022 7:15:00 AM 5.88 42.584 0.113 7.29 1.71 11.8
4/29/2022 7:30:00 AM 5.89 42.602 0.125 7.3 1.7 11.9
4/29/2022 7:45:00 AM 5.93 42.674 0.125 7.32 1.77 12
4/29/2022 8:00:00 AM 6 42.8 0.124 7.34 1.84 12.08
4/29/2022 8:15:00 AM 6.08 42.944 0.124 7.35 1.72 12.14
4/29/2022 8:30:00 AM 6.17 43.106 0.124 7.37 1.7 12.2
4/29/2022 8:45:00 AM 6.3 43.34 0.121 7.38 2.06 12.23
4/29/2022 9:00:00 AM 6.43 43.574 0.124 7.4 1.75 12.28
4/29/2022 9:15:00 AM 6.59 43.862 0.124 7.41 1.89 12.29
4/29/2022 9:30:00 AM 6.75 44.15 0.124 7.42 1.77 12.3
4/29/2022 9:45:00 AM 6.94 44.492 0.083 7.43 1.61 12.29
4/29/2022 10:00:00 AM 7.14 44.852 0.108 7.46 1.59 12.29
4/29/2022 10:15:00 AM 7.36 45.248 0.124 7.45 1.68 12.26
4/29/2022 10:30:00 AM 7.59 45.662 0.124 7.48 1.72 12.23
4/29/2022 10:45:00 AM 7.84 46.112 0.124 7.49 1.62 12.21
4/29/2022 11:00:00 AM 8.09 46.562 0.124 7.5 1.63 12.16
4/29/2022 11:15:00 AM 8.35 47.03 0.124 7.54 1.71 12.12
4/29/2022 11:30:00 AM 8.62 47.516 0.123 7.53 1.65 12.07
4/29/2022 11:45:00 AM 8.91 48.038 0.123 7.57 1.64 12.01
4/29/2022 12:00:00 PM 9.21 48.578 0.123 7.59 1.57 11.97
4/29/2022 12:15:00 PM 9.51 49.118 0.123 7.6 1.61 11.92
4/29/2022 12:30:00 PM 9.8 49.64 0.123 7.62 1.54 11.86
4/29/2022 12:45:00 PM 10.1 50.18 0.121 7.63 1.54 11.78
4/29/2022 1:00:00 PM 10.4 50.72 0.123 7.63 1.61 11.71
4/29/2022 1:15:00 PM 10.69 51.242 0.123 7.65 1.5 11.67
4/29/2022 1:30:00 PM 10.99 51.782 0.123 7.64 1.55 11.58
4/29/2022 1:45:00 PM 11.27 52.286 0.123 7.63 1.58 11.53
4/29/2022 2:00:00 PM 11.55 52.79 0.123 7.59 1.48 11.47
4/29/2022 2:15:00 PM 11.8 53.24 0.123 7.59 1.45 11.42
4/29/2022 2:30:00 PM 12.02 53.636 0.123 7.58 1.49 11.35
4/29/2022 2:45:00 PM 12.22 53.996 0.123 7.57 1.36 11.28
4/29/2022 3:00:00 PM 12.39 54.302 0.123 7.57 1.81 11.25
4/29/2022 3:15:00 PM 12.53 54.554 0.123 7.56 1.61 11.18
4/29/2022 3:30:00 PM 12.64 54.752 0.123 7.57 1.95 11.17
4/29/2022 3:45:00 PM 12.71 54.878 0.123 7.57 1.68 11.11
4/29/2022 4:00:00 PM 12.76 54.968 0.123 7.56 1.63 11.08
4/29/2022 4:15:00 PM 12.76 54.968 0.122 7.55 1.42 11.04
4/29/2022 4:30:00 PM 12.75 54.95 0.124 7.55 1.59 11.03
4/29/2022 4:45:00 PM 12.7 54.86 0.124 7.55 1.55 11.01
4/29/2022 5:00:00 PM 12.64 54.752 0.122 7.53 1.56 10.98
4/29/2022 5:15:00 PM 12.54 54.572 0.124 7.53 1.57 10.98
4/29/2022 5:30:00 PM 12.4 54.32 0.124 7.52 1.5 10.96
4/29/2022 5:45:00 PM 12.27 54.086 0.124 7.52 1.56 10.96
4/29/2022 6:00:00 PM 12.08 53.744 0.124 7.51 1.51 10.95
4/29/2022 6:15:00 PM 11.89 53.402 0.124 7.5 1.52 10.93
4/29/2022 6:30:00 PM 11.69 53.042 0.124 7.48 1.6 10.92
4/29/2022 6:45:00 PM 11.48 52.664 0.124 7.46 1.59 10.89
4/29/2022 7:00:00 PM 11.27 52.286 0.125 7.44 1.53 10.86
4/29/2022 7:15:00 PM 11.06 51.908 0.125 7.42 1.54 10.82
4/29/2022 7:30:00 PM 10.85 51.53 0.125 7.4 1.52 10.78
4/29/2022 7:45:00 PM 10.64 51.152 0.125 7.37 1.59 10.73
4/29/2022 8:00:00 PM 10.47 50.846 0.125 7.35 1.57 10.66
4/29/2022 8:15:00 PM 10.29 50.522 0.098 7.33 2.02 10.62
4/29/2022 8:30:00 PM 10.12 50.216 0.126 7.31 1.64 10.57
4/29/2022 8:45:00 PM 9.96 49.928 0.126 7.29 1.69 10.54
4/29/2022 9:00:00 PM 9.79 49.622 0.126 7.28 1.65 10.52
4/29/2022 9:15:00 PM 9.65 49.37 0.126 7.27 1.59 10.52
4/29/2022 9:30:00 PM 9.51 49.118 0.127 7.26 1.68 10.51
4/29/2022 9:45:00 PM 9.36 48.848 0.127 7.25 1.65 10.52
4/29/2022 10:00:00 PM 9.24 48.632 0.127 7.24 1.63 10.54
4/29/2022 10:15:00 PM 9.11 48.398 0.127 7.24 1.67 10.55
4/29/2022 10:30:00 PM 9 48.2 0.127 7.23 1.6 10.57
4/29/2022 10:45:00 PM 8.88 47.984 0.128 7.23 1.6 10.59
4/29/2022 11:00:00 PM 8.76 47.768 0.128 7.23 1.48 10.62
4/29/2022 11:15:00 PM 8.65 47.57 0.128 7.23 1.65 10.65
4/29/2022 11:30:00 PM 8.54 47.372 0.128 7.23 1.55 10.67
4/29/2022 11:45:00 PM 8.44 47.192 0.128 7.23 1.62 10.69
4/30/2022 12:00:00 AM 8.34 47.012 0.128 7.23 1.61 10.72
4/30/2022 12:15:00 AM 8.23 46.814 0.128 7.23 1.57 10.75
4/30/2022 12:30:00 AM 8.14 46.652 0.128 7.23 1.63 10.76
4/30/2022 12:45:00 AM 8.05 46.49 0.128 7.23 1.53 10.8
4/30/2022 1:00:00 AM 7.95 46.31 0.128 7.23 1.57 10.82
4/30/2022 1:15:00 AM 7.87 46.166 0.128 7.22 1.64 10.85
4/30/2022 1:30:00 AM 7.78 46.004 0.129 7.22 1.55 10.85
4/30/2022 1:45:00 AM 7.69 45.842 0.129 7.22 1.63 10.9
4/30/2022 2:00:00 AM 7.6 45.68 0.129 7.22 1.54 10.91
4/30/2022 2:15:00 AM 7.52 45.536 0.129 7.22 1.43 10.94
4/30/2022 2:30:00 AM 7.43 45.374 0.129 7.23 1.61 10.97
4/30/2022 2:45:00 AM 7.35 45.23 0.129 7.22 1.69 10.99
4/30/2022 3:00:00 AM 7.26 45.068 0.129 7.22 1.55 11.02
4/30/2022 3:15:00 AM 7.18 44.924 0.129 7.23 1.52 11.03
4/30/2022 3:30:00 AM 7.1 44.78 0.129 7.22 1.53 11.06
4/30/2022 3:45:00 AM 7.03 44.654 0.129 7.23 1.5 11.08
4/30/2022 4:00:00 AM 6.95 44.51 0.129 7.23 1.58 11.11
4/30/2022 4:15:00 AM 6.88 44.384 0.129 7.23 1.56 11.12
4/30/2022 4:30:00 AM 6.81 44.258 0.129 7.23 1.56 11.14
4/30/2022 4:45:00 AM 6.74 44.132 0.129 7.23 1.54 11.17
4/30/2022 5:00:00 AM 6.68 44.024 0.13 7.23 1.57 11.19
4/30/2022 5:15:00 AM 6.61 43.898 0.13 7.23 1.52 11.21
4/30/2022 5:30:00 AM 6.54 43.772 0.13 7.23 1.56 11.23
4/30/2022 5:45:00 AM 6.49 43.682 0.13 7.23 1.58 11.25
4/30/2022 6:00:00 AM 6.43 43.574 0.13 7.23 1.62 11.28
4/30/2022 6:15:00 AM 6.37 43.466 0.13 7.23 1.63 11.3
4/30/2022 6:30:00 AM 6.32 43.376 0.13 7.24 1.58 11.36
4/30/2022 6:45:00 AM 6.28 43.304 0.13 7.25 1.5 11.45
4/30/2022 7:00:00 AM 6.26 43.268 0.13 7.27 1.57 11.54
4/30/2022 7:15:00 AM 6.26 43.268 0.13 7.28 1.61 11.65
4/30/2022 7:30:00 AM 6.27 43.286 0.129 7.3 1.51 11.76
4/30/2022 7:45:00 AM 6.31 43.358 0.129 7.32 1.52 11.86
4/30/2022 8:00:00 AM 6.38 43.484 0.129 7.33 1.52 11.95
4/30/2022 8:15:00 AM 6.45 43.61 0.129 7.35 1.45 12.03
4/30/2022 8:30:00 AM 6.56 43.808 0.129 7.36 1.55 12.09
4/30/2022 8:45:00 AM 6.68 44.024 0.127 7.38 1.4 12.13
4/30/2022 9:00:00 AM 6.83 44.294 0.129 7.4 1.57 12.18
4/30/2022 9:15:00 AM 7.03 44.654 0.129 7.41 1.5 12.19
4/30/2022 9:30:00 AM 7.23 45.014 0.128 7.42 1.4 12.21
4/30/2022 9:45:00 AM 7.46 45.428 0.128 7.43 1.42 12.19
4/30/2022 10:00:00 AM 7.71 45.878 0.129 7.47 1.37 12.19
4/30/2022 10:15:00 AM 7.96 46.328 0.128 7.47 1.51 12.15
4/30/2022 10:30:00 AM 8.24 46.832 0.128 7.49 1.42 12.13
4/30/2022 10:45:00 AM 8.5 47.3 0.128 7.52 1.56 12.1
4/30/2022 11:00:00 AM 8.77 47.786 0.128 7.52 1.4 12.04
4/30/2022 11:15:00 AM 9.07 48.326 0.128 7.55 1.48 12
4/30/2022 11:30:00 AM 9.35 48.83 0.128 7.57 1.35 11.98
4/30/2022 11:45:00 AM 9.66 49.388 0.128 7.61 1.45 11.93
4/30/2022 12:00:00 PM 9.97 49.946 0.128 7.63 1.38 11.88
4/30/2022 12:15:00 PM 10.27 50.486 0.128 7.66 1.31 11.84
4/30/2022 12:30:00 PM 10.59 51.062 0.128 7.66 1.32 11.77
4/30/2022 12:45:00 PM 10.91 51.638 0.128 7.68 1.34 11.7
4/30/2022 1:00:00 PM 11.23 52.214 0.128 7.69 1.32 11.61
4/30/2022 1:15:00 PM 11.54 52.772 0.128 7.68 1.39 11.54
4/30/2022 1:30:00 PM 11.84 53.312 0.128 7.7 1.3 11.51
4/30/2022 1:45:00 PM 12.15 53.87 0.128 7.68 1.37 11.44
4/30/2022 2:00:00 PM 12.43 54.374 0.127 7.64 1.26 11.37
4/30/2022 2:15:00 PM 12.7 54.86 0.128 7.63 1.42 11.32
4/30/2022 2:30:00 PM 12.95 55.31 0.128 7.63 1.27 11.24
4/30/2022 2:45:00 PM 13.18 55.724 0.128 7.64 2.76 11.17
4/30/2022 3:00:00 PM 13.38 56.084 0.128 7.64 2.59 11.15
4/30/2022 3:15:00 PM 13.54 56.372 0.128 7.62 1.6 11.07
4/30/2022 3:30:00 PM 13.66 56.588 0.128 7.61 1.43 11.03
4/30/2022 3:45:00 PM 13.77 56.786 0.128 7.61 1.45 10.99
4/30/2022 4:00:00 PM 13.83 56.894 0.128 7.6 1.35 10.95
4/30/2022 4:15:00 PM 13.84 56.912 0.128 7.59 1.37 10.92
4/30/2022 4:30:00 PM 13.82 56.876 0.128 7.59 1.29 10.88
4/30/2022 4:45:00 PM 13.76 56.768 0.128 7.58 1.35 10.86
4/30/2022 5:00:00 PM 13.69 56.642 0.128 7.57 1.41 10.84
4/30/2022 5:15:00 PM 13.6 56.48 0.128 7.57 1.35 10.82
4/30/2022 5:30:00 PM 13.48 56.264 0.128 7.57 1.31 10.81
4/30/2022 5:45:00 PM 13.32 55.976 0.128 7.55 1.35 10.79
4/30/2022 6:00:00 PM 13.16 55.688 0.128 7.55 1.31 10.77
4/30/2022 6:15:00 PM 13 55.4 0.128 7.53 1.35 10.77
4/30/2022 6:30:00 PM 12.81 55.058 0.128 7.51 1.37 10.73
4/30/2022 6:45:00 PM 12.61 54.698 0.128 7.49 1.37 10.69
4/30/2022 7:00:00 PM 12.42 54.356 0.129 7.47 1.43 10.65
4/30/2022 7:15:00 PM 12.22 53.996 0.129 7.44 1.36 10.58
4/30/2022 7:30:00 PM 12.05 53.69 0.129 7.41 1.41 10.52
4/30/2022 7:45:00 PM 11.89 53.402 0.129 7.38 1.33 10.45
4/30/2022 8:00:00 PM 11.71 53.078 0.129 7.35 1.37 10.37
4/30/2022 8:15:00 PM 11.54 52.772 0.129 7.33 1.46 10.3
4/30/2022 8:30:00 PM 11.38 52.484 0.13 7.3 1.46 10.23
4/30/2022 8:45:00 PM 11.21 52.178 0.13 7.28 1.29 10.19
4/30/2022 9:00:00 PM 11.05 51.89 0.13 7.27 1.47 10.16
4/30/2022 9:15:00 PM 10.89 51.602 0.13 7.26 2.7 10.15
4/30/2022 9:30:00 PM 10.76 51.368 0.131 7.25 4.33 10.13
4/30/2022 9:45:00 PM 10.62 51.116 0.131 7.24 4.74 10.14
4/30/2022 10:00:00 PM 10.49 50.882 0.131 7.23 3.09 10.14
4/30/2022 10:15:00 PM 10.35 50.63 0.131 7.23 2.6 10.17
4/30/2022 10:30:00 PM 10.21 50.378 0.131 7.23 2.16 10.18
4/30/2022 10:45:00 PM -99999.99 -179968 -99999.99 -99999.99 -99999.99 -99999.99
4/30/2022 11:00:00 PM -99999.99 -179968 -99999.99 -99999.99 -99999.99 -99999.99
4/30/2022 11:15:00 PM -99999.99 -179968 -99999.99 -99999.99 -99999.99 -99999.99
4/30/2022 11:30:00 PM -99999.99 -179968 -99999.99 -99999.99 -99999.99 -99999.99
4/30/2022 11:45:00 PM -99999.99 -179968 -99999.99 -99999.99 -99999.99 -99999.99
5/1/2022 12:00:00 AM -99999.99 -179968 -99999.99 -99999.99 -99999.99 -99999.99
5/1/2022 12:15:00 AM -99999.99 -179968 -99999.99 -99999.99 -99999.99 -99999.99
5/1/2022 12:30:00 AM -99999.99 -179968 -99999.99 -99999.99 -99999.99 -99999.99
5/1/2022 12:45:00 AM -99999.99 -179968 -99999.99 -99999.99 -99999.99 -99999.99
5/1/2022 1:00:00 AM -99999.99 -179968 -99999.99 -99999.99 -99999.99 -99999.99
5/1/2022 1:15:00 AM -99999.99 -179968 -99999.99 -99999.99 -99999.99 -99999.99
5/1/2022 1:30:00 AM -99999.99 -179968 -99999.99 -99999.99 -99999.99 -99999.99
5/1/2022 1:45:00 AM -99999.99 -179968 -99999.99 -99999.99 -99999.99 -99999.99
5/1/2022 2:00:00 AM -99999.99 -179968 -99999.99 -99999.99 -99999.99 -99999.99
5/1/2022 2:15:00 AM -99999.99 -179968 -99999.99 -99999.99 -99999.99 -99999.99
5/1/2022 2:30:00 AM -99999.99 -179968 -99999.99 -99999.99 -99999.99 -99999.99
5/1/2022 2:45:00 AM -99999.99 -179968 -99999.99 -99999.99 -99999.99 -99999.99
5/1/2022 3:00:00 AM -99999.99 -179968 -99999.99 -99999.99 -99999.99 -99999.99
5/1/2022 3:15:00 AM -99999.99 -179968 -99999.99 -99999.99 -99999.99 -99999.99
5/1/2022 3:30:00 AM -99999.99 -179968 -99999.99 -99999.99 -99999.99 -99999.99
5/1/2022 3:45:00 AM -99999.99 -179968 -99999.99 -99999.99 -99999.99 -99999.99
5/1/2022 4:00:00 AM -99999.99 -179968 -99999.99 -99999.99 -99999.99 -99999.99
5/1/2022 4:15:00 AM -99999.99 -179968 -99999.99 -99999.99 -99999.99 -99999.99
5/1/2022 4:30:00 AM -99999.99 -179968 -99999.99 -99999.99 -99999.99 -99999.99
5/1/2022 4:45:00 AM -99999.99 -179968 -99999.99 -99999.99 -99999.99 -99999.99
5/1/2022 5:00:00 AM -99999.99 -179968 -99999.99 -99999.99 -99999.99 -99999.99
5/1/2022 5:15:00 AM -99999.99 -179968 -99999.99 -99999.99 -99999.99 -99999.99
5/1/2022 5:30:00 AM -99999.99 -179968 -99999.99 -99999.99 -99999.99 -99999.99
5/1/2022 5:45:00 AM -99999.99 -179968 -99999.99 -99999.99 -99999.99 -99999.99
5/1/2022 6:00:00 AM -99999.99 -179968 -99999.99 -99999.99 -99999.99 -99999.99
5/1/2022 6:15:00 AM -99999.99 -179968 -99999.99 -99999.99 -99999.99 -99999.99
5/1/2022 6:30:00 AM -99999.99 -179968 -99999.99 -99999.99 -99999.99 -99999.99
5/1/2022 6:45:00 AM -99999.99 -179968 -99999.99 -99999.99 -99999.99 -99999.99
5/1/2022 7:00:00 AM -99999.99 -179968 -99999.99 -99999.99 -99999.99 -99999.99
5/1/2022 7:15:00 AM -99999.99 -179968 -99999.99 -99999.99 -99999.99 -99999.99
5/1/2022 7:30:00 AM -99999.99 -179968 -99999.99 -99999.99 -99999.99 -99999.99
5/1/2022 7:45:00 AM -99999.99 -179968 -99999.99 -99999.99 -99999.99 -99999.99
5/1/2022 8:00:00 AM -99999.99 -179968 -99999.99 -99999.99 -99999.99 -99999.99
5/1/2022 8:15:00 AM -99999.99 -179968 -99999.99 -99999.99 -99999.99 -99999.99
5/1/2022 8:30:00 AM -99999.99 -179968 -99999.99 -99999.99 -99999.99 -99999.99
5/1/2022 8:45:00 AM -99999.99 -179968 -99999.99 -99999.99 -99999.99 -99999.99
5/1/2022 9:00:00 AM -99999.99 -179968 -99999.99 -99999.99 -99999.99 -99999.99
5/1/2022 9:15:00 AM -99999.99 -179968 -99999.99 -99999.99 -99999.99 -99999.99
5/1/2022 9:30:00 AM -99999.99 -179968 -99999.99 -99999.99 -99999.99 -99999.99
5/1/2022 9:45:00 AM -99999.99 -179968 -99999.99 -99999.99 -99999.99 -99999.99
5/1/2022 10:00:00 AM -99999.99 -179968 -99999.99 -99999.99 -99999.99 -99999.99
5/1/2022 10:15:00 AM -99999.99 -179968 -99999.99 -99999.99 -99999.99 -99999.99
5/1/2022 10:30:00 AM -99999.99 -179968 -99999.99 -99999.99 -99999.99 -99999.99
5/1/2022 10:45:00 AM -99999.99 -179968 -99999.99 -99999.99 -99999.99 -99999.99
5/1/2022 11:00:00 AM -99999.99 -179968 -99999.99 -99999.99 -99999.99 -99999.99
5/1/2022 11:15:00 AM -99999.99 -179968 -99999.99 -99999.99 -99999.99 -99999.99
5/1/2022 11:30:00 AM -99999.99 -179968 -99999.99 -99999.99 -99999.99 -99999.99
5/1/2022 11:45:00 AM -99999.99 -179968 -99999.99 -99999.99 -99999.99 -99999.99
5/1/2022 12:00:00 PM -99999.99 -179968 -99999.99 -99999.99 -99999.99 -99999.99
5/1/2022 12:15:00 PM -99999.99 -179968 -99999.99 -99999.99 -99999.99 -99999.99
5/1/2022 12:30:00 PM -99999.99 -179968 -99999.99 -99999.99 -99999.99 -99999.99
5/1/2022 12:45:00 PM -99999.99 -179968 -99999.99 -99999.99 -99999.99 -99999.99
5/1/2022 1:00:00 PM -99999.99 -179968 -99999.99 -99999.99 -99999.99 -99999.99
5/1/2022 1:15:00 PM -99999.99 -179968 -99999.99 -99999.99 -99999.99 -99999.99
5/1/2022 1:30:00 PM -99999.99 -179968 -99999.99 -99999.99 -99999.99 -99999.99
5/1/2022 1:45:00 PM -99999.99 -179968 -99999.99 -99999.99 -99999.99 -99999.99
5/1/2022 2:00:00 PM -99999.99 -179968 -99999.99 -99999.99 -99999.99 -99999.99
5/1/2022 2:15:00 PM -99999.99 -179968 -99999.99 -99999.99 -99999.99 -99999.99
5/1/2022 2:30:00 PM -99999.99 -179968 -99999.99 -99999.99 -99999.99 -99999.99
5/1/2022 2:45:00 PM -99999.99 -179968 -99999.99 -99999.99 -99999.99 -99999.99
5/1/2022 3:00:00 PM -99999.99 -179968 -99999.99 -99999.99 -99999.99 -99999.99
5/1/2022 3:15:00 PM -99999.99 -179968 -99999.99 -99999.99 -99999.99 -99999.99
5/1/2022 3:30:00 PM -99999.99 -179968 -99999.99 -99999.99 -99999.99 -99999.99
5/1/2022 3:45:00 PM -99999.99 -179968 -99999.99 -99999.99 -99999.99 -99999.99
5/1/2022 4:00:00 PM -99999.99 -179968 -99999.99 -99999.99 -99999.99 -99999.99
5/1/2022 4:15:00 PM -99999.99 -179968 -99999.99 -99999.99 -99999.99 -99999.99
5/1/2022 4:30:00 PM -99999.99 -179968 -99999.99 -99999.99 -99999.99 -99999.99
5/1/2022 4:45:00 PM -99999.99 -179968 -99999.99 -99999.99 -99999.99 -99999.99
5/1/2022 5:00:00 PM -99999.99 -179968 -99999.99 -99999.99 -99999.99 -99999.99
5/1/2022 5:15:00 PM -99999.99 -179968 -99999.99 -99999.99 -99999.99 -99999.99
5/1/2022 5:30:00 PM -99999.99 -179968 -99999.99 -99999.99 -99999.99 -99999.99
5/1/2022 5:45:00 PM -99999.99 -179968 -99999.99 -99999.99 -99999.99 -99999.99
5/1/2022 6:00:00 PM -99999.99 -179968 -99999.99 -99999.99 -99999.99 -99999.99
5/1/2022 6:15:00 PM -99999.99 -179968 -99999.99 -99999.99 -99999.99 -99999.99
5/1/2022 6:30:00 PM -99999.99 -179968 -99999.99 -99999.99 -99999.99 -99999.99
5/1/2022 6:45:00 PM -99999.99 -179968 -99999.99 -99999.99 -99999.99 -99999.99
5/1/2022 7:00:00 PM -99999.99 -179968 -99999.99 -99999.99 -99999.99 -99999.99
5/1/2022 7:15:00 PM -99999.99 -179968 -99999.99 -99999.99 -99999.99 -99999.99
5/1/2022 7:30:00 PM -99999.99 -179968 -99999.99 -99999.99 -99999.99 -99999.99
5/1/2022 7:45:00 PM -99999.99 -179968 -99999.99 -99999.99 -99999.99 -99999.99
5/1/2022 8:00:00 PM -99999.99 -179968 -99999.99 -99999.99 -99999.99 -99999.99
5/1/2022 8:15:00 PM -99999.99 -179968 -99999.99 -99999.99 -99999.99 -99999.99
5/1/2022 8:30:00 PM -99999.99 -179968 -99999.99 -99999.99 -99999.99 -99999.99
5/1/2022 8:45:00 PM -99999.99 -179968 -99999.99 -99999.99 -99999.99 -99999.99
5/1/2022 9:00:00 PM -99999.99 -179968 -99999.99 -99999.99 -99999.99 -99999.99
5/1/2022 9:15:00 PM -99999.99 -179968 -99999.99 -99999.99 -99999.99 -99999.99
5/1/2022 9:30:00 PM -99999.99 -179968 -99999.99 -99999.99 -99999.99 -99999.99
5/1/2022 9:45:00 PM -99999.99 -179968 -99999.99 -99999.99 -99999.99 -99999.99
5/1/2022 10:00:00 PM -99999.99 -179968 -99999.99 -99999.99 -99999.99 -99999.99
5/1/2022 10:15:00 PM -99999.99 -179968 -99999.99 -99999.99 -99999.99 -99999.99
5/1/2022 10:30:00 PM -99999.99 -179968 -99999.99 -99999.99 -99999.99 -99999.99
5/1/2022 10:45:00 PM -99999.99 -179968 -99999.99 -99999.99 -99999.99 -99999.99
5/1/2022 11:00:00 PM -99999.99 -179968 -99999.99 -99999.99 -99999.99 -99999.99
5/1/2022 11:15:00 PM -99999.99 -179968 -99999.99 -99999.99 -99999.99 -99999.99
5/1/2022 11:30:00 PM -99999.99 -179968 -99999.99 -99999.99 -99999.99 -99999.99
5/1/2022 11:45:00 PM -99999.99 -179968 -99999.99 -99999.99 -99999.99 -99999.99
5/2/2022 12:00:00 AM -99999.99 -179968 -99999.99 -99999.99 -99999.99 -99999.99
5/2/2022 12:15:00 AM -99999.99 -179968 -99999.99 -99999.99 -99999.99 -99999.99
5/2/2022 12:30:00 AM -99999.99 -179968 -99999.99 -99999.99 -99999.99 -99999.99
5/2/2022 12:45:00 AM -99999.99 -179968 -99999.99 -99999.99 -99999.99 -99999.99
5/2/2022 1:00:00 AM -99999.99 -179968 -99999.99 -99999.99 -99999.99 -99999.99
5/2/2022 1:15:00 AM -99999.99 -179968 -99999.99 -99999.99 -99999.99 -99999.99
5/2/2022 1:30:00 AM -99999.99 -179968 -99999.99 -99999.99 -99999.99 -99999.99
5/2/2022 1:45:00 AM -99999.99 -179968 -99999.99 -99999.99 -99999.99 -99999.99
5/2/2022 2:00:00 AM -99999.99 -179968 -99999.99 -99999.99 -99999.99 -99999.99
5/2/2022 2:15:00 AM -99999.99 -179968 -99999.99 -99999.99 -99999.99 -99999.99
5/2/2022 2:30:00 AM -99999.99 -179968 -99999.99 -99999.99 -99999.99 -99999.99
5/2/2022 2:45:00 AM -99999.99 -179968 -99999.99 -99999.99 -99999.99 -99999.99
5/2/2022 3:00:00 AM -99999.99 -179968 -99999.99 -99999.99 -99999.99 -99999.99
5/2/2022 3:15:00 AM -99999.99 -179968 -99999.99 -99999.99 -99999.99 -99999.99
5/2/2022 3:30:00 AM -99999.99 -179968 -99999.99 -99999.99 -99999.99 -99999.99
5/2/2022 3:45:00 AM -99999.99 -179968 -99999.99 -99999.99 -99999.99 -99999.99
5/2/2022 4:00:00 AM -99999.99 -179968 -99999.99 -99999.99 -99999.99 -99999.99
5/2/2022 4:15:00 AM -99999.99 -179968 -99999.99 -99999.99 -99999.99 -99999.99
5/2/2022 4:30:00 AM -99999.99 -179968 -99999.99 -99999.99 -99999.99 -99999.99
5/2/2022 4:45:00 AM -99999.99 -179968 -99999.99 -99999.99 -99999.99 -99999.99
5/2/2022 5:00:00 AM -99999.99 -179968 -99999.99 -99999.99 -99999.99 -99999.99
5/2/2022 5:15:00 AM -99999.99 -179968 -99999.99 -99999.99 -99999.99 -99999.99
5/2/2022 5:30:00 AM -99999.99 -179968 -99999.99 -99999.99 -99999.99 -99999.99
5/2/2022 5:45:00 AM -99999.99 -179968 -99999.99 -99999.99 -99999.99 -99999.99
5/2/2022 6:00:00 AM -99999.99 -179968 -99999.99 -99999.99 -99999.99 -99999.99
5/2/2022 6:15:00 AM -99999.99 -179968 -99999.99 -99999.99 -99999.99 -99999.99
5/2/2022 6:30:00 AM -99999.99 -179968 -99999.99 -99999.99 -99999.99 -99999.99
5/2/2022 6:45:00 AM -99999.99 -179968 -99999.99 -99999.99 -99999.99 -99999.99
5/2/2022 7:00:00 AM -99999.99 -179968 -99999.99 -99999.99 -99999.99 -99999.99
5/2/2022 7:15:00 AM -99999.99 -179968 -99999.99 -99999.99 -99999.99 -99999.99
5/2/2022 7:30:00 AM -99999.99 -179968 -99999.99 -99999.99 -99999.99 -99999.99
5/2/2022 7:45:00 AM -99999.99 -179968 -99999.99 -99999.99 -99999.99 -99999.99
5/2/2022 8:00:00 AM -99999.99 -179968 -99999.99 -99999.99 -99999.99 -99999.99
5/2/2022 8:15:00 AM -99999.99 -179968 -99999.99 -99999.99 -99999.99 -99999.99
5/2/2022 8:30:00 AM -99999.99 -179968 -99999.99 -99999.99 -99999.99 -99999.99
5/2/2022 8:45:00 AM -99999.99 -179968 -99999.99 -99999.99 -99999.99 -99999.99
5/2/2022 9:00:00 AM -99999.99 -179968 -99999.99 -99999.99 -99999.99 -99999.99
5/2/2022 9:15:00 AM -99999.99 -179968 -99999.99 -99999.99 -99999.99 -99999.99
5/2/2022 9:30:00 AM -99999.99 -179968 -99999.99 -99999.99 -99999.99 -99999.99
5/2/2022 9:45:00 AM -99999.99 -179968 -99999.99 -99999.99 -99999.99 -99999.99
5/2/2022 10:00:00 AM -99999.99 -179968 -99999.99 -99999.99 -99999.99 -99999.99
5/2/2022 10:15:00 AM -99999.99 -179968 -99999.99 -99999.99 -99999.99 -99999.99
5/2/2022 10:30:00 AM -99999.99 -179968 -99999.99 -99999.99 -99999.99 -99999.99
5/2/2022 10:45:00 AM -99999.99 -179968 -99999.99 -99999.99 -99999.99 -99999.99
5/2/2022 11:00:00 AM -99999.99 -179968 -99999.99 -99999.99 -99999.99 -99999.99
5/2/2022 11:15:00 AM -99999.99 -179968 -99999.99 -99999.99 -99999.99 -99999.99
5/2/2022 11:30:00 AM -99999.99 -179968 -99999.99 -99999.99 -99999.99 -99999.99
5/2/2022 11:45:00 AM -99999.99 -179968 -99999.99 -99999.99 -99999.99 -99999.99
5/2/2022 12:00:00 PM -99999.99 -179968 -99999.99 -99999.99 -99999.99 -99999.99
5/2/2022 12:15:00 PM -99999.99 -179968 -99999.99 -99999.99 -99999.99 -99999.99
5/2/2022 12:30:00 PM -99999.99 -179968 -99999.99 -99999.99 -99999.99 -99999.99
5/2/2022 12:45:00 PM -99999.99 -179968 -99999.99 -99999.99 -99999.99 -99999.99
5/2/2022 1:00:00 PM -99999.99 -179968 -99999.99 -99999.99 -99999.99 -99999.99
5/2/2022 1:15:00 PM -99999.99 -179968 -99999.99 -99999.99 -99999.99 -99999.99
5/2/2022 1:30:00 PM -99999.99 -179968 -99999.99 -99999.99 -99999.99 -99999.99
5/2/2022 1:45:00 PM -99999.99 -179968 -99999.99 -99999.99 -99999.99 -99999.99
5/2/2022 2:00:00 PM -99999.99 -179968 -99999.99 -99999.99 -99999.99 -99999.99
5/2/2022 2:15:00 PM -99999.99 -179968 -99999.99 -99999.99 -99999.99 -99999.99
5/2/2022 2:30:00 PM -99999.99 -179968 -99999.99 -99999.99 -99999.99 -99999.99
5/2/2022 2:45:00 PM -99999.99 -179968 -99999.99 -99999.99 -99999.99 -99999.99
5/2/2022 3:00:00 PM -99999.99 -179968 -99999.99 -99999.99 -99999.99 -99999.99
5/2/2022 3:15:00 PM -99999.99 -179968 -99999.99 -99999.99 -99999.99 -99999.99
5/2/2022 3:30:00 PM -99999.99 -179968 -99999.99 -99999.99 -99999.99 -99999.99
5/2/2022 3:45:00 PM -99999.99 -179968 -99999.99 -99999.99 -99999.99 -99999.99
5/2/2022 4:00:00 PM -99999.99 -179968 -99999.99 -99999.99 -99999.99 -99999.99
5/2/2022 4:15:00 PM -99999.99 -179968 -99999.99 -99999.99 -99999.99 -99999.99
5/2/2022 4:30:00 PM -99999.99 -179968 -99999.99 -99999.99 -99999.99 -99999.99
5/2/2022 4:45:00 PM -99999.99 -179968 -99999.99 -99999.99 -99999.99 -99999.99
5/2/2022 5:00:00 PM -99999.99 -179968 -99999.99 -99999.99 -99999.99 -99999.99
5/2/2022 5:15:00 PM -99999.99 -179968 -99999.99 -99999.99 -99999.99 -99999.99
5/2/2022 5:30:00 PM -99999.99 -179968 -99999.99 -99999.99 -99999.99 -99999.99
5/2/2022 5:45:00 PM -99999.99 -179968 -99999.99 -99999.99 -99999.99 -99999.99
5/2/2022 6:00:00 PM -99999.99 -179968 -99999.99 -99999.99 -99999.99 -99999.99
5/2/2022 6:15:00 PM -99999.99 -179968 -99999.99 -99999.99 -99999.99 -99999.99
5/2/2022 6:30:00 PM -99999.99 -179968 -99999.99 -99999.99 -99999.99 -99999.99
5/2/2022 6:45:00 PM -99999.99 -179968 -99999.99 -99999.99 -99999.99 -99999.99
5/2/2022 7:00:00 PM -99999.99 -179968 -99999.99 -99999.99 -99999.99 -99999.99
5/2/2022 7:15:00 PM -99999.99 -179968 -99999.99 -99999.99 -99999.99 -99999.99
5/2/2022 7:30:00 PM -99999.99 -179968 -99999.99 -99999.99 -99999.99 -99999.99
5/2/2022 7:45:00 PM -99999.99 -179968 -99999.99 -99999.99 -99999.99 -99999.99
5/2/2022 8:00:00 PM -99999.99 -179968 -99999.99 -99999.99 -99999.99 -99999.99
5/2/2022 8:15:00 PM -99999.99 -179968 -99999.99 -99999.99 -99999.99 -99999.99
5/2/2022 8:30:00 PM -99999.99 -179968 -99999.99 -99999.99 -99999.99 -99999.99
5/2/2022 8:45:00 PM -99999.99 -179968 -99999.99 -99999.99 -99999.99 -99999.99
5/2/2022 9:00:00 PM -99999.99 -179968 -99999.99 -99999.99 -99999.99 -99999.99
5/2/2022 9:15:00 PM -99999.99 -179968 -99999.99 -99999.99 -99999.99 -99999.99
5/2/2022 9:30:00 PM -99999.99 -179968 -99999.99 -99999.99 -99999.99 -99999.99
5/2/2022 9:45:00 PM -99999.99 -179968 -99999.99 -99999.99 -99999.99 -99999.99
5/2/2022 10:00:00 PM -99999.99 -179968 -99999.99 -99999.99 -99999.99 -99999.99
5/2/2022 10:15:00 PM -99999.99 -179968 -99999.99 -99999.99 -99999.99 -99999.99
5/2/2022 10:30:00 PM -99999.99 -179968 -99999.99 -99999.99 -99999.99 -99999.99
5/2/2022 10:45:00 PM -99999.99 -179968 -99999.99 -99999.99 -99999.99 -99999.99
5/2/2022 11:00:00 PM -99999.99 -179968 -99999.99 -99999.99 -99999.99 -99999.99
5/2/2022 11:15:00 PM -99999.99 -179968 -99999.99 -99999.99 -99999.99 -99999.99
5/2/2022 11:30:00 PM -99999.99 -179968 -99999.99 -99999.99 -99999.99 -99999.99
5/2/2022 11:45:00 PM -99999.99 -179968 -99999.99 -99999.99 -99999.99 -99999.99
5/3/2022 12:00:00 AM -99999.99 -179968 -99999.99 -99999.99 -99999.99 -99999.99
5/3/2022 12:15:00 AM -99999.99 -179968 -99999.99 -99999.99 -99999.99 -99999.99
5/3/2022 12:30:00 AM -99999.99 -179968 -99999.99 -99999.99 -99999.99 -99999.99
5/3/2022 12:45:00 AM -99999.99 -179968 -99999.99 -99999.99 -99999.99 -99999.99
5/3/2022 1:00:00 AM -99999.99 -179968 -99999.99 -99999.99 -99999.99 -99999.99
5/3/2022 1:15:00 AM -99999.99 -179968 -99999.99 -99999.99 -99999.99 -99999.99
5/3/2022 1:30:00 AM -99999.99 -179968 -99999.99 -99999.99 -99999.99 -99999.99
5/3/2022 1:45:00 AM -99999.99 -179968 -99999.99 -99999.99 -99999.99 -99999.99
5/3/2022 2:00:00 AM -99999.99 -179968 -99999.99 -99999.99 -99999.99 -99999.99
5/3/2022 2:15:00 AM -99999.99 -179968 -99999.99 -99999.99 -99999.99 -99999.99
5/3/2022 2:30:00 AM -99999.99 -179968 -99999.99 -99999.99 -99999.99 -99999.99
5/3/2022 2:45:00 AM -99999.99 -179968 -99999.99 -99999.99 -99999.99 -99999.99
5/3/2022 3:00:00 AM -99999.99 -179968 -99999.99 -99999.99 -99999.99 -99999.99
5/3/2022 3:15:00 AM -99999.99 -179968 -99999.99 -99999.99 -99999.99 -99999.99
5/3/2022 3:30:00 AM -99999.99 -179968 -99999.99 -99999.99 -99999.99 -99999.99
5/3/2022 3:45:00 AM -99999.99 -179968 -99999.99 -99999.99 -99999.99 -99999.99
5/3/2022 4:00:00 AM -99999.99 -179968 -99999.99 -99999.99 -99999.99 -99999.99
5/3/2022 4:15:00 AM -99999.99 -179968 -99999.99 -99999.99 -99999.99 -99999.99
5/3/2022 4:30:00 AM -99999.99 -179968 -99999.99 -99999.99 -99999.99 -99999.99
5/3/2022 4:45:00 AM -99999.99 -179968 -99999.99 -99999.99 -99999.99 -99999.99
5/3/2022 5:00:00 AM -99999.99 -179968 -99999.99 -99999.99 -99999.99 -99999.99
5/3/2022 5:15:00 AM -99999.99 -179968 -99999.99 -99999.99 -99999.99 -99999.99
5/3/2022 5:30:00 AM -99999.99 -179968 -99999.99 -99999.99 -99999.99 -99999.99
5/3/2022 5:45:00 AM -99999.99 -179968 -99999.99 -99999.99 -99999.99 -99999.99
5/3/2022 6:00:00 AM -99999.99 -179968 -99999.99 -99999.99 -99999.99 -99999.99
5/3/2022 6:15:00 AM -99999.99 -179968 -99999.99 -99999.99 -99999.99 -99999.99
5/3/2022 6:30:00 AM -99999.99 -179968 -99999.99 -99999.99 -99999.99 -99999.99
5/3/2022 6:45:00 AM -99999.99 -179968 -99999.99 -99999.99 -99999.99 -99999.99
5/3/2022 7:00:00 AM -99999.99 -179968 -99999.99 -99999.99 -99999.99 -99999.99
5/3/2022 7:15:00 AM -99999.99 -179968 -99999.99 -99999.99 -99999.99 -99999.99
5/3/2022 7:30:00 AM -99999.99 -179968 -99999.99 -99999.99 -99999.99 -99999.99
5/3/2022 7:45:00 AM -99999.99 -179968 -99999.99 -99999.99 -99999.99 -99999.99
5/3/2022 8:00:00 AM -99999.99 -179968 -99999.99 -99999.99 -99999.99 -99999.99
5/3/2022 8:15:00 AM -99999.99 -179968 -99999.99 -99999.99 -99999.99 -99999.99
5/3/2022 8:30:00 AM -99999.99 -179968 -99999.99 -99999.99 -99999.99 -99999.99
5/3/2022 8:45:00 AM -99999.99 -179968 -99999.99 -99999.99 -99999.99 -99999.99
5/3/2022 9:00:00 AM -99999.99 -179968 -99999.99 -99999.99 -99999.99 -99999.99
5/3/2022 9:15:00 AM -99999.99 -179968 -99999.99 -99999.99 -99999.99 -99999.99
5/3/2022 9:30:00 AM -99999.99 -179968 -99999.99 -99999.99 -99999.99 -99999.99
5/3/2022 9:45:00 AM -99999.99 -179968 -99999.99 -99999.99 -99999.99 -99999.99
5/3/2022 10:00:00 AM -99999.99 -179968 -99999.99 -99999.99 -99999.99 -99999.99
5/3/2022 10:15:00 AM -99999.99 -179968 -99999.99 -99999.99 -99999.99 -99999.99
5/3/2022 10:30:00 AM -99999.99 -179968 -99999.99 -99999.99 -99999.99 -99999.99
5/3/2022 10:45:00 AM -99999.99 -179968 -99999.99 -99999.99 -99999.99 -99999.99
5/3/2022 11:00:00 AM -99999.99 -179968 -99999.99 -99999.99 -99999.99 -99999.99
5/3/2022 11:15:00 AM -99999.99 -179968 -99999.99 -99999.99 -99999.99 -99999.99
5/3/2022 11:30:00 AM -99999.99 -179968 -99999.99 -99999.99 -99999.99 -99999.99
5/3/2022 11:45:00 AM -99999.99 -179968 -99999.99 -99999.99 -99999.99 -99999.99
5/3/2022 12:00:00 PM -99999.99 -179968 -99999.99 -99999.99 -99999.99 -99999.99
5/3/2022 12:15:00 PM -99999.99 -179968 -99999.99 -99999.99 -99999.99 -99999.99
5/3/2022 12:30:00 PM -99999.99 -179968 -99999.99 -99999.99 -99999.99 -99999.99
5/3/2022 12:45:00 PM -99999.99 -179968 -99999.99 -99999.99 -99999.99 -99999.99
5/3/2022 1:00:00 PM -99999.99 -179968 -99999.99 -99999.99 -99999.99 -99999.99
5/3/2022 1:15:00 PM -99999.99 -179968 -99999.99 -99999.99 -99999.99 -99999.99
5/3/2022 1:30:00 PM -99999.99 -179968 -99999.99 -99999.99 -99999.99 -99999.99
5/3/2022 1:45:00 PM -99999.99 -179968 -99999.99 -99999.99 -99999.99 -99999.99
5/3/2022 2:00:00 PM -99999.99 -179968 -99999.99 -99999.99 -99999.99 -99999.99
5/3/2022 2:15:00 PM -99999.99 -179968 -99999.99 -99999.99 -99999.99 -99999.99
5/3/2022 2:30:00 PM -99999.99 -179968 -99999.99 -99999.99 -99999.99 -99999.99
5/3/2022 2:45:00 PM -99999.99 -179968 -99999.99 -99999.99 -99999.99 -99999.99
5/3/2022 3:00:00 PM -99999.99 -179968 -99999.99 -99999.99 -99999.99 -99999.99
5/3/2022 3:15:00 PM -99999.99 -179968 -99999.99 -99999.99 -99999.99 -99999.99
5/3/2022 3:30:00 PM -99999.99 -179968 -99999.99 -99999.99 -99999.99 -99999.99
5/3/2022 3:45:00 PM -99999.99 -179968 -99999.99 -99999.99 -99999.99 -99999.99
5/3/2022 4:00:00 PM -99999.99 -179968 -99999.99 -99999.99 -99999.99 -99999.99
5/3/2022 4:15:00 PM -99999.99 -179968 -99999.99 -99999.99 -99999.99 -99999.99
5/3/2022 4:30:00 PM -99999.99 -179968 -99999.99 -99999.99 -99999.99 -99999.99
5/3/2022 4:45:00 PM -99999.99 -179968 -99999.99 -99999.99 -99999.99 -99999.99
5/3/2022 5:00:00 PM -99999.99 -179968 -99999.99 -99999.99 -99999.99 -99999.99
5/3/2022 5:15:00 PM -99999.99 -179968 -99999.99 -99999.99 -99999.99 -99999.99
5/3/2022 5:30:00 PM -99999.99 -179968 -99999.99 -99999.99 -99999.99 -99999.99
5/3/2022 5:45:00 PM -99999.99 -179968 -99999.99 -99999.99 -99999.99 -99999.99
5/3/2022 6:00:00 PM -99999.99 -179968 -99999.99 -99999.99 -99999.99 -99999.99
5/3/2022 6:15:00 PM -99999.99 -179968 -99999.99 -99999.99 -99999.99 -99999.99
5/3/2022 6:30:00 PM -99999.99 -179968 -99999.99 -99999.99 -99999.99 -99999.99
5/3/2022 6:45:00 PM -99999.99 -179968 -99999.99 -99999.99 -99999.99 -99999.99
5/3/2022 7:00:00 PM -99999.99 -179968 -99999.99 -99999.99 -99999.99 -99999.99
5/3/2022 7:15:00 PM -99999.99 -179968 -99999.99 -99999.99 -99999.99 -99999.99
5/3/2022 7:30:00 PM -99999.99 -179968 -99999.99 -99999.99 -99999.99 -99999.99
5/3/2022 7:45:00 PM -99999.99 -179968 -99999.99 -99999.99 -99999.99 -99999.99
5/3/2022 8:00:00 PM -99999.99 -179968 -99999.99 -99999.99 -99999.99 -99999.99
5/3/2022 8:15:00 PM -99999.99 -179968 -99999.99 -99999.99 -99999.99 -99999.99
5/3/2022 8:30:00 PM -99999.99 -179968 -99999.99 -99999.99 -99999.99 -99999.99
5/3/2022 8:45:00 PM -99999.99 -179968 -99999.99 -99999.99 -99999.99 -99999.99
5/3/2022 9:00:00 PM -99999.99 -179968 -99999.99 -99999.99 -99999.99 -99999.99
5/3/2022 9:15:00 PM -99999.99 -179968 -99999.99 -99999.99 -99999.99 -99999.99
5/3/2022 9:30:00 PM -99999.99 -179968 -99999.99 -99999.99 -99999.99 -99999.99
5/3/2022 9:45:00 PM -99999.99 -179968 -99999.99 -99999.99 -99999.99 -99999.99
5/3/2022 10:00:00 PM -99999.99 -179968 -99999.99 -99999.99 -99999.99 -99999.99
5/3/2022 10:15:00 PM -99999.99 -179968 -99999.99 -99999.99 -99999.99 -99999.99
5/3/2022 10:30:00 PM -99999.99 -179968 -99999.99 -99999.99 -99999.99 -99999.99
5/3/2022 10:45:00 PM -99999.99 -179968 -99999.99 -99999.99 -99999.99 -99999.99
5/3/2022 11:00:00 PM -99999.99 -179968 -99999.99 -99999.99 -99999.99 -99999.99
5/3/2022 11:15:00 PM -99999.99 -179968 -99999.99 -99999.99 -99999.99 -99999.99
5/3/2022 11:30:00 PM -99999.99 -179968 -99999.99 -99999.99 -99999.99 -99999.99
5/3/2022 11:45:00 PM -99999.99 -179968 -99999.99 -99999.99 -99999.99 -99999.99
5/4/2022 12:00:00 AM -99999.99 -179968 -99999.99 -99999.99 -99999.99 -99999.99
5/4/2022 12:15:00 AM -99999.99 -179968 -99999.99 -99999.99 -99999.99 -99999.99
5/4/2022 12:30:00 AM -99999.99 -179968 -99999.99 -99999.99 -99999.99 -99999.99
5/4/2022 12:45:00 AM -99999.99 -179968 -99999.99 -99999.99 -99999.99 -99999.99
5/4/2022 1:00:00 AM -99999.99 -179968 -99999.99 -99999.99 -99999.99 -99999.99
5/4/2022 1:15:00 AM -99999.99 -179968 -99999.99 -99999.99 -99999.99 -99999.99
5/4/2022 1:30:00 AM -99999.99 -179968 -99999.99 -99999.99 -99999.99 -99999.99
5/4/2022 1:45:00 AM -99999.99 -179968 -99999.99 -99999.99 -99999.99 -99999.99
5/4/2022 2:00:00 AM -99999.99 -179968 -99999.99 -99999.99 -99999.99 -99999.99
5/4/2022 2:15:00 AM -99999.99 -179968 -99999.99 -99999.99 -99999.99 -99999.99
5/4/2022 2:30:00 AM -99999.99 -179968 -99999.99 -99999.99 -99999.99 -99999.99
5/4/2022 2:45:00 AM -99999.99 -179968 -99999.99 -99999.99 -99999.99 -99999.99
5/4/2022 3:00:00 AM -99999.99 -179968 -99999.99 -99999.99 -99999.99 -99999.99
5/4/2022 3:15:00 AM -99999.99 -179968 -99999.99 -99999.99 -99999.99 -99999.99
5/4/2022 3:30:00 AM -99999.99 -179968 -99999.99 -99999.99 -99999.99 -99999.99
5/4/2022 3:45:00 AM -99999.99 -179968 -99999.99 -99999.99 -99999.99 -99999.99
5/4/2022 4:00:00 AM -99999.99 -179968 -99999.99 -99999.99 -99999.99 -99999.99
5/4/2022 4:15:00 AM -99999.99 -179968 -99999.99 -99999.99 -99999.99 -99999.99
5/4/2022 4:30:00 AM -99999.99 -179968 -99999.99 -99999.99 -99999.99 -99999.99
5/4/2022 4:45:00 AM -99999.99 -179968 -99999.99 -99999.99 -99999.99 -99999.99
5/4/2022 5:00:00 AM -99999.99 -179968 -99999.99 -99999.99 -99999.99 -99999.99
5/4/2022 5:15:00 AM -99999.99 -179968 -99999.99 -99999.99 -99999.99 -99999.99
5/4/2022 5:30:00 AM -99999.99 -179968 -99999.99 -99999.99 -99999.99 -99999.99
5/4/2022 5:45:00 AM -99999.99 -179968 -99999.99 -99999.99 -99999.99 -99999.99
5/4/2022 6:00:00 AM -99999.99 -179968 -99999.99 -99999.99 -99999.99 -99999.99
5/4/2022 6:15:00 AM -99999.99 -179968 -99999.99 -99999.99 -99999.99 -99999.99
5/4/2022 6:30:00 AM -99999.99 -179968 -99999.99 -99999.99 -99999.99 -99999.99
5/4/2022 6:45:00 AM -99999.99 -179968 -99999.99 -99999.99 -99999.99 -99999.99
5/4/2022 7:00:00 AM -99999.99 -179968 -99999.99 -99999.99 -99999.99 -99999.99
5/4/2022 7:15:00 AM -99999.99 -179968 -99999.99 -99999.99 -99999.99 -99999.99
5/4/2022 7:30:00 AM -99999.99 -179968 -99999.99 -99999.99 -99999.99 -99999.99
5/4/2022 7:45:00 AM -99999.99 -179968 -99999.99 -99999.99 -99999.99 -99999.99
5/4/2022 8:00:00 AM -99999.99 -179968 -99999.99 -99999.99 -99999.99 -99999.99
5/4/2022 8:15:00 AM -99999.99 -179968 -99999.99 -99999.99 -99999.99 -99999.99
5/4/2022 8:30:00 AM -99999.99 -179968 -99999.99 -99999.99 -99999.99 -99999.99
5/4/2022 8:45:00 AM -99999.99 -179968 -99999.99 -99999.99 -99999.99 -99999.99
5/4/2022 9:00:00 AM -99999.99 -179968 -99999.99 -99999.99 -99999.99 -99999.99
5/4/2022 9:15:00 AM -99999.99 -179968 -99999.99 -99999.99 -99999.99 -99999.99
5/4/2022 9:30:00 AM -99999.99 -179968 -99999.99 -99999.99 -99999.99 -99999.99
5/4/2022 9:45:00 AM -99999.99 -179968 -99999.99 -99999.99 -99999.99 -99999.99
5/4/2022 10:00:00 AM -99999.99 -179968 -99999.99 -99999.99 -99999.99 -99999.99
5/4/2022 10:15:00 AM -99999.99 -179968 -99999.99 -99999.99 -99999.99 -99999.99
5/4/2022 10:30:00 AM -99999.99 -179968 -99999.99 -99999.99 -99999.99 -99999.99
5/4/2022 10:45:00 AM -99999.99 -179968 -99999.99 -99999.99 -99999.99 -99999.99
5/4/2022 11:00:00 AM -99999.99 -179968 -99999.99 -99999.99 -99999.99 -99999.99
5/4/2022 11:15:00 AM -99999.99 -179968 -99999.99 -99999.99 -99999.99 -99999.99
5/4/2022 11:30:00 AM -99999.99 -179968 -99999.99 -99999.99 -99999.99 -99999.99
5/4/2022 11:45:00 AM -99999.99 -179968 -99999.99 -99999.99 -99999.99 -99999.99
5/4/2022 12:00:00 PM -99999.99 -179968 -99999.99 -99999.99 -99999.99 -99999.99
5/4/2022 12:15:00 PM -99999.99 -179968 -99999.99 -99999.99 -99999.99 -99999.99
5/4/2022 12:30:00 PM -99999.99 -179968 -99999.99 -99999.99 -99999.99 -99999.99
5/4/2022 12:45:00 PM -99999.99 -179968 -99999.99 -99999.99 -99999.99 -99999.99
5/4/2022 1:00:00 PM -99999.99 -179968 -99999.99 -99999.99 -99999.99 -99999.99
5/4/2022 1:15:00 PM -99999.99 -179968 -99999.99 -99999.99 -99999.99 -99999.99
5/4/2022 1:30:00 PM -99999.99 -179968 -99999.99 -99999.99 -99999.99 -99999.99
5/4/2022 1:45:00 PM -99999.99 -179968 -99999.99 -99999.99 -99999.99 -99999.99
5/4/2022 2:00:00 PM -99999.99 -179968 -99999.99 -99999.99 -99999.99 -99999.99
5/4/2022 2:15:00 PM -99999.99 -179968 -99999.99 -99999.99 -99999.99 -99999.99
5/4/2022 2:30:00 PM -99999.99 -179968 -99999.99 -99999.99 -99999.99 -99999.99
5/4/2022 2:45:00 PM -99999.99 -179968 -99999.99 -99999.99 -99999.99 -99999.99
5/4/2022 3:00:00 PM -99999.99 -179968 -99999.99 -99999.99 -99999.99 -99999.99
5/4/2022 3:15:00 PM -99999.99 -179968 -99999.99 -99999.99 -99999.99 -99999.99
5/4/2022 3:30:00 PM -99999.99 -179968 -99999.99 -99999.99 -99999.99 -99999.99
5/4/2022 3:45:00 PM -99999.99 -179968 -99999.99 -99999.99 -99999.99 -99999.99
5/4/2022 4:00:00 PM -99999.99 -179968 -99999.99 -99999.99 -99999.99 -99999.99
5/4/2022 4:15:00 PM -99999.99 -179968 -99999.99 -99999.99 -99999.99 -99999.99
5/4/2022 4:30:00 PM -99999.99 -179968 -99999.99 -99999.99 -99999.99 -99999.99
5/4/2022 4:45:00 PM -99999.99 -179968 -99999.99 -99999.99 -99999.99 -99999.99
5/4/2022 5:00:00 PM -99999.99 -179968 -99999.99 -99999.99 -99999.99 -99999.99
5/4/2022 5:15:00 PM -99999.99 -179968 -99999.99 -99999.99 -99999.99 -99999.99
5/4/2022 5:30:00 PM -99999.99 -179968 -99999.99 -99999.99 -99999.99 -99999.99
5/4/2022 5:45:00 PM -99999.99 -179968 -99999.99 -99999.99 -99999.99 -99999.99
5/4/2022 6:00:00 PM -99999.99 -179968 -99999.99 -99999.99 -99999.99 -99999.99
5/4/2022 6:15:00 PM -99999.99 -179968 -99999.99 -99999.99 -99999.99 -99999.99
5/4/2022 6:30:00 PM -99999.99 -179968 -99999.99 -99999.99 -99999.99 -99999.99
5/4/2022 6:45:00 PM -99999.99 -179968 -99999.99 -99999.99 -99999.99 -99999.99
5/4/2022 7:00:00 PM -99999.99 -179968 -99999.99 -99999.99 -99999.99 -99999.99
5/4/2022 7:15:00 PM -99999.99 -179968 -99999.99 -99999.99 -99999.99 -99999.99
5/4/2022 7:30:00 PM -99999.99 -179968 -99999.99 -99999.99 -99999.99 -99999.99
5/4/2022 7:45:00 PM -99999.99 -179968 -99999.99 -99999.99 -99999.99 -99999.99
5/4/2022 8:00:00 PM -99999.99 -179968 -99999.99 -99999.99 -99999.99 -99999.99
5/4/2022 8:15:00 PM -99999.99 -179968 -99999.99 -99999.99 -99999.99 -99999.99
5/4/2022 8:30:00 PM -99999.99 -179968 -99999.99 -99999.99 -99999.99 -99999.99
5/4/2022 8:45:00 PM -99999.99 -179968 -99999.99 -99999.99 -99999.99 -99999.99
5/4/2022 9:00:00 PM -99999.99 -179968 -99999.99 -99999.99 -99999.99 -99999.99
5/4/2022 9:15:00 PM -99999.99 -179968 -99999.99 -99999.99 -99999.99 -99999.99
5/4/2022 9:30:00 PM -99999.99 -179968 -99999.99 -99999.99 -99999.99 -99999.99
5/4/2022 9:45:00 PM -99999.99 -179968 -99999.99 -99999.99 -99999.99 -99999.99
5/4/2022 10:00:00 PM -99999.99 -179968 -99999.99 -99999.99 -99999.99 -99999.99
5/4/2022 10:15:00 PM -99999.99 -179968 -99999.99 -99999.99 -99999.99 -99999.99
5/4/2022 10:30:00 PM -99999.99 -179968 -99999.99 -99999.99 -99999.99 -99999.99
5/4/2022 10:45:00 PM -99999.99 -179968 -99999.99 -99999.99 -99999.99 -99999.99
5/4/2022 11:00:00 PM -99999.99 -179968 -99999.99 -99999.99 -99999.99 -99999.99
5/4/2022 11:15:00 PM -99999.99 -179968 -99999.99 -99999.99 -99999.99 -99999.99
5/4/2022 11:30:00 PM -99999.99 -179968 -99999.99 -99999.99 -99999.99 -99999.99
5/4/2022 11:45:00 PM -99999.99 -179968 -99999.99 -99999.99 -99999.99 -99999.99
5/5/2022 12:00:00 AM -99999.99 -179968 -99999.99 -99999.99 -99999.99 -99999.99
5/5/2022 12:15:00 AM -99999.99 -179968 -99999.99 -99999.99 -99999.99 -99999.99
5/5/2022 12:30:00 AM -99999.99 -179968 -99999.99 -99999.99 -99999.99 -99999.99
5/5/2022 12:45:00 AM -99999.99 -179968 -99999.99 -99999.99 -99999.99 -99999.99
5/5/2022 1:00:00 AM -99999.99 -179968 -99999.99 -99999.99 -99999.99 -99999.99
5/5/2022 1:15:00 AM -99999.99 -179968 -99999.99 -99999.99 -99999.99 -99999.99
5/5/2022 1:30:00 AM -99999.99 -179968 -99999.99 -99999.99 -99999.99 -99999.99
5/5/2022 1:45:00 AM -99999.99 -179968 -99999.99 -99999.99 -99999.99 -99999.99
5/5/2022 2:00:00 AM -99999.99 -179968 -99999.99 -99999.99 -99999.99 -99999.99
5/5/2022 2:15:00 AM -99999.99 -179968 -99999.99 -99999.99 -99999.99 -99999.99
5/5/2022 2:30:00 AM -99999.99 -179968 -99999.99 -99999.99 -99999.99 -99999.99
5/5/2022 2:45:00 AM -99999.99 -179968 -99999.99 -99999.99 -99999.99 -99999.99
5/5/2022 3:00:00 AM -99999.99 -179968 -99999.99 -99999.99 -99999.99 -99999.99
5/5/2022 3:15:00 AM -99999.99 -179968 -99999.99 -99999.99 -99999.99 -99999.99
5/5/2022 3:30:00 AM -99999.99 -179968 -99999.99 -99999.99 -99999.99 -99999.99
5/5/2022 3:45:00 AM -99999.99 -179968 -99999.99 -99999.99 -99999.99 -99999.99
5/5/2022 4:00:00 AM -99999.99 -179968 -99999.99 -99999.99 -99999.99 -99999.99
5/5/2022 4:15:00 AM -99999.99 -179968 -99999.99 -99999.99 -99999.99 -99999.99
5/5/2022 4:30:00 AM -99999.99 -179968 -99999.99 -99999.99 -99999.99 -99999.99
5/5/2022 4:45:00 AM -99999.99 -179968 -99999.99 -99999.99 -99999.99 -99999.99
5/5/2022 5:00:00 AM -99999.99 -179968 -99999.99 -99999.99 -99999.99 -99999.99
5/5/2022 5:15:00 AM -99999.99 -179968 -99999.99 -99999.99 -99999.99 -99999.99
5/5/2022 5:30:00 AM -99999.99 -179968 -99999.99 -99999.99 -99999.99 -99999.99
5/5/2022 5:45:00 AM -99999.99 -179968 -99999.99 -99999.99 -99999.99 -99999.99
5/5/2022 6:00:00 AM -99999.99 -179968 -99999.99 -99999.99 -99999.99 -99999.99
5/5/2022 6:15:00 AM -99999.99 -179968 -99999.99 -99999.99 -99999.99 -99999.99
5/5/2022 6:30:00 AM -99999.99 -179968 -99999.99 -99999.99 -99999.99 -99999.99
5/5/2022 6:45:00 AM -99999.99 -179968 -99999.99 -99999.99 -99999.99 -99999.99
5/5/2022 7:00:00 AM -99999.99 -179968 -99999.99 -99999.99 -99999.99 -99999.99
5/5/2022 7:15:00 AM -99999.99 -179968 -99999.99 -99999.99 -99999.99 -99999.99
5/5/2022 7:30:00 AM -99999.99 -179968 -99999.99 -99999.99 -99999.99 -99999.99
5/5/2022 7:45:00 AM -99999.99 -179968 -99999.99 -99999.99 -99999.99 -99999.99
5/5/2022 8:00:00 AM -99999.99 -179968 -99999.99 -99999.99 -99999.99 -99999.99
5/5/2022 8:15:00 AM -99999.99 -179968 -99999.99 -99999.99 -99999.99 -99999.99
5/5/2022 8:30:00 AM -99999.99 -179968 -99999.99 -99999.99 -99999.99 -99999.99
5/5/2022 8:45:00 AM -99999.99 -179968 -99999.99 -99999.99 -99999.99 -99999.99
5/5/2022 9:00:00 AM -99999.99 -179968 -99999.99 -99999.99 -99999.99 -99999.99
5/5/2022 9:15:00 AM -99999.99 -179968 -99999.99 -99999.99 -99999.99 -99999.99
5/5/2022 9:30:00 AM -99999.99 -179968 -99999.99 -99999.99 -99999.99 -99999.99
5/5/2022 9:45:00 AM -99999.99 -179968 -99999.99 -99999.99 -99999.99 -99999.99
5/5/2022 10:00:00 AM -99999.99 -179968 -99999.99 -99999.99 -99999.99 -99999.99
5/5/2022 10:15:00 AM -99999.99 -179968 -99999.99 -99999.99 -99999.99 -99999.99
5/5/2022 10:30:00 AM -99999.99 -179968 -99999.99 -99999.99 -99999.99 -99999.99
5/5/2022 10:45:00 AM -99999.99 -179968 -99999.99 -99999.99 -99999.99 -99999.99
5/5/2022 11:00:00 AM -99999.99 -179968 -99999.99 -99999.99 -99999.99 -99999.99
5/5/2022 11:15:00 AM -99999.99 -179968 -99999.99 -99999.99 -99999.99 -99999.99
5/5/2022 11:30:00 AM -99999.99 -179968 -99999.99 -99999.99 -99999.99 -99999.99
5/5/2022 11:45:00 AM -99999.99 -179968 -99999.99 -99999.99 -99999.99 -99999.99
5/5/2022 12:00:00 PM -99999.99 -179968 -99999.99 -99999.99 -99999.99 -99999.99
5/5/2022 12:15:00 PM -99999.99 -179968 -99999.99 -99999.99 -99999.99 -99999.99
5/5/2022 12:30:00 PM -99999.99 -179968 -99999.99 -99999.99 -99999.99 -99999.99
5/5/2022 12:45:00 PM -99999.99 -179968 -99999.99 -99999.99 -99999.99 -99999.99
5/5/2022 1:00:00 PM -99999.99 -179968 -99999.99 -99999.99 -99999.99 -99999.99
5/5/2022 1:15:00 PM -99999.99 -179968 -99999.99 -99999.99 -99999.99 -99999.99
5/5/2022 1:30:00 PM -99999.99 -179968 -99999.99 -99999.99 -99999.99 -99999.99
5/5/2022 1:45:00 PM -99999.99 -179968 -99999.99 -99999.99 -99999.99 -99999.99
5/5/2022 2:00:00 PM -99999.99 -179968 -99999.99 -99999.99 -99999.99 -99999.99
5/5/2022 2:15:00 PM -99999.99 -179968 -99999.99 -99999.99 -99999.99 -99999.99
5/5/2022 2:30:00 PM -99999.99 -179968 -99999.99 -99999.99 -99999.99 -99999.99
5/5/2022 2:45:00 PM -99999.99 -179968 -99999.99 -99999.99 -99999.99 -99999.99
5/5/2022 3:00:00 PM -99999.99 -179968 -99999.99 -99999.99 -99999.99 -99999.99
5/5/2022 3:15:00 PM -99999.99 -179968 -99999.99 -99999.99 -99999.99 -99999.99
5/5/2022 3:30:00 PM -99999.99 -179968 -99999.99 -99999.99 -99999.99 -99999.99
5/5/2022 3:45:00 PM -99999.99 -179968 -99999.99 -99999.99 -99999.99 -99999.99
5/5/2022 4:00:00 PM -99999.99 -179968 -99999.99 -99999.99 -99999.99 -99999.99
5/5/2022 4:15:00 PM -99999.99 -179968 -99999.99 -99999.99 -99999.99 -99999.99
5/5/2022 4:30:00 PM -99999.99 -179968 -99999.99 -99999.99 -99999.99 -99999.99
5/5/2022 4:45:00 PM -99999.99 -179968 -99999.99 -99999.99 -99999.99 -99999.99
5/5/2022 5:00:00 PM -99999.99 -179968 -99999.99 -99999.99 -99999.99 -99999.99
5/5/2022 5:15:00 PM -99999.99 -179968 -99999.99 -99999.99 -99999.99 -99999.99
5/5/2022 5:30:00 PM -99999.99 -179968 -99999.99 -99999.99 -99999.99 -99999.99
5/5/2022 5:45:00 PM -99999.99 -179968 -99999.99 -99999.99 -99999.99 -99999.99
5/5/2022 6:00:00 PM -99999.99 -179968 -99999.99 -99999.99 -99999.99 -99999.99
5/5/2022 6:15:00 PM -99999.99 -179968 -99999.99 -99999.99 -99999.99 -99999.99
5/5/2022 6:30:00 PM -99999.99 -179968 -99999.99 -99999.99 -99999.99 -99999.99
5/5/2022 6:45:00 PM -99999.99 -179968 -99999.99 -99999.99 -99999.99 -99999.99
5/5/2022 7:00:00 PM -99999.99 -179968 -99999.99 -99999.99 -99999.99 -99999.99
5/5/2022 7:15:00 PM -99999.99 -179968 -99999.99 -99999.99 -99999.99 -99999.99
5/5/2022 7:30:00 PM -99999.99 -179968 -99999.99 -99999.99 -99999.99 -99999.99
5/5/2022 7:45:00 PM -99999.99 -179968 -99999.99 -99999.99 -99999.99 -99999.99
5/5/2022 8:00:00 PM -99999.99 -179968 -99999.99 -99999.99 -99999.99 -99999.99
5/5/2022 8:15:00 PM -99999.99 -179968 -99999.99 -99999.99 -99999.99 -99999.99
5/5/2022 8:30:00 PM -99999.99 -179968 -99999.99 -99999.99 -99999.99 -99999.99
5/5/2022 8:45:00 PM -99999.99 -179968 -99999.99 -99999.99 -99999.99 -99999.99
5/5/2022 9:00:00 PM -99999.99 -179968 -99999.99 -99999.99 -99999.99 -99999.99
5/5/2022 9:15:00 PM -99999.99 -179968 -99999.99 -99999.99 -99999.99 -99999.99
5/5/2022 9:30:00 PM -99999.99 -179968 -99999.99 -99999.99 -99999.99 -99999.99
5/5/2022 9:45:00 PM -99999.99 -179968 -99999.99 -99999.99 -99999.99 -99999.99
5/5/2022 10:00:00 PM -99999.99 -179968 -99999.99 -99999.99 -99999.99 -99999.99
5/5/2022 10:15:00 PM -99999.99 -179968 -99999.99 -99999.99 -99999.99 -99999.99
5/5/2022 10:30:00 PM -99999.99 -179968 -99999.99 -99999.99 -99999.99 -99999.99
5/5/2022 10:45:00 PM -99999.99 -179968 -99999.99 -99999.99 -99999.99 -99999.99
5/5/2022 11:00:00 PM -99999.99 -179968 -99999.99 -99999.99 -99999.99 -99999.99
5/5/2022 11:15:00 PM -99999.99 -179968 -99999.99 -99999.99 -99999.99 -99999.99
5/5/2022 11:30:00 PM -99999.99 -179968 -99999.99 -99999.99 -99999.99 -99999.99
5/5/2022 11:45:00 PM -99999.99 -179968 -99999.99 -99999.99 -99999.99 -99999.99
5/6/2022 12:00:00 AM -99999.99 -179968 -99999.99 -99999.99 -99999.99 -99999.99
5/6/2022 12:15:00 AM -99999.99 -179968 -99999.99 -99999.99 -99999.99 -99999.99
5/6/2022 12:30:00 AM -99999.99 -179968 -99999.99 -99999.99 -99999.99 -99999.99
5/6/2022 12:45:00 AM -99999.99 -179968 -99999.99 -99999.99 -99999.99 -99999.99
5/6/2022 1:00:00 AM -99999.99 -179968 -99999.99 -99999.99 -99999.99 -99999.99
5/6/2022 1:15:00 AM -99999.99 -179968 -99999.99 -99999.99 -99999.99 -99999.99
5/6/2022 1:30:00 AM -99999.99 -179968 -99999.99 -99999.99 -99999.99 -99999.99
5/6/2022 1:45:00 AM -99999.99 -179968 -99999.99 -99999.99 -99999.99 -99999.99
5/6/2022 2:00:00 AM -99999.99 -179968 -99999.99 -99999.99 -99999.99 -99999.99
5/6/2022 2:15:00 AM -99999.99 -179968 -99999.99 -99999.99 -99999.99 -99999.99
5/6/2022 2:30:00 AM -99999.99 -179968 -99999.99 -99999.99 -99999.99 -99999.99
5/6/2022 2:45:00 AM -99999.99 -179968 -99999.99 -99999.99 -99999.99 -99999.99
5/6/2022 3:00:00 AM -99999.99 -179968 -99999.99 -99999.99 -99999.99 -99999.99
5/6/2022 3:15:00 AM -99999.99 -179968 -99999.99 -99999.99 -99999.99 -99999.99
5/6/2022 3:30:00 AM -99999.99 -179968 -99999.99 -99999.99 -99999.99 -99999.99
5/6/2022 3:45:00 AM -99999.99 -179968 -99999.99 -99999.99 -99999.99 -99999.99
5/6/2022 4:00:00 AM -99999.99 -179968 -99999.99 -99999.99 -99999.99 -99999.99
5/6/2022 4:15:00 AM -99999.99 -179968 -99999.99 -99999.99 -99999.99 -99999.99
5/6/2022 4:30:00 AM -99999.99 -179968 -99999.99 -99999.99 -99999.99 -99999.99
5/6/2022 4:45:00 AM -99999.99 -179968 -99999.99 -99999.99 -99999.99 -99999.99
5/6/2022 5:00:00 AM -99999.99 -179968 -99999.99 -99999.99 -99999.99 -99999.99
5/6/2022 5:15:00 AM -99999.99 -179968 -99999.99 -99999.99 -99999.99 -99999.99
5/6/2022 5:30:00 AM -99999.99 -179968 -99999.99 -99999.99 -99999.99 -99999.99
5/6/2022 5:45:00 AM -99999.99 -179968 -99999.99 -99999.99 -99999.99 -99999.99
5/6/2022 6:00:00 AM -99999.99 -179968 -99999.99 -99999.99 -99999.99 -99999.99
5/6/2022 6:15:00 AM -99999.99 -179968 -99999.99 -99999.99 -99999.99 -99999.99
5/6/2022 6:30:00 AM -99999.99 -179968 -99999.99 -99999.99 -99999.99 -99999.99
5/6/2022 6:45:00 AM -99999.99 -179968 -99999.99 -99999.99 -99999.99 -99999.99
5/6/2022 7:00:00 AM -99999.99 -179968 -99999.99 -99999.99 -99999.99 -99999.99
5/6/2022 7:15:00 AM -99999.99 -179968 -99999.99 -99999.99 -99999.99 -99999.99
5/6/2022 7:30:00 AM -99999.99 -179968 -99999.99 -99999.99 -99999.99 -99999.99
5/6/2022 7:45:00 AM -99999.99 -179968 -99999.99 -99999.99 -99999.99 -99999.99
5/6/2022 8:00:00 AM -99999.99 -179968 -99999.99 -99999.99 -99999.99 -99999.99
5/6/2022 8:15:00 AM -99999.99 -179968 -99999.99 -99999.99 -99999.99 -99999.99
5/6/2022 8:30:00 AM -99999.99 -179968 -99999.99 -99999.99 -99999.99 -99999.99
5/6/2022 8:45:00 AM -99999.99 -179968 -99999.99 -99999.99 -99999.99 -99999.99
5/6/2022 9:00:00 AM -99999.99 -179968 -99999.99 -99999.99 -99999.99 -99999.99
5/6/2022 9:15:00 AM -99999.99 -179968 -99999.99 -99999.99 -99999.99 -99999.99
5/6/2022 9:30:00 AM -99999.99 -179968 -99999.99 -99999.99 -99999.99 -99999.99
5/6/2022 9:45:00 AM -99999.99 -179968 -99999.99 -99999.99 -99999.99 -99999.99
5/6/2022 10:00:00 AM -99999.99 -179968 -99999.99 -99999.99 -99999.99 -99999.99
5/6/2022 10:15:00 AM -99999.99 -179968 -99999.99 -99999.99 -99999.99 -99999.99
5/6/2022 10:30:00 AM -99999.99 -179968 -99999.99 -99999.99 -99999.99 -99999.99
5/6/2022 10:45:00 AM -99999.99 -179968 -99999.99 -99999.99 -99999.99 -99999.99
5/6/2022 11:00:00 AM -99999.99 -179968 -99999.99 -99999.99 -99999.99 -99999.99
5/6/2022 11:15:00 AM -99999.99 -179968 -99999.99 -99999.99 -99999.99 -99999.99
5/6/2022 11:30:00 AM -99999.99 -179968 -99999.99 -99999.99 -99999.99 -99999.99
5/6/2022 11:45:00 AM -99999.99 -179968 -99999.99 -99999.99 -99999.99 -99999.99
5/6/2022 12:00:00 PM -99999.99 -179968 -99999.99 -99999.99 -99999.99 -99999.99
5/6/2022 12:15:00 PM -99999.99 -179968 -99999.99 -99999.99 -99999.99 -99999.99
5/6/2022 12:30:00 PM -99999.99 -179968 -99999.99 -99999.99 -99999.99 -99999.99
5/6/2022 12:45:00 PM -99999.99 -179968 -99999.99 -99999.99 -99999.99 -99999.99
5/6/2022 1:00:00 PM -99999.99 -179968 -99999.99 -99999.99 -99999.99 -99999.99
5/6/2022 1:15:00 PM -99999.99 -179968 -99999.99 -99999.99 -99999.99 -99999.99
5/6/2022 1:30:00 PM -99999.99 -179968 -99999.99 -99999.99 -99999.99 -99999.99
5/6/2022 1:45:00 PM -99999.99 -179968 -99999.99 -99999.99 -99999.99 -99999.99
5/6/2022 2:00:00 PM -99999.99 -179968 -99999.99 -99999.99 -99999.99 -99999.99
5/6/2022 2:15:00 PM -99999.99 -179968 -99999.99 -99999.99 -99999.99 -99999.99
5/6/2022 2:30:00 PM -99999.99 -179968 -99999.99 -99999.99 -99999.99 -99999.99
5/6/2022 2:45:00 PM -99999.99 -179968 -99999.99 -99999.99 -99999.99 -99999.99
5/6/2022 3:00:00 PM -99999.99 -179968 -99999.99 -99999.99 -99999.99 -99999.99
5/6/2022 3:15:00 PM -99999.99 -179968 -99999.99 -99999.99 -99999.99 -99999.99
5/6/2022 3:30:00 PM -99999.99 -179968 -99999.99 -99999.99 -99999.99 -99999.99
5/6/2022 3:45:00 PM -99999.99 -179968 -99999.99 -99999.99 -99999.99 -99999.99
5/6/2022 4:00:00 PM -99999.99 -179968 -99999.99 -99999.99 -99999.99 -99999.99
5/6/2022 4:15:00 PM -99999.99 -179968 -99999.99 -99999.99 -99999.99 -99999.99
5/6/2022 4:30:00 PM -99999.99 -179968 -99999.99 -99999.99 -99999.99 -99999.99
5/6/2022 4:45:00 PM -99999.99 -179968 -99999.99 -99999.99 -99999.99 -99999.99
5/6/2022 5:00:00 PM -99999.99 -179968 -99999.99 -99999.99 -99999.99 -99999.99
5/6/2022 5:15:00 PM -99999.99 -179968 -99999.99 -99999.99 -99999.99 -99999.99
5/6/2022 5:30:00 PM -99999.99 -179968 -99999.99 -99999.99 -99999.99 -99999.99
5/6/2022 5:45:00 PM -99999.99 -179968 -99999.99 -99999.99 -99999.99 -99999.99
5/6/2022 6:00:00 PM -99999.99 -179968 -99999.99 -99999.99 -99999.99 -99999.99
5/6/2022 6:15:00 PM -99999.99 -179968 -99999.99 -99999.99 -99999.99 -99999.99
5/6/2022 6:30:00 PM -99999.99 -179968 -99999.99 -99999.99 -99999.99 -99999.99
5/6/2022 6:45:00 PM -99999.99 -179968 -99999.99 -99999.99 -99999.99 -99999.99
5/6/2022 7:00:00 PM -99999.99 -179968 -99999.99 -99999.99 -99999.99 -99999.99
5/6/2022 7:15:00 PM -99999.99 -179968 -99999.99 -99999.99 -99999.99 -99999.99
5/6/2022 7:30:00 PM -99999.99 -179968 -99999.99 -99999.99 -99999.99 -99999.99
5/6/2022 7:45:00 PM -99999.99 -179968 -99999.99 -99999.99 -99999.99 -99999.99
5/6/2022 8:00:00 PM -99999.99 -179968 -99999.99 -99999.99 -99999.99 -99999.99
5/6/2022 8:15:00 PM -99999.99 -179968 -99999.99 -99999.99 -99999.99 -99999.99
5/6/2022 8:30:00 PM -99999.99 -179968 -99999.99 -99999.99 -99999.99 -99999.99
5/6/2022 8:45:00 PM -99999.99 -179968 -99999.99 -99999.99 -99999.99 -99999.99
5/6/2022 9:00:00 PM -99999.99 -179968 -99999.99 -99999.99 -99999.99 -99999.99
5/6/2022 9:15:00 PM -99999.99 -179968 -99999.99 -99999.99 -99999.99 -99999.99
5/6/2022 9:30:00 PM -99999.99 -179968 -99999.99 -99999.99 -99999.99 -99999.99
5/6/2022 9:45:00 PM -99999.99 -179968 -99999.99 -99999.99 -99999.99 -99999.99
5/6/2022 10:00:00 PM -99999.99 -179968 -99999.99 -99999.99 -99999.99 -99999.99
5/6/2022 10:15:00 PM -99999.99 -179968 -99999.99 -99999.99 -99999.99 -99999.99
5/6/2022 10:30:00 PM -99999.99 -179968 -99999.99 -99999.99 -99999